Darstellungsparameter: Aktuell verwendete Einstellungen:
Skalierung der Graphiken ... ?
xyx+y,   Skalierungsfaktor:      Skalierung: Modus: x, Faktor: 1
Darstellungszeitraum ... ?
Vom - - bis: - -   Zeitraum: 12.11.2009 - 11.05.2010
Min/Max/Avg-Anzeige ... ?
Zeige MMA aktuell
Zeige MMA Monat
Zeige MMA alles
Zeige --A aktuell
Zeige --A Monat
Zeige --A alles
Keine MMA-Anzeige
MMA:
Average (ber die Originaldaten)
MMA-Basis: 11.04.2020 - 13.05.2020
Quicknavigation für Darstellung... ?
Tage:      1T, 2T, 3T, 5T -1T -2T -3T -5T +1T +2T +3T +5T
Wochen: 1W, 2W, 3W -1W -2W -3W +1W +2W +3W
Monate: 1M, 3M, 6M -1M -3M -6M +1M +3M +6M
Jahre:    1J, 3J, 5J, 10J -1J -3J -5J -10J +1J +3J +5J +10J
Nutze für die Darstellung ... ?
Originaldaten oder Mittelwerte auf ...
Stundenbasis Tagesbasis Wochenbasis
Monatsbasis Jahresbasis      Datenbasis: Original-Daten
Darstellen als:
Statistik (Auto) Statistik J:M      Darstellung:
Zur Graphik,    zurück zur Übersicht aller Sensoren.
 
Tabellarische Datenbersicht: ?
 
Sensor: Nr:Datum:Temp:Abs-Feuchte:Windchill:Wind:
Aussen-T/F 1 12-11-2009 00:06:03 3.3 C 5.28 g/m*3 3.3 C 0 km/h
2 12-11-2009 00:18:03 3.1 C 5.21 g/m*3 3.1 C 0 km/h
3 12-11-2009 00:30:03 2.8 C 5.16 g/m*3 2.8 C 0 km/h
4 12-11-2009 00:42:03 2.6 C 5.15 g/m*3 2.6 C 0 km/h
5 12-11-2009 00:54:03 2.4 C 5.08 g/m*3 2.4 C 0 km/h
6 12-11-2009 01:06:03 2.1 C 4.98 g/m*3 2.1 C 0 km/h
7 12-11-2009 01:18:03 2 C 4.95 g/m*3 2 C 0 km/h
8 12-11-2009 01:30:03 1.8 C 4.93 g/m*3 1.8 C 0 km/h
9 12-11-2009 01:42:03 1.7 C 4.9 g/m*3 1.7 C 0 km/h
10 12-11-2009 01:54:03 1.7 C 4.9 g/m*3 1.7 C 0 km/h
11 12-11-2009 02:06:04 1.4 C 4.85 g/m*3 1.4 C 0 km/h
12 12-11-2009 02:18:04 1.3 C 4.82 g/m*3 1.3 C 0 km/h
13 12-11-2009 02:30:04 1.2 C 4.79 g/m*3 1.2 C 0 km/h
14 12-11-2009 02:42:04 1.2 C 4.79 g/m*3 1.2 C 0 km/h
15 12-11-2009 02:54:04 1.1 C 4.76 g/m*3 1.1 C 0 km/h
16 12-11-2009 03:06:04 1 C 4.72 g/m*3 1 C 0 km/h
17 12-11-2009 03:18:04 0.9 C 4.74 g/m*3 0.9 C 0 km/h
18 12-11-2009 03:30:04 0.8 C 4.71 g/m*3 0.8 C 0 km/h
19 12-11-2009 03:42:04 0.8 C 4.71 g/m*3 0.8 C 0 km/h
20 12-11-2009 03:54:04 1 C 4.78 g/m*3 1 C 0 km/h
21 12-11-2009 04:06:04 0.8 C 4.76 g/m*3 0.8 C 0 km/h
22 12-11-2009 04:18:04 0.6 C 4.7 g/m*3 0.6 C 0 km/h
23 12-11-2009 04:30:04 0.5 C 4.66 g/m*3 0.5 C 0 km/h
24 12-11-2009 04:42:04 0.4 C 4.63 g/m*3 0.4 C 0 km/h
25 12-11-2009 04:54:04 0.3 C 4.6 g/m*3 0.3 C 0 km/h
Sensor: Nr:Datum:Temp:Abs-Feuchte:Windchill:Wind:
Aussen-T/F 26 12-11-2009 05:06:04 0.2 C 4.57 g/m*3 0.2 C 0 km/h
27 12-11-2009 05:18:04 0.2 C 4.62 g/m*3 0.2 C 0 km/h
28 12-11-2009 05:30:04 0.4 C 4.68 g/m*3 0.4 C 0 km/h
29 12-11-2009 05:42:04 0.6 C 4.75 g/m*3 0.6 C 0 km/h
30 12-11-2009 05:54:05 0.7 C 4.83 g/m*3 0.7 C 0 km/h
31 12-11-2009 06:06:05 0.9 C 4.9 g/m*3 0.9 C 0 km/h
32 12-11-2009 06:18:03 1 C 4.93 g/m*3 1 C 0 km/h
33 12-11-2009 06:30:03 1.1 C 4.96 g/m*3 1.1 C 0 km/h
34 12-11-2009 06:42:03 1.1 C 4.96 g/m*3 1.1 C 0 km/h
35 12-11-2009 06:54:01 1.2 C 5 g/m*3 1.2 C 0 km/h
36 12-11-2009 07:06:02 1.3 C 5.03 g/m*3 1.3 C 0 km/h
37 12-11-2009 07:18:01 1.4 C 5.07 g/m*3 1.4 C 0 km/h
38 12-11-2009 07:30:01 1.4 C 5.07 g/m*3 1.4 C 0 km/h
39 12-11-2009 07:42:01 1.4 C 5.07 g/m*3 1.4 C 0 km/h
40 12-11-2009 07:54:01 1.7 C 5.17 g/m*3 1.7 C 0 km/h
41 12-11-2009 08:06:02 1.7 C 5.17 g/m*3 1.7 C 0 km/h
42 12-11-2009 08:18:01 1.9 C 5.24 g/m*3 1.9 C 0 km/h
43 12-11-2009 08:30:01 2.2 C 5.35 g/m*3 2.2 C 0 km/h
44 12-11-2009 08:42:02 2.3 C 5.39 g/m*3 2.3 C 0 km/h
45 12-11-2009 08:54:01 2.7 C 5.54 g/m*3 2.7 C 0 km/h
46 12-11-2009 09:06:02 3.1 C 5.69 g/m*3 3.1 C 0 km/h
47 12-11-2009 09:18:01 3.3 C 5.76 g/m*3 3.3 C 0 km/h
48 12-11-2009 09:30:01 3.5 C 5.84 g/m*3 3.5 C 0 km/h
49 12-11-2009 09:42:02 3.7 C 5.92 g/m*3 3.7 C 0 km/h
50 12-11-2009 09:54:01 3.7 C 5.92 g/m*3 3.7 C 0 km/h
Sensor: Nr:Datum:Temp:Abs-Feuchte:Windchill:Wind:
Aussen-T/F 51 12-11-2009 10:06:01 3.5 C 5.84 g/m*3 3.5 C 0 km/h
52 12-11-2009 10:18:02 3.5 C 5.84 g/m*3 3.5 C 0 km/h
53 12-11-2009 10:30:02 3.5 C 5.84 g/m*3 3.5 C 0 km/h
54 12-11-2009 10:42:01 3.7 C 5.92 g/m*3 3.7 C 0 km/h
55 12-11-2009 10:54:02 4 C 6.04 g/m*3 4 C 0 km/h
56 12-11-2009 11:06:02 4.2 C 6.12 g/m*3 4.2 C 0 km/h
57 12-11-2009 11:18:02 4.4 C 6.2 g/m*3 4.4 C 0 km/h
58 12-11-2009 11:30:02 4.6 C 6.29 g/m*3 4.6 C 0 km/h
59 12-11-2009 11:42:02 4.8 C 6.37 g/m*3 4.8 C 0 km/h
60 12-11-2009 11:54:02 5.1 C 6.5 g/m*3 5.1 C 0 km/h
61 12-11-2009 12:06:02 5.3 C 6.58 g/m*3 5.3 C 0 km/h
62 12-11-2009 12:18:01 5.5 C 6.6 g/m*3 5.5 C 0 km/h
63 12-11-2009 12:30:01 5.6 C 6.65 g/m*3 5.6 C 0 km/h
64 12-11-2009 12:42:02 5.7 C 6.62 g/m*3 5.7 C 0 km/h
65 12-11-2009 12:54:02 5.6 C 6.5 g/m*3 5.6 C 0 km/h
66 12-11-2009 13:06:02 5.7 C 6.55 g/m*3 5.7 C 0 km/h
67 12-11-2009 13:18:02 5.8 C 6.59 g/m*3 5.8 C 0 km/h
68 12-11-2009 13:30:02 5.9 C 6.56 g/m*3 5.9 C 0 km/h
69 12-11-2009 13:42:02 6.3 C 6.66 g/m*3 6.3 C 0 km/h
70 12-11-2009 13:54:02 6.6 C 6.72 g/m*3 6.6 C 0 km/h
71 12-11-2009 14:06:02 6.6 C 6.64 g/m*3 6.6 C 0 km/h
72 12-11-2009 14:18:02 6.8 C 6.73 g/m*3 6.8 C 0 km/h
73 12-11-2009 14:30:02 7 C 6.74 g/m*3 7 C 0 km/h
74 12-11-2009 14:42:02 7.3 C 6.79 g/m*3 7.3 C 0 km/h
75 12-11-2009 14:54:02 7.5 C 6.8 g/m*3 7.5 C 0 km/h
Sensor: Nr:Datum:Temp:Abs-Feuchte:Windchill:Wind:
Aussen-T/F 76 12-11-2009 15:06:02 7.4 C 6.76 g/m*3 7.4 C 0 km/h
77 12-11-2009 15:18:02 7.3 C 6.72 g/m*3 7.3 C 0 km/h
78 12-11-2009 15:30:02 7.3 C 6.79 g/m*3 7.3 C 0 km/h
79 12-11-2009 15:42:02 7.4 C 6.84 g/m*3 7.4 C 0 km/h
80 12-11-2009 15:54:02 7.4 C 6.92 g/m*3 7.4 C 0 km/h
81 12-11-2009 16:06:02 7.5 C 6.96 g/m*3 7.5 C 0 km/h
82 12-11-2009 16:18:03 7.5 C 6.96 g/m*3 7.5 C 0 km/h
83 12-11-2009 16:30:03 7.5 C 6.96 g/m*3 7.5 C 0 km/h
84 12-11-2009 16:42:02 7.5 C 6.96 g/m*3 7.5 C 0 km/h
85 12-11-2009 16:54:02 7.6 C 7.01 g/m*3 7.6 C 0 km/h
86 12-11-2009 17:06:02 7.7 C 7.05 g/m*3 7.7 C 0 km/h
87 12-11-2009 17:18:02 7.7 C 7.14 g/m*3 7.7 C 0 km/h
88 12-11-2009 17:30:02 7.7 C 7.14 g/m*3 7.7 C 0 km/h
89 12-11-2009 17:42:02 7.8 C 7.18 g/m*3 7.8 C 0 km/h
90 12-11-2009 17:54:02 7.9 C 7.23 g/m*3 7.9 C 0 km/h
91 12-11-2009 18:06:02 8 C 7.19 g/m*3 8 C 0 km/h
92 12-11-2009 18:18:02 8.2 C 7.29 g/m*3 8.2 C 0 km/h
93 12-11-2009 18:30:02 8.1 C 7.16 g/m*3 8.1 C 0 km/h
94 12-11-2009 18:42:02 8 C 7.11 g/m*3 8 C 0 km/h
95 12-11-2009 18:54:02 7.9 C 7.23 g/m*3 7.9 C 0 km/h
96 12-11-2009 19:06:02 7.9 C 7.23 g/m*3 7.9 C 0 km/h
97 12-11-2009 19:18:02 7.9 C 7.31 g/m*3 7.9 C 0 km/h
98 12-11-2009 19:30:03 7.9 C 7.31 g/m*3 7.9 C 0 km/h
99 12-11-2009 19:42:02 7.8 C 7.26 g/m*3 7.8 C 0 km/h
100 12-11-2009 19:54:02 7.8 C 7.26 g/m*3 7.8 C 0 km/h
Sensor: Nr:Datum:Temp:Abs-Feuchte:Windchill:Wind:
Aussen-T/F 101 12-11-2009 20:06:01 7.8 C 7.35 g/m*3 7.8 C 0 km/h
102 12-11-2009 20:18:02 7.8 C 7.35 g/m*3 7.8 C 0 km/h
103 12-11-2009 20:30:02 7.8 C 7.35 g/m*3 7.8 C 0 km/h
104 12-11-2009 20:42:02 7.6 C 7.33 g/m*3 7.6 C 0 km/h
105 12-11-2009 20:54:01 7.6 C 7.33 g/m*3 7.6 C 0 km/h
106 12-11-2009 21:06:02 7.5 C 7.28 g/m*3 7.5 C 0 km/h
107 12-11-2009 21:18:01 7.3 C 7.27 g/m*3 7.3 C 0 km/h
108 12-11-2009 21:30:01 7.1 C 7.18 g/m*3 7.1 C 0 km/h
109 12-11-2009 21:42:01 7 C 7.13 g/m*3 7 C 0 km/h
110 12-11-2009 21:54:01 7.1 C 7.25 g/m*3 7.1 C 0 km/h
111 12-11-2009 22:07:01 7.4 C 7.4 g/m*3 7.4 C 0 km/h
112 12-11-2009 22:19:01 7.5 C 7.52 g/m*3 7.5 C 0 km/h
113 12-11-2009 22:31:01 7.2 C 7.3 g/m*3 7.2 C 0 km/h
114 12-11-2009 22:43:01 7.3 C 7.35 g/m*3 7.3 C 0 km/h
115 12-11-2009 22:55:01 7.6 C 7.49 g/m*3 7.6 C 0 km/h
116 12-11-2009 23:07:01 8.1 C 7.66 g/m*3 8.1 C 0 km/h
117 12-11-2009 23:19:01 7.9 C 7.47 g/m*3 7.9 C 0 km/h
118 12-11-2009 23:31:02 8 C 7.36 g/m*3 8 C 0 km/h
119 12-11-2009 23:43:02 8.3 C 7.5 g/m*3 8.3 C 0 km/h
120 12-11-2009 23:55:02 8.6 C 7.48 g/m*3 8.6 C 0 km/h
121 13-11-2009 00:07:02 8.5 C 7.26 g/m*3 8.5 C 0 km/h
122 13-11-2009 00:19:02 8.3 C 7.16 g/m*3 8.3 C 0 km/h
123 13-11-2009 00:31:02 8.1 C 7.16 g/m*3 8.1 C 0 km/h
124 13-11-2009 00:43:02 7.5 C 6.96 g/m*3 7.5 C 0 km/h
125 13-11-2009 00:55:02 7.5 C 7.12 g/m*3 7.5 C 0 km/h
Sensor: Nr:Datum:Temp:Abs-Feuchte:Windchill:Wind:
Aussen-T/F 126 13-11-2009 01:07:02 7.3 C 7.03 g/m*3 7.3 C 0 km/h
127 13-11-2009 01:19:02 7.1 C 7.02 g/m*3 7.1 C 0 km/h
128 13-11-2009 01:31:02 7.3 C 7.19 g/m*3 7.3 C 0 km/h
129 13-11-2009 01:43:02 7.5 C 7.36 g/m*3 7.5 C 0 km/h
130 13-11-2009 01:55:02 7.5 C 7.36 g/m*3 7.5 C 0 km/h
131 13-11-2009 02:07:02 7.5 C 7.36 g/m*3 7.5 C 0 km/h
132 13-11-2009 02:19:02 7.7 C 7.54 g/m*3 7.7 C 0 km/h
133 13-11-2009 02:31:02 7.6 C 7.41 g/m*3 7.6 C 0 km/h
134 13-11-2009 02:43:02 7.5 C 7.36 g/m*3 7.5 C 0 km/h
135 13-11-2009 02:55:02 7.9 C 7.64 g/m*3 7.9 C 0 km/h
136 13-11-2009 03:07:02 8.1 C 7.66 g/m*3 8.1 C 0 km/h
137 13-11-2009 03:19:03 8.2 C 7.79 g/m*3 8.2 C 0 km/h
138 13-11-2009 03:31:03 8.5 C 7.94 g/m*3 8.5 C 0 km/h
139 13-11-2009 03:43:03 8.7 C 8.04 g/m*3 8.7 C 0 km/h
140 13-11-2009 03:55:03 8.7 C 8.04 g/m*3 8.7 C 0 km/h
141 13-11-2009 04:07:03 8.6 C 7.99 g/m*3 8.6 C 0 km/h
142 13-11-2009 04:19:03 8.6 C 7.99 g/m*3 8.6 C 0 km/h
143 13-11-2009 04:31:03 8.5 C 7.94 g/m*3 8.5 C 0 km/h
144 13-11-2009 04:43:03 8.7 C 8.13 g/m*3 8.7 C 0 km/h
145 13-11-2009 04:55:03 8.7 C 8.13 g/m*3 8.7 C 0 km/h
146 13-11-2009 05:07:03 8.6 C 8.08 g/m*3 8.6 C 0 km/h
147 13-11-2009 05:19:03 8.7 C 8.13 g/m*3 8.7 C 0 km/h
148 13-11-2009 05:31:03 9 C 8.29 g/m*3 9 C 0 km/h
149 13-11-2009 05:43:03 9.7 C 8.76 g/m*3 9.7 C 0 km/h
150 13-11-2009 05:55:03 9.9 C 8.87 g/m*3 9.9 C 0 km/h
Sensor: Nr:Datum:Temp:Abs-Feuchte:Windchill:Wind:
Aussen-T/F 151 13-11-2009 06:07:03 10.2 C 8.95 g/m*3 10.2 C 0 km/h
152 13-11-2009 06:19:03 10.4 C 9.06 g/m*3 10.4 C 0 km/h
153 13-11-2009 06:31:03 10 C 8.74 g/m*3 10 C 0 km/h
154 13-11-2009 06:43:03 10 C 8.74 g/m*3 10 C 0 km/h
155 13-11-2009 06:55:03 10 C 8.74 g/m*3 10 C 0 km/h
156 13-11-2009 07:07:01 9.8 C 8.72 g/m*3 9.8 C 0 km/h
157 13-11-2009 07:19:02 9.7 C 8.67 g/m*3 9.7 C 0 km/h
158 13-11-2009 07:31:02 10.1 C 8.89 g/m*3 10.1 C 0 km/h
159 13-11-2009 07:43:02 10.3 C 9 g/m*3 10.3 C 0 km/h
160 13-11-2009 07:55:02 10.6 C 9.17 g/m*3 10.6 C 0 km/h
161 13-11-2009 08:07:03 10.6 C 9.08 g/m*3 10.6 C 0 km/h
162 13-11-2009 08:19:02 10.7 C 9.13 g/m*3 10.7 C 0 km/h
163 13-11-2009 08:31:03 11 C 9.11 g/m*3 11 C 0 km/h
164 13-11-2009 08:43:03 11.2 C 9.02 g/m*3 11.2 C 0 km/h
165 13-11-2009 08:55:02 11.4 C 8.93 g/m*3 11.4 C 0 km/h
166 13-11-2009 09:07:03 11.5 C 8.78 g/m*3 11.5 C 0 km/h
167 13-11-2009 09:19:02 11.7 C 8.79 g/m*3 11.7 C 0 km/h
168 13-11-2009 09:31:03 11.8 C 8.74 g/m*3 11.8 C 0 km/h
169 13-11-2009 09:43:04 12 C 8.74 g/m*3 12 C 0 km/h
170 13-11-2009 09:55:02 11.9 C 8.79 g/m*3 11.9 C 0 km/h
171 13-11-2009 10:07:02 12.2 C 8.85 g/m*3 12.2 C 0 km/h
172 13-11-2009 10:19:02 12.9 C 8.9 g/m*3 12.9 C 0 km/h
173 13-11-2009 10:31:02 13.3 C 8.55 g/m*3 13.3 C 0 km/h
174 13-11-2009 10:43:02 13.5 C 8.54 g/m*3 13.5 C 0 km/h
175 13-11-2009 10:55:02 13.6 C 8.59 g/m*3 13.6 C 0 km/h
Sensor: Nr:Datum:Temp:Abs-Feuchte:Windchill:Wind:
Aussen-T/F 176 13-11-2009 11:07:02 13.6 C 8.47 g/m*3 13.6 C 0 km/h
177 13-11-2009 11:19:02 13.7 C 8.53 g/m*3 13.7 C 0 km/h
178 13-11-2009 11:31:02 13.8 C 8.46 g/m*3 13.8 C 0 km/h
179 13-11-2009 11:43:02 13.8 C 8.58 g/m*3 13.8 C 0 km/h
180 13-11-2009 11:55:02 13.8 C 8.58 g/m*3 13.8 C 0 km/h
181 13-11-2009 12:07:02 13.9 C 8.51 g/m*3 13.9 C 0 km/h
182 13-11-2009 12:19:02 14.1 C 8.25 g/m*3 14.1 C 0 km/h
183 13-11-2009 12:31:01 14.2 C 8.18 g/m*3 14.2 C 0 km/h
184 13-11-2009 12:43:01 14.2 C 8.06 g/m*3 14.2 C 0 km/h
185 13-11-2009 12:55:02 14.2 C 8.06 g/m*3 14.2 C 0 km/h
186 13-11-2009 13:07:01 14.3 C 7.99 g/m*3 14.3 C 0 km/h
187 13-11-2009 13:19:02 14.6 C 8.01 g/m*3 14.6 C 0 km/h
188 13-11-2009 13:31:02 14.9 C 8.03 g/m*3 14.9 C 0 km/h
189 13-11-2009 13:43:02 15.3 C 7.84 g/m*3 15.3 C 0 km/h
190 13-11-2009 13:55:02 16.3 C 7.91 g/m*3 16.3 C 0 km/h
191 13-11-2009 14:07:02 17.1 C 7.57 g/m*3 17.1 C 0 km/h
192 13-11-2009 14:19:02 17.4 C 7.26 g/m*3 17.4 C 0 km/h
193 13-11-2009 14:31:02 17.4 C 7.11 g/m*3 17.4 C 0 km/h
194 13-11-2009 14:43:02 17.5 C 6.86 g/m*3 17.5 C 0 km/h
195 13-11-2009 14:55:02 17.3 C 6.92 g/m*3 17.3 C 0 km/h
196 13-11-2009 15:07:02 17.3 C 7.22 g/m*3 17.3 C 0 km/h
197 13-11-2009 15:19:01 17.1 C 7.42 g/m*3 17.1 C 0 km/h
198 13-11-2009 15:31:02 16.6 C 7.35 g/m*3 16.6 C 0 km/h
199 13-11-2009 15:43:03 16.1 C 7.54 g/m*3 16.1 C 0 km/h
200 13-11-2009 15:55:02 15.6 C 7.58 g/m*3 15.6 C 0 km/h
Sensor: Nr:Datum:Temp:Abs-Feuchte:Windchill:Wind:
Aussen-T/F 201 13-11-2009 16:07:02 15.1 C 7.61 g/m*3 15.1 C 0 km/h
202 13-11-2009 16:19:02 14.7 C 7.55 g/m*3 14.7 C 0 km/h
203 13-11-2009 16:31:02 14.2 C 7.82 g/m*3 14.2 C 0 km/h
204 13-11-2009 16:43:02 13.6 C 8 g/m*3 13.6 C 0 km/h
205 13-11-2009 16:55:02 12.8 C 8.06 g/m*3 12.8 C 0 km/h
206 13-11-2009 17:07:02 12.5 C 8.14 g/m*3 12.5 C 0 km/h
207 13-11-2009 17:19:02 12.3 C 8.04 g/m*3 12.3 C 0 km/h
208 13-11-2009 17:31:02 12.1 C 8.04 g/m*3 12.1 C 0 km/h
209 13-11-2009 17:43:02 11.9 C 8.15 g/m*3 11.9 C 0 km/h
210 13-11-2009 17:55:02 11.6 C 8 g/m*3 11.6 C 0 km/h
211 13-11-2009 18:07:02 11.5 C 8.06 g/m*3 11.5 C 0 km/h
212 13-11-2009 18:19:03 11.2 C 8.01 g/m*3 11.2 C 0 km/h
213 13-11-2009 18:31:02 11.3 C 8.16 g/m*3 11.3 C 0 km/h
214 13-11-2009 18:43:02 11 C 8.01 g/m*3 11 C 0 km/h
215 13-11-2009 18:55:03 11 C 8.11 g/m*3 11 C 0 km/h
216 13-11-2009 19:07:02 11 C 8.21 g/m*3 11 C 0 km/h
217 13-11-2009 19:19:02 11.1 C 8.36 g/m*3 11.1 C 0 km/h
218 13-11-2009 19:31:02 10.8 C 8.2 g/m*3 10.8 C 0 km/h
219 13-11-2009 19:43:02 10.8 C 8.3 g/m*3 10.8 C 0 km/h
220 13-11-2009 19:55:02 10.5 C 8.15 g/m*3 10.5 C 0 km/h
221 13-11-2009 20:07:02 10.7 C 8.35 g/m*3 10.7 C 0 km/h
222 13-11-2009 20:19:02 10.5 C 8.24 g/m*3 10.5 C 0 km/h
223 13-11-2009 20:31:02 10.4 C 8.29 g/m*3 10.4 C 0 km/h
224 13-11-2009 20:43:02 10.3 C 8.24 g/m*3 10.3 C 0 km/h
225 13-11-2009 20:55:02 10.2 C 8.28 g/m*3 10.2 C 0 km/h
Sensor: Nr:Datum:Temp:Abs-Feuchte:Windchill:Wind:
Aussen-T/F 226 13-11-2009 21:07:02 10.4 C 8.48 g/m*3 10.4 C 0 km/h
227 13-11-2009 21:19:02 10.3 C 8.43 g/m*3 10.3 C 0 km/h
228 13-11-2009 21:31:02 10.3 C 8.43 g/m*3 10.3 C 0 km/h
229 13-11-2009 21:43:02 10.1 C 8.32 g/m*3 10.1 C 0 km/h
230 13-11-2009 21:55:01 10.2 C 8.47 g/m*3 10.2 C 0 km/h
231 13-11-2009 22:08:04 10.2 C 8.47 g/m*3 10.2 C 0 km/h
232 13-11-2009 22:20:04 10.1 C 8.42 g/m*3 10.1 C 0 km/h
233 13-11-2009 22:32:04 9.9 C 8.4 g/m*3 9.9 C 0 km/h
234 13-11-2009 22:44:04 9.7 C 8.3 g/m*3 9.7 C 0 km/h
235 13-11-2009 22:56:04 9.8 C 8.44 g/m*3 9.8 C 0 km/h
236 13-11-2009 23:08:04 9.7 C 8.39 g/m*3 9.7 C 0 km/h
237 13-11-2009 23:20:04 9.7 C 8.39 g/m*3 9.7 C 0 km/h
238 13-11-2009 23:32:04 9.7 C 8.48 g/m*3 9.7 C 0 km/h
239 13-11-2009 23:44:04 9.7 C 8.48 g/m*3 9.7 C 0 km/h
240 13-11-2009 23:56:04 9.7 C 8.48 g/m*3 9.7 C 0 km/h
241 14-11-2009 00:08:04 9.6 C 8.43 g/m*3 9.6 C 0 km/h
242 14-11-2009 00:20:04 9.5 C 8.37 g/m*3 9.5 C 0 km/h
243 14-11-2009 00:32:04 9.5 C 8.37 g/m*3 9.5 C 0 km/h
244 14-11-2009 00:44:05 9.4 C 8.32 g/m*3 9.4 C 0 km/h
245 14-11-2009 00:56:05 9.5 C 8.47 g/m*3 9.5 C 0 km/h
246 14-11-2009 01:08:05 9.5 C 8.47 g/m*3 9.5 C 0 km/h
247 14-11-2009 01:20:05 9.5 C 8.47 g/m*3 9.5 C 0 km/h
248 14-11-2009 01:32:05 9.4 C 8.41 g/m*3 9.4 C 0 km/h
249 14-11-2009 01:44:05 9.4 C 8.41 g/m*3 9.4 C 0 km/h
250 14-11-2009 01:56:05 9.3 C 8.36 g/m*3 9.3 C 0 km/h
Sensor: Nr:Datum:Temp:Abs-Feuchte:Windchill:Wind:
Aussen-T/F 251 14-11-2009 02:08:05 9.1 C 8.25 g/m*3 9.1 C 0 km/h
252 14-11-2009 02:20:05 9.1 C 8.25 g/m*3 9.1 C 0 km/h
253 14-11-2009 02:32:05 9.1 C 8.34 g/m*3 9.1 C 0 km/h
254 14-11-2009 02:44:05 9.5 C 8.56 g/m*3 9.5 C 0 km/h
255 14-11-2009 02:56:05 9.6 C 8.61 g/m*3 9.6 C 0 km/h
256 14-11-2009 03:08:05 9.6 C 8.61 g/m*3 9.6 C 0 km/h
257 14-11-2009 03:20:05 9.8 C 8.72 g/m*3 9.8 C 0 km/h
258 14-11-2009 03:32:05 9.9 C 8.78 g/m*3 9.9 C 0 km/h
259 14-11-2009 03:44:05 10 C 8.74 g/m*3 10 C 0 km/h
260 14-11-2009 03:56:05 10.1 C 8.79 g/m*3 10.1 C 0 km/h
261 14-11-2009 04:08:05 10.2 C 8.85 g/m*3 10.2 C 0 km/h
262 14-11-2009 04:20:05 10.4 C 8.87 g/m*3 10.4 C 0 km/h
263 14-11-2009 04:32:05 10.5 C 8.83 g/m*3 10.5 C 0 km/h
264 14-11-2009 04:44:06 10.6 C 8.88 g/m*3 10.6 C 0 km/h
265 14-11-2009 04:56:06 10.5 C 8.73 g/m*3 10.5 C 0 km/h
266 14-11-2009 05:08:06 10.6 C 8.69 g/m*3 10.6 C 0 km/h
267 14-11-2009 05:20:06 10.7 C 8.64 g/m*3 10.7 C 0 km/h
268 14-11-2009 05:32:06 10.9 C 8.55 g/m*3 10.9 C 0 km/h
269 14-11-2009 05:44:06 10.8 C 8.3 g/m*3 10.8 C 0 km/h
270 14-11-2009 05:56:06 10.7 C 8.25 g/m*3 10.7 C 0 km/h
271 14-11-2009 06:08:06 10.7 C 8.25 g/m*3 10.7 C 0 km/h
272 14-11-2009 06:20:06 11 C 8.21 g/m*3 11 C 0 km/h
273 14-11-2009 06:32:06 11 C 8.11 g/m*3 11 C 0 km/h
274 14-11-2009 06:44:06 10.8 C 8.11 g/m*3 10.8 C 0 km/h
275 14-11-2009 06:56:06 10.7 C 8.05 g/m*3 10.7 C 0 km/h
Sensor: Nr:Datum:Temp:Abs-Feuchte:Windchill:Wind:
Aussen-T/F 276 14-11-2009 07:08:06 10.7 C 8.05 g/m*3 10.7 C 0 km/h
277 14-11-2009 07:20:06 10.7 C 7.96 g/m*3 10.7 C 0 km/h
278 14-11-2009 07:32:06 10.7 C 7.96 g/m*3 10.7 C 0 km/h
279 14-11-2009 07:44:06 10.7 C 8.05 g/m*3 10.7 C 0 km/h
280 14-11-2009 07:56:06 10.7 C 7.96 g/m*3 10.7 C 0 km/h
281 14-11-2009 08:08:06 10.8 C 8.01 g/m*3 10.8 C 0 km/h
282 14-11-2009 08:20:03 10.7 C 7.86 g/m*3 10.7 C 0 km/h
283 14-11-2009 08:32:03 10.8 C 7.91 g/m*3 10.8 C 0 km/h
284 14-11-2009 08:44:03 11 C 7.91 g/m*3 11 C 0 km/h
285 14-11-2009 08:56:01 11.2 C 7.91 g/m*3 11.2 C 0 km/h
286 14-11-2009 09:08:02 11.3 C 7.85 g/m*3 11.3 C 0 km/h
287 14-11-2009 09:20:02 11.6 C 7.9 g/m*3 11.6 C 0 km/h
288 14-11-2009 09:32:01 11.8 C 7.89 g/m*3 11.8 C 0 km/h
289 14-11-2009 09:44:01 12 C 7.78 g/m*3 12 C 0 km/h
290 14-11-2009 09:56:01 12.9 C 7.78 g/m*3 12.9 C 0 km/h
291 14-11-2009 10:08:02 13.2 C 7.46 g/m*3 13.2 C 0 km/h
292 14-11-2009 10:20:02 14 C 7.36 g/m*3 14 C 0 km/h
293 14-11-2009 10:32:01 14.6 C 7.13 g/m*3 14.6 C 0 km/h
294 14-11-2009 10:44:01 14.7 C 7.05 g/m*3 14.7 C 0 km/h
295 14-11-2009 10:56:01 14.7 C 7.05 g/m*3 14.7 C 0 km/h
296 14-11-2009 11:08:01 14.6 C 7.01 g/m*3 14.6 C 0 km/h
297 14-11-2009 11:20:02 14.6 C 7.01 g/m*3 14.6 C 0 km/h
298 14-11-2009 11:32:01 14.6 C 7.26 g/m*3 14.6 C 0 km/h
299 14-11-2009 11:44:01 14.8 C 6.97 g/m*3 14.8 C 0 km/h
300 14-11-2009 11:56:03 14.9 C 7.14 g/m*3 14.9 C 0 km/h
Sensor: Nr:Datum:Temp:Abs-Feuchte:Windchill:Wind:
Aussen-T/F 301 14-11-2009 12:08:02 15.2 C 7.01 g/m*3 15.2 C 0 km/h
302 14-11-2009 12:20:02 15.4 C 6.96 g/m*3 15.4 C 0 km/h
303 14-11-2009 12:32:02 14.9 C 7.39 g/m*3 14.9 C 0 km/h
304 14-11-2009 12:44:02 14 C 7.48 g/m*3 14 C 0 km/h
305 14-11-2009 12:56:02 13.5 C 8.07 g/m*3 13.5 C 0 km/h
306 14-11-2009 13:08:02 13.1 C 8.44 g/m*3 13.1 C 0 km/h
307 14-11-2009 13:20:02 13.1 C 8.67 g/m*3 13.1 C 0 km/h
308 14-11-2009 13:32:02 13.1 C 9.01 g/m*3 13.1 C 0 km/h
309 14-11-2009 13:44:02 12.9 C 9.13 g/m*3 12.9 C 0 km/h
310 14-11-2009 13:56:02 13.1 C 8.9 g/m*3 13.1 C 0 km/h
311 14-11-2009 14:08:01 13.6 C 8.47 g/m*3 13.6 C 0 km/h
312 14-11-2009 14:20:01 13.6 C 8.24 g/m*3 13.6 C 0 km/h
313 14-11-2009 14:32:02 13.4 C 8.14 g/m*3 13.4 C 0 km/h
314 14-11-2009 14:44:02 13.2 C 8.04 g/m*3 13.2 C 0 km/h
315 14-11-2009 14:56:02 13.2 C 7.92 g/m*3 13.2 C 0 km/h
316 14-11-2009 15:08:02 13.1 C 7.76 g/m*3 13.1 C 0 km/h
317 14-11-2009 15:20:01 13.2 C 7.81 g/m*3 13.2 C 0 km/h
318 14-11-2009 15:32:02 13.2 C 7.81 g/m*3 13.2 C 0 km/h
319 14-11-2009 15:44:02 13.3 C 7.74 g/m*3 13.3 C 0 km/h
320 14-11-2009 15:56:02 13 C 7.6 g/m*3 13 C 0 km/h
321 14-11-2009 16:08:02 12.8 C 7.62 g/m*3 12.8 C 0 km/h
322 14-11-2009 16:20:02 12.8 C 7.5 g/m*3 12.8 C 0 km/h
323 14-11-2009 16:32:02 12.6 C 7.3 g/m*3 12.6 C 0 km/h
324 14-11-2009 16:44:02 12.5 C 7.26 g/m*3 12.5 C 0 km/h
325 14-11-2009 16:56:02 12.5 C 7.15 g/m*3 12.5 C 0 km/h
Sensor: Nr:Datum:Temp:Abs-Feuchte:Windchill:Wind:
Aussen-T/F 326 14-11-2009 17:08:02 12.3 C 7.17 g/m*3 12.3 C 0 km/h
327 14-11-2009 17:20:02 12.3 C 7.17 g/m*3 12.3 C 0 km/h
328 14-11-2009 17:32:02 11.8 C 7.26 g/m*3 11.8 C 0 km/h
329 14-11-2009 17:44:02 11.5 C 7.23 g/m*3 11.5 C 0 km/h
330 14-11-2009 17:56:02 11.4 C 7.39 g/m*3 11.4 C 0 km/h
331 14-11-2009 18:08:02 11.2 C 7.4 g/m*3 11.2 C 0 km/h
332 14-11-2009 18:20:03 11.2 C 7.4 g/m*3 11.2 C 0 km/h
333 14-11-2009 18:32:02 11.3 C 7.45 g/m*3 11.3 C 0 km/h
334 14-11-2009 18:44:02 11.1 C 7.35 g/m*3 11.1 C 0 km/h
335 14-11-2009 18:56:02 10.8 C 7.31 g/m*3 10.8 C 0 km/h
336 14-11-2009 19:08:02 10.4 C 7.23 g/m*3 10.4 C 0 km/h
337 14-11-2009 19:20:02 10.2 C 7.33 g/m*3 10.2 C 0 km/h
338 14-11-2009 19:32:02 10.3 C 7.47 g/m*3 10.3 C 0 km/h
339 14-11-2009 19:44:02 10.7 C 7.46 g/m*3 10.7 C 0 km/h
340 14-11-2009 19:56:02 10.7 C 7.56 g/m*3 10.7 C 0 km/h
341 14-11-2009 20:08:02 10.8 C 7.61 g/m*3 10.8 C 0 km/h
342 14-11-2009 20:20:02 10.8 C 7.51 g/m*3 10.8 C 0 km/h
343 14-11-2009 20:32:02 10.7 C 7.37 g/m*3 10.7 C 0 km/h
344 14-11-2009 20:44:02 11 C 7.41 g/m*3 11 C 0 km/h
345 14-11-2009 20:56:02 11.1 C 7.35 g/m*3 11.1 C 0 km/h
346 14-11-2009 21:08:02 11.5 C 7.33 g/m*3 11.5 C 0 km/h
347 14-11-2009 21:20:02 11.7 C 7.22 g/m*3 11.7 C 0 km/h
348 14-11-2009 21:32:02 11.6 C 7.07 g/m*3 11.6 C 0 km/h
349 14-11-2009 21:44:02 11.4 C 7.19 g/m*3 11.4 C 0 km/h
350 14-11-2009 21:56:02 11.9 C 7.1 g/m*3 11.9 C 0 km/h
Sensor: Nr:Datum:Temp:Abs-Feuchte:Windchill:Wind:
Aussen-T/F 351 14-11-2009 22:08:03 12.2 C 7.01 g/m*3 12.2 C 0 km/h
352 14-11-2009 22:20:02 12.6 C 6.97 g/m*3 12.6 C 0 km/h
353 14-11-2009 22:32:02 12.9 C 6.88 g/m*3 12.9 C 0 km/h
354 14-11-2009 22:44:02 13 C 6.69 g/m*3 13 C 0 km/h
355 14-11-2009 22:57:03 13.1 C 6.62 g/m*3 13.1 C 0 km/h
356 14-11-2009 23:09:03 13.2 C 6.54 g/m*3 13.2 C 0 km/h
357 14-11-2009 23:21:03 13.2 C 6.54 g/m*3 13.2 C 0 km/h
358 14-11-2009 23:33:03 13 C 6.58 g/m*3 13 C 0 km/h
359 14-11-2009 23:45:03 12.8 C 6.72 g/m*3 12.8 C 0 km/h
360 14-11-2009 23:57:03 12.7 C 6.68 g/m*3 12.7 C 0 km/h
361 15-11-2009 00:09:04 12.6 C 6.75 g/m*3 12.6 C 0 km/h
362 15-11-2009 00:21:04 12.6 C 6.75 g/m*3 12.6 C 0 km/h
363 15-11-2009 00:33:04 12.5 C 6.82 g/m*3 12.5 C 0 km/h
364 15-11-2009 00:45:04 12.3 C 6.95 g/m*3 12.3 C 0 km/h
365 15-11-2009 00:57:04 12.3 C 7.06 g/m*3 12.3 C 0 km/h
366 15-11-2009 01:09:04 12.2 C 7.01 g/m*3 12.2 C 0 km/h
367 15-11-2009 01:21:04 12.2 C 6.91 g/m*3 12.2 C 0 km/h
368 15-11-2009 01:33:04 12.1 C 6.86 g/m*3 12.1 C 0 km/h
369 15-11-2009 01:45:04 12.2 C 6.8 g/m*3 12.2 C 0 km/h
370 15-11-2009 01:57:04 12 C 6.82 g/m*3 12 C 0 km/h
371 15-11-2009 02:09:04 11.8 C 6.84 g/m*3 11.8 C 0 km/h
372 15-11-2009 02:21:04 11.7 C 6.9 g/m*3 11.7 C 0 km/h
373 15-11-2009 02:33:04 11.5 C 6.82 g/m*3 11.5 C 0 km/h
374 15-11-2009 02:45:04 11.5 C 6.82 g/m*3 11.5 C 0 km/h
375 15-11-2009 02:57:04 11.4 C 6.77 g/m*3 11.4 C 0 km/h
Sensor: Nr:Datum:Temp:Abs-Feuchte:Windchill:Wind:
Aussen-T/F 376 15-11-2009 03:09:04 11.5 C 6.82 g/m*3 11.5 C 0 km/h
377 15-11-2009 03:21:04 11.4 C 6.77 g/m*3 11.4 C 0 km/h
378 15-11-2009 03:33:04 11.2 C 6.79 g/m*3 11.2 C 0 km/h
379 15-11-2009 03:45:04 11.4 C 6.77 g/m*3 11.4 C 0 km/h
380 15-11-2009 03:57:04 11.4 C 6.77 g/m*3 11.4 C 0 km/h
381 15-11-2009 04:09:05 11.5 C 6.82 g/m*3 11.5 C 0 km/h
382 15-11-2009 04:21:05 11.3 C 6.83 g/m*3 11.3 C 0 km/h
383 15-11-2009 04:33:05 11.2 C 6.79 g/m*3 11.2 C 0 km/h
384 15-11-2009 04:45:05 11.2 C 6.79 g/m*3 11.2 C 0 km/h
385 15-11-2009 04:57:05 10.8 C 6.72 g/m*3 10.8 C 0 km/h
386 15-11-2009 05:09:05 10.3 C 6.7 g/m*3 10.3 C 0 km/h
387 15-11-2009 05:21:05 10.2 C 6.85 g/m*3 10.2 C 0 km/h
388 15-11-2009 05:33:05 10 C 6.77 g/m*3 10 C 0 km/h
389 15-11-2009 05:45:05 9.8 C 6.87 g/m*3 9.8 C 0 km/h
390 15-11-2009 05:57:05 9.7 C 6.82 g/m*3 9.7 C 0 km/h
391 15-11-2009 06:09:05 9.5 C 6.83 g/m*3 9.5 C 0 km/h
392 15-11-2009 06:21:05 9.3 C 6.83 g/m*3 9.3 C 0 km/h
393 15-11-2009 06:33:05 9.1 C 6.83 g/m*3 9.1 C 0 km/h
394 15-11-2009 06:45:05 9.5 C 7.01 g/m*3 9.5 C 0 km/h
395 15-11-2009 06:57:05 9.2 C 6.88 g/m*3 9.2 C 0 km/h
396 15-11-2009 07:09:05 9.2 C 6.97 g/m*3 9.2 C 0 km/h
397 15-11-2009 07:21:05 9.3 C 7.01 g/m*3 9.3 C 0 km/h
398 15-11-2009 07:33:03 9.6 C 7.15 g/m*3 9.6 C 0 km/h
399 15-11-2009 07:45:02 9.8 C 7.14 g/m*3 9.8 C 0 km/h
400 15-11-2009 07:57:02 10 C 6.95 g/m*3 10 C 0 km/h
Sensor: Nr:Datum:Temp:Abs-Feuchte:Windchill:Wind:
Aussen-T/F 401 15-11-2009 08:09:01 10.2 C 7.04 g/m*3 10.2 C 0 km/h
402 15-11-2009 08:21:01 10.4 C 7.04 g/m*3 10.4 C 0 km/h
403 15-11-2009 08:33:02 10.6 C 7.03 g/m*3 10.6 C 0 km/h
404 15-11-2009 08:45:02 10.8 C 7.02 g/m*3 10.8 C 0 km/h
405 15-11-2009 08:57:02 11 C 7.01 g/m*3 11 C 0 km/h
406 15-11-2009 09:09:02 11.1 C 7.15 g/m*3 11.1 C 0 km/h
407 15-11-2009 09:21:02 11.3 C 7.24 g/m*3 11.3 C 0 km/h
408 15-11-2009 09:33:02 11.3 C 7.24 g/m*3 11.3 C 0 km/h
409 15-11-2009 09:45:02 11.5 C 7.23 g/m*3 11.5 C 0 km/h
410 15-11-2009 09:57:02 11.7 C 7.32 g/m*3 11.7 C 0 km/h
411 15-11-2009 10:09:02 11.8 C 7.26 g/m*3 11.8 C 0 km/h
412 15-11-2009 10:21:02 11.9 C 7.31 g/m*3 11.9 C 0 km/h
413 15-11-2009 10:33:02 12 C 7.25 g/m*3 12 C 0 km/h
414 15-11-2009 10:45:02 11.9 C 7.2 g/m*3 11.9 C 0 km/h
415 15-11-2009 10:57:02 12 C 7.25 g/m*3 12 C 0 km/h
416 15-11-2009 11:09:02 12.1 C 7.29 g/m*3 12.1 C 0 km/h
417 15-11-2009 11:21:03 12.2 C 7.23 g/m*3 12.2 C 0 km/h
418 15-11-2009 11:33:02 12.3 C 7.28 g/m*3 12.3 C 0 km/h
419 15-11-2009 11:45:03 12.4 C 7.21 g/m*3 12.4 C 0 km/h
420 15-11-2009 11:57:03 12.8 C 7.5 g/m*3 12.8 C 0 km/h
421 15-11-2009 12:09:02 13.1 C 7.42 g/m*3 13.1 C 0 km/h
422 15-11-2009 12:21:02 13.2 C 7.35 g/m*3 13.2 C 0 km/h
423 15-11-2009 12:33:02 13 C 7.26 g/m*3 13 C 0 km/h
424 15-11-2009 12:45:02 12.9 C 7.33 g/m*3 12.9 C 0 km/h
425 15-11-2009 12:57:02 13.2 C 7.23 g/m*3 13.2 C 0 km/h
Sensor: Nr:Datum:Temp:Abs-Feuchte:Windchill:Wind:
Aussen-T/F 426 15-11-2009 13:09:02 13.1 C 7.19 g/m*3 13.1 C 0 km/h
427 15-11-2009 13:21:02 13.2 C 7.23 g/m*3 13.2 C 0 km/h
428 15-11-2009 13:33:02 13.5 C 7.37 g/m*3 13.5 C 0 km/h
429 15-11-2009 13:45:02 13.6 C 7.3 g/m*3 13.6 C 0 km/h
430 15-11-2009 13:57:02 13.4 C 7.09 g/m*3 13.4 C 0 km/h
431 15-11-2009 14:09:01 12.9 C 7.1 g/m*3 12.9 C 0 km/h
432 15-11-2009 14:21:02 13.2 C 7 g/m*3 13.2 C 0 km/h
433 15-11-2009 14:33:02 13.2 C 6.66 g/m*3 13.2 C 0 km/h
434 15-11-2009 14:45:02 13.6 C 6.59 g/m*3 13.6 C 0 km/h
435 15-11-2009 14:57:02 14 C 6.63 g/m*3 14 C 0 km/h
436 15-11-2009 15:09:02 14.3 C 6.39 g/m*3 14.3 C 0 km/h
437 15-11-2009 15:21:02 14.1 C 6.31 g/m*3 14.1 C 0 km/h
438 15-11-2009 15:33:03 13.8 C 6.2 g/m*3 13.8 C 0 km/h
439 15-11-2009 15:45:02 13.8 C 6.2 g/m*3 13.8 C 0 km/h
440 15-11-2009 15:57:02 13.5 C 6.2 g/m*3 13.5 C 0 km/h
441 15-11-2009 16:09:02 13.1 C 6.28 g/m*3 13.1 C 0 km/h
442 15-11-2009 16:21:01 13 C 6.35 g/m*3 13 C 0 km/h
443 15-11-2009 16:33:02 12.8 C 6.5 g/m*3 12.8 C 0 km/h
444 15-11-2009 16:45:02 12.7 C 6.35 g/m*3 12.7 C 0 km/h
445 15-11-2009 16:57:02 12.3 C 6.41 g/m*3 12.3 C 0 km/h
446 15-11-2009 17:09:02 12.3 C 6.41 g/m*3 12.3 C 0 km/h
447 15-11-2009 17:21:02 12.1 C 6.33 g/m*3 12.1 C 0 km/h
448 15-11-2009 17:33:02 11.8 C 6.53 g/m*3 11.8 C 0 km/h
449 15-11-2009 17:45:02 11.5 C 6.51 g/m*3 11.5 C 0 km/h
450 15-11-2009 17:57:02 11.5 C 6.51 g/m*3 11.5 C 0 km/h
Sensor: Nr:Datum:Temp:Abs-Feuchte:Windchill:Wind:
Aussen-T/F 451 15-11-2009 18:09:02 11.2 C 6.49 g/m*3 11.2 C 0 km/h
452 15-11-2009 18:21:02 10.9 C 6.56 g/m*3 10.9 C 0 km/h
453 15-11-2009 18:33:02 10.8 C 6.62 g/m*3 10.8 C 0 km/h
454 15-11-2009 18:45:02 11.1 C 6.55 g/m*3 11.1 C 0 km/h
455 15-11-2009 18:57:02 11.4 C 6.47 g/m*3 11.4 C 0 km/h
456 15-11-2009 19:09:02 11.2 C 6.49 g/m*3 11.2 C 0 km/h
457 15-11-2009 19:21:02 10.8 C 6.52 g/m*3 10.8 C 0 km/h
458 15-11-2009 19:33:02 10.6 C 6.64 g/m*3 10.6 C 0 km/h
459 15-11-2009 19:45:01 10.4 C 6.65 g/m*3 10.4 C 0 km/h
460 15-11-2009 19:57:01 10.1 C 6.62 g/m*3 10.1 C 0 km/h
461 15-11-2009 20:09:01 9.9 C 6.82 g/m*3 9.9 C 0 km/h
462 15-11-2009 20:21:02 9.8 C 6.77 g/m*3 9.8 C 0 km/h
463 15-11-2009 20:33:01 9.6 C 6.78 g/m*3 9.6 C 0 km/h
464 15-11-2009 20:45:03 9.6 C 6.78 g/m*3 9.6 C 0 km/h
465 15-11-2009 20:57:03 9.4 C 6.69 g/m*3 9.4 C 0 km/h
466 15-11-2009 21:09:03 9.3 C 6.74 g/m*3 9.3 C 0 km/h
467 15-11-2009 21:21:02 9.2 C 6.79 g/m*3 9.2 C 0 km/h
468 15-11-2009 21:33:02 9.1 C 6.74 g/m*3 9.1 C 0 km/h
469 15-11-2009 21:46:03 9.1 C 6.83 g/m*3 9.1 C 0 km/h
470 15-11-2009 21:58:03 8.7 C 6.83 g/m*3 8.7 C 0 km/h
471 15-11-2009 22:10:03 8.6 C 6.79 g/m*3 8.6 C 0 km/h
472 15-11-2009 22:22:03 8.5 C 6.83 g/m*3 8.5 C 0 km/h
473 15-11-2009 22:34:03 8.5 C 6.83 g/m*3 8.5 C 0 km/h
474 15-11-2009 22:46:03 8.5 C 6.92 g/m*3 8.5 C 0 km/h
475 15-11-2009 22:58:03 8.3 C 6.83 g/m*3 8.3 C 0 km/h
Sensor: Nr:Datum:Temp:Abs-Feuchte:Windchill:Wind:
Aussen-T/F 476 15-11-2009 23:10:03 8.1 C 6.74 g/m*3 8.1 C 0 km/h
477 15-11-2009 23:22:03 8 C 6.7 g/m*3 8 C 0 km/h
478 15-11-2009 23:34:04 7.9 C 6.82 g/m*3 7.9 C 0 km/h
479 15-11-2009 23:46:04 7.8 C 6.77 g/m*3 7.8 C 0 km/h
480 15-11-2009 23:58:04 7.8 C 6.77 g/m*3 7.8 C 0 km/h
481 16-11-2009 00:10:04 7.7 C 6.73 g/m*3 7.7 C 0 km/h
482 16-11-2009 00:22:04 7.7 C 6.73 g/m*3 7.7 C 0 km/h
483 16-11-2009 00:34:04 7.5 C 6.72 g/m*3 7.5 C 0 km/h
484 16-11-2009 00:46:04 7.5 C 6.72 g/m*3 7.5 C 0 km/h
485 16-11-2009 00:58:04 7.4 C 6.68 g/m*3 7.4 C 0 km/h
486 16-11-2009 01:10:04 7.3 C 6.64 g/m*3 7.3 C 0 km/h
487 16-11-2009 01:22:04 7.3 C 6.64 g/m*3 7.3 C 0 km/h
488 16-11-2009 01:34:04 7.3 C 6.72 g/m*3 7.3 C 0 km/h
489 16-11-2009 01:46:04 7.1 C 6.63 g/m*3 7.1 C 0 km/h
490 16-11-2009 01:58:04 7 C 6.59 g/m*3 7 C 0 km/h
491 16-11-2009 02:10:04 7.1 C 6.71 g/m*3 7.1 C 0 km/h
492 16-11-2009 02:22:04 7.1 C 6.71 g/m*3 7.1 C 0 km/h
493 16-11-2009 02:34:04 7.1 C 6.71 g/m*3 7.1 C 0 km/h
494 16-11-2009 02:46:04 7.1 C 6.71 g/m*3 7.1 C 0 km/h
495 16-11-2009 02:58:04 7.1 C 6.79 g/m*3 7.1 C 0 km/h
496 16-11-2009 03:10:04 7 C 6.74 g/m*3 7 C 0 km/h
497 16-11-2009 03:22:04 7 C 6.74 g/m*3 7 C 0 km/h
498 16-11-2009 03:34:05 7 C 6.82 g/m*3 7 C 0 km/h
499 16-11-2009 03:46:05 7.1 C 6.86 g/m*3 7.1 C 0 km/h
500 16-11-2009 03:58:05 7.1 C 6.86 g/m*3 7.1 C 0 km/h
Sensor: Nr:Datum:Temp:Abs-Feuchte:Windchill:Wind:
Aussen-T/F 501 16-11-2009 04:10:05 7.3 C 6.95 g/m*3 7.3 C 0 km/h
502 16-11-2009 04:22:05 7.4 C 7 g/m*3 7.4 C 0 km/h
503 16-11-2009 04:34:05 7.5 C 7.04 g/m*3 7.5 C 0 km/h
504 16-11-2009 04:46:05 7.5 C 7.04 g/m*3 7.5 C 0 km/h
505 16-11-2009 04:58:05 7.5 C 6.96 g/m*3 7.5 C 0 km/h
506 16-11-2009 05:10:05 7.5 C 6.96 g/m*3 7.5 C 0 km/h
507 16-11-2009 05:22:05 7.5 C 6.96 g/m*3 7.5 C 0 km/h
508 16-11-2009 05:34:05 7.6 C 7.01 g/m*3 7.6 C 0 km/h
509 16-11-2009 05:46:05 7.6 C 7.01 g/m*3 7.6 C 0 km/h
510 16-11-2009 05:58:05 7.6 C 7.01 g/m*3 7.6 C 0 km/h
511 16-11-2009 06:10:05 7.8 C 7.18 g/m*3 7.8 C 0 km/h
512 16-11-2009 06:22:05 7.9 C 7.23 g/m*3 7.9 C 0 km/h
513 16-11-2009 06:34:05 8 C 7.19 g/m*3 8 C 0 km/h
514 16-11-2009 06:46:05 7.9 C 7.23 g/m*3 7.9 C 0 km/h
515 16-11-2009 06:58:05 7.9 C 7.23 g/m*3 7.9 C 0 km/h
516 16-11-2009 07:10:04 7.9 C 7.23 g/m*3 7.9 C 0 km/h
517 16-11-2009 07:22:03 7.9 C 7.31 g/m*3 7.9 C 0 km/h
518 16-11-2009 07:34:04 8 C 7.28 g/m*3 8 C 0 km/h
519 16-11-2009 07:46:02 8.1 C 7.41 g/m*3 8.1 C 0 km/h
520 16-11-2009 07:58:02 8.1 C 7.41 g/m*3 8.1 C 0 km/h
521 16-11-2009 08:10:02 8.2 C 7.45 g/m*3 8.2 C 0 km/h
522 16-11-2009 08:22:02 8.2 C 7.45 g/m*3 8.2 C 0 km/h
523 16-11-2009 08:34:02 8.3 C 7.59 g/m*3 8.3 C 0 km/h
524 16-11-2009 08:46:02 8.4 C 7.72 g/m*3 8.4 C 0 km/h
525 16-11-2009 08:58:02 8.6 C 7.82 g/m*3 8.6 C 0 km/h
Sensor: Nr:Datum:Temp:Abs-Feuchte:Windchill:Wind:
Aussen-T/F 526 16-11-2009 09:10:03 8.9 C 7.97 g/m*3 8.9 C 0 km/h
527 16-11-2009 09:22:02 8.9 C 8.06 g/m*3 8.9 C 0 km/h
528 16-11-2009 09:34:02 8.9 C 8.06 g/m*3 8.9 C 0 km/h
529 16-11-2009 09:46:01 9.1 C 8.16 g/m*3 9.1 C 0 km/h
530 16-11-2009 09:58:01 9.2 C 8.3 g/m*3 9.2 C 0 km/h
531 16-11-2009 10:10:01 9.6 C 8.61 g/m*3 9.6 C 0 km/h
532 16-11-2009 10:22:02 9.9 C 8.78 g/m*3 9.9 C 0 km/h
533 16-11-2009 10:34:02 9.8 C 8.72 g/m*3 9.8 C 0 km/h
534 16-11-2009 10:46:02 10 C 8.74 g/m*3 10 C 0 km/h
535 16-11-2009 10:58:03 10 C 8.74 g/m*3 10 C 0 km/h
536 16-11-2009 11:10:02 10.1 C 8.79 g/m*3 10.1 C 0 km/h
537 16-11-2009 11:22:02 10.2 C 8.95 g/m*3 10.2 C 0 km/h
538 16-11-2009 11:34:02 10.2 C 8.95 g/m*3 10.2 C 0 km/h
539 16-11-2009 11:46:02 10.3 C 9 g/m*3 10.3 C 0 km/h
540 16-11-2009 11:58:02 10.5 C 9.12 g/m*3 10.5 C 0 km/h
541 16-11-2009 12:10:02 10.6 C 9.17 g/m*3 10.6 C 0 km/h
542 16-11-2009 12:22:01 10.9 C 9.35 g/m*3 10.9 C 0 km/h
543 16-11-2009 12:34:02 11.4 C 9.65 g/m*3 11.4 C 0 km/h
544 16-11-2009 12:46:02 11.6 C 9.87 g/m*3 11.6 C 0 km/h
545 16-11-2009 12:58:02 11.8 C 10 g/m*3 11.8 C 0 km/h
546 16-11-2009 13:10:02 12 C 10.02 g/m*3 12 C 0 km/h
547 16-11-2009 13:22:02 12.4 C 10.38 g/m*3 12.4 C 0 km/h
548 16-11-2009 13:34:02 12.5 C 10.33 g/m*3 12.5 C 0 km/h
549 16-11-2009 13:46:02 12.6 C 10.4 g/m*3 12.6 C 0 km/h
550 16-11-2009 13:58:02 12.7 C 10.46 g/m*3 12.7 C 0 km/h
Sensor: Nr:Datum:Temp:Abs-Feuchte:Windchill:Wind:
Aussen-T/F 551 16-11-2009 14:10:02 12.8 C 10.53 g/m*3 12.8 C 0 km/h
552 16-11-2009 14:22:02 13 C 10.55 g/m*3 13 C 0 km/h
553 16-11-2009 14:34:02 13.4 C 10.69 g/m*3 13.4 C 0 km/h
554 16-11-2009 14:46:02 13.7 C 10.66 g/m*3 13.7 C 0 km/h
555 16-11-2009 14:58:02 13.9 C 10.67 g/m*3 13.9 C 0 km/h
556 16-11-2009 15:10:02 14 C 10.49 g/m*3 14 C 0 km/h
557 16-11-2009 15:22:02 14 C 10.25 g/m*3 14 C 0 km/h
558 16-11-2009 15:34:02 14 C 10.37 g/m*3 14 C 0 km/h
559 16-11-2009 15:46:02 13.9 C 10.43 g/m*3 13.9 C 0 km/h
560 16-11-2009 15:58:02 14.1 C 10.44 g/m*3 14.1 C 0 km/h
561 16-11-2009 16:10:02 14.1 C 10.44 g/m*3 14.1 C 0 km/h
562 16-11-2009 16:22:03 14.2 C 10.26 g/m*3 14.2 C 0 km/h
563 16-11-2009 16:34:02 14.2 C 10.26 g/m*3 14.2 C 0 km/h
564 16-11-2009 16:46:02 14.4 C 10.14 g/m*3 14.4 C 0 km/h
565 16-11-2009 16:58:02 14.3 C 9.95 g/m*3 14.3 C 0 km/h
566 16-11-2009 17:10:02 14.4 C 10.01 g/m*3 14.4 C 0 km/h
567 16-11-2009 17:22:02 14.5 C 9.83 g/m*3 14.5 C 0 km/h
568 16-11-2009 17:34:02 14.4 C 9.77 g/m*3 14.4 C 0 km/h
569 16-11-2009 17:46:02 14.4 C 9.77 g/m*3 14.4 C 0 km/h
570 16-11-2009 17:58:02 14.3 C 9.71 g/m*3 14.3 C 0 km/h
571 16-11-2009 18:10:02 14.1 C 9.71 g/m*3 14.1 C 0 km/h
572 16-11-2009 18:22:02 14.2 C 9.65 g/m*3 14.2 C 0 km/h
573 16-11-2009 18:34:01 14.3 C 9.58 g/m*3 14.3 C 0 km/h
574 16-11-2009 18:46:02 14.5 C 9.58 g/m*3 14.5 C 0 km/h
575 16-11-2009 18:58:02 14.8 C 9.37 g/m*3 14.8 C 0 km/h
Sensor: Nr:Datum:Temp:Abs-Feuchte:Windchill:Wind:
Aussen-T/F 576 16-11-2009 19:10:01 14.8 C 9.25 g/m*3 14.8 C 0 km/h
577 16-11-2009 19:22:02 14.8 C 9.25 g/m*3 14.8 C 0 km/h
578 16-11-2009 19:34:01 14.8 C 9.25 g/m*3 14.8 C 0 km/h
579 16-11-2009 19:46:02 14.7 C 9.32 g/m*3 14.7 C 0 km/h
580 16-11-2009 19:58:02 14.6 C 9.26 g/m*3 14.6 C 0 km/h
581 16-11-2009 20:10:02 14.5 C 9.2 g/m*3 14.5 C 0 km/h
582 16-11-2009 20:22:02 14.5 C 9.33 g/m*3 14.5 C 0 km/h
583 16-11-2009 20:34:03 14.4 C 9.27 g/m*3 14.4 C 0 km/h
584 16-11-2009 20:46:02 14.5 C 9.2 g/m*3 14.5 C 0 km/h
585 16-11-2009 20:58:03 14.6 C 9.01 g/m*3 14.6 C 0 km/h
586 16-11-2009 21:10:01 14.5 C 9.08 g/m*3 14.5 C 0 km/h
587 16-11-2009 21:22:02 14.6 C 9.13 g/m*3 14.6 C 0 km/h
588 16-11-2009 21:34:02 14 C 9.41 g/m*3 14 C 0 km/h
589 16-11-2009 21:46:02 13.6 C 9.53 g/m*3 13.6 C 0 km/h
590 16-11-2009 21:58:02 13.7 C 9.71 g/m*3 13.7 C 0 km/h
591 16-11-2009 22:10:03 13.6 C 9.77 g/m*3 13.6 C 0 km/h
592 16-11-2009 22:22:02 13.7 C 9.71 g/m*3 13.7 C 0 km/h
593 16-11-2009 22:35:02 13.6 C 9.65 g/m*3 13.6 C 0 km/h
594 16-11-2009 22:47:02 13.8 C 9.65 g/m*3 13.8 C 0 km/h
595 16-11-2009 22:59:02 14 C 9.53 g/m*3 14 C 0 km/h
596 16-11-2009 23:11:02 14 C 9.41 g/m*3 14 C 0 km/h
597 16-11-2009 23:23:02 13.9 C 9.47 g/m*3 13.9 C 0 km/h
598 16-11-2009 23:35:02 13.8 C 9.53 g/m*3 13.8 C 0 km/h
599 16-11-2009 23:47:02 13.7 C 9.47 g/m*3 13.7 C 0 km/h
600 16-11-2009 23:59:02 13.8 C 9.53 g/m*3 13.8 C 0 km/h
Sensor: Nr:Datum:Temp:Abs-Feuchte:Windchill:Wind:
Aussen-T/F 601 17-11-2009 00:11:02 14 C 9.29 g/m*3 14 C 0 km/h
602 17-11-2009 00:23:02 14 C 9.17 g/m*3 14 C 0 km/h
603 17-11-2009 00:35:02 13.8 C 9.17 g/m*3 13.8 C 0 km/h
604 17-11-2009 00:47:02 13.8 C 9.17 g/m*3 13.8 C 0 km/h
605 17-11-2009 00:59:02 13.8 C 9.06 g/m*3 13.8 C 0 km/h
606 17-11-2009 01:11:02 13.9 C 8.87 g/m*3 13.9 C 0 km/h
607 17-11-2009 01:23:02 14 C 8.81 g/m*3 14 C 0 km/h
608 17-11-2009 01:35:02 13.8 C 8.82 g/m*3 13.8 C 0 km/h
609 17-11-2009 01:47:02 13.7 C 8.88 g/m*3 13.7 C 0 km/h
610 17-11-2009 01:59:02 13.6 C 8.83 g/m*3 13.6 C 0 km/h
611 17-11-2009 02:11:02 13.8 C 8.94 g/m*3 13.8 C 0 km/h
612 17-11-2009 02:23:02 13.7 C 8.76 g/m*3 13.7 C 0 km/h
613 17-11-2009 02:35:03 13.4 C 8.72 g/m*3 13.4 C 0 km/h
614 17-11-2009 02:47:03 13.2 C 8.73 g/m*3 13.2 C 0 km/h
615 17-11-2009 02:59:03 13 C 8.85 g/m*3 13 C 0 km/h
616 17-11-2009 03:11:03 12.8 C 9.07 g/m*3 12.8 C 0 km/h
617 17-11-2009 03:23:03 12.8 C 9.18 g/m*3 12.8 C 0 km/h
618 17-11-2009 03:35:03 12.8 C 9.18 g/m*3 12.8 C 0 km/h
619 17-11-2009 03:47:03 12.7 C 9.13 g/m*3 12.7 C 0 km/h
620 17-11-2009 03:59:03 12.8 C 9.3 g/m*3 12.8 C 0 km/h
621 17-11-2009 04:11:03 12.9 C 9.24 g/m*3 12.9 C 0 km/h
622 17-11-2009 04:23:03 12.8 C 9.18 g/m*3 12.8 C 0 km/h
623 17-11-2009 04:35:03 12.6 C 9.18 g/m*3 12.6 C 0 km/h
624 17-11-2009 04:47:03 12.5 C 9.13 g/m*3 12.5 C 0 km/h
625 17-11-2009 04:59:03 12.5 C 9.24 g/m*3 12.5 C 0 km/h
Sensor: Nr:Datum:Temp:Abs-Feuchte:Windchill:Wind:
Aussen-T/F 626 17-11-2009 05:11:03 12.4 C 9.29 g/m*3 12.4 C 0 km/h
627 17-11-2009 05:23:03 12.3 C 9.23 g/m*3 12.3 C 0 km/h
628 17-11-2009 05:35:03 12.2 C 9.28 g/m*3 12.2 C 0 km/h
629 17-11-2009 05:47:03 12.3 C 9.34 g/m*3 12.3 C 0 km/h
630 17-11-2009 05:59:03 12.4 C 9.29 g/m*3 12.4 C 0 km/h
631 17-11-2009 06:11:03 12.4 C 9.29 g/m*3 12.4 C 0 km/h
632 17-11-2009 06:23:03 12.2 C 9.17 g/m*3 12.2 C 0 km/h
633 17-11-2009 06:35:03 12.1 C 9.12 g/m*3 12.1 C 0 km/h
634 17-11-2009 06:47:04 12 C 9.17 g/m*3 12 C 0 km/h
635 17-11-2009 06:59:04 12 C 9.27 g/m*3 12 C 0 km/h
636 17-11-2009 07:11:02 11.9 C 9.43 g/m*3 11.9 C 0 km/h
637 17-11-2009 07:23:02 11.8 C 9.47 g/m*3 11.8 C 0 km/h
638 17-11-2009 07:35:02 11.6 C 9.35 g/m*3 11.6 C 0 km/h
639 17-11-2009 07:47:02 11.2 C 9.02 g/m*3 11.2 C 0 km/h
640 17-11-2009 07:59:03 11 C 8.81 g/m*3 11 C 0 km/h
641 17-11-2009 08:11:01 10.8 C 8.8 g/m*3 10.8 C 0 km/h
642 17-11-2009 08:23:01 10.8 C 8.8 g/m*3 10.8 C 0 km/h
643 17-11-2009 08:35:02 10.8 C 8.8 g/m*3 10.8 C 0 km/h
644 17-11-2009 08:47:02 10.8 C 8.9 g/m*3 10.8 C 0 km/h
645 17-11-2009 08:59:02 10.8 C 8.9 g/m*3 10.8 C 0 km/h
646 17-11-2009 09:11:02 10.9 C 8.95 g/m*3 10.9 C 0 km/h
647 17-11-2009 09:23:02 10 C 8.27 g/m*3 10 C 0 km/h
648 17-11-2009 09:35:02 9.8 C 8.26 g/m*3 9.8 C 0 km/h
649 17-11-2009 09:47:02 9.5 C 8.19 g/m*3 9.5 C 0 km/h
650 17-11-2009 09:59:02 9.4 C 8.23 g/m*3 9.4 C 0 km/h
Sensor: Nr:Datum:Temp:Abs-Feuchte:Windchill:Wind:
Aussen-T/F 651 17-11-2009 10:11:02 9.6 C 8.43 g/m*3 9.6 C 0 km/h
652 17-11-2009 10:23:03 9.7 C 8.48 g/m*3 9.7 C 0 km/h
653 17-11-2009 10:35:02 9.5 C 8.37 g/m*3 9.5 C 0 km/h
654 17-11-2009 10:47:02 9.7 C 8.57 g/m*3 9.7 C 0 km/h
655 17-11-2009 10:59:02 9.7 C 8.57 g/m*3 9.7 C 0 km/h
656 17-11-2009 11:11:02 9.8 C 8.72 g/m*3 9.8 C 0 km/h
657 17-11-2009 11:23:02 10.1 C 8.79 g/m*3 10.1 C 0 km/h
658 17-11-2009 11:35:02 10.1 C 8.79 g/m*3 10.1 C 0 km/h
659 17-11-2009 11:47:02 10.2 C 8.85 g/m*3 10.2 C 0 km/h
660 17-11-2009 11:59:02 10.1 C 8.79 g/m*3 10.1 C 0 km/h
661 17-11-2009 12:11:02 10.1 C 8.79 g/m*3 10.1 C 0 km/h
662 17-11-2009 12:23:02 10.2 C 8.85 g/m*3 10.2 C 0 km/h
663 17-11-2009 12:35:02 10.2 C 8.85 g/m*3 10.2 C 0 km/h
664 17-11-2009 12:47:02 10.3 C 8.91 g/m*3 10.3 C 0 km/h
665 17-11-2009 12:59:02 10.3 C 8.91 g/m*3 10.3 C 0 km/h
666 17-11-2009 13:11:01 10.2 C 8.76 g/m*3 10.2 C 0 km/h
667 17-11-2009 13:23:02 10.4 C 8.87 g/m*3 10.4 C 0 km/h
668 17-11-2009 13:35:01 10.1 C 8.7 g/m*3 10.1 C 0 km/h
669 17-11-2009 13:47:02 10.3 C 8.81 g/m*3 10.3 C 0 km/h
670 17-11-2009 13:59:02 10.1 C 8.61 g/m*3 10.1 C 0 km/h
671 17-11-2009 14:11:01 10.2 C 8.66 g/m*3 10.2 C 0 km/h
672 17-11-2009 14:23:02 10.3 C 8.62 g/m*3 10.3 C 0 km/h
673 17-11-2009 14:35:01 10.4 C 8.67 g/m*3 10.4 C 0 km/h
674 17-11-2009 14:47:03 10.6 C 8.88 g/m*3 10.6 C 0 km/h
675 17-11-2009 14:59:03 10.6 C 8.88 g/m*3 10.6 C 0 km/h
Sensor: Nr:Datum:Temp:Abs-Feuchte:Windchill:Wind:
Aussen-T/F 676 17-11-2009 15:11:02 10.4 C 8.67 g/m*3 10.4 C 0 km/h
677 17-11-2009 15:23:02 10.4 C 8.67 g/m*3 10.4 C 0 km/h
678 17-11-2009 15:35:02 10.2 C 8.47 g/m*3 10.2 C 0 km/h
679 17-11-2009 15:47:02 10.1 C 8.42 g/m*3 10.1 C 0 km/h
680 17-11-2009 15:59:02 10 C 8.27 g/m*3 10 C 0 km/h
681 17-11-2009 16:11:02 9.8 C 8.26 g/m*3 9.8 C 0 km/h
682 17-11-2009 16:23:02 9.7 C 8.11 g/m*3 9.7 C 0 km/h
683 17-11-2009 16:35:01 9.6 C 8.06 g/m*3 9.6 C 0 km/h
684 17-11-2009 16:47:02 9.6 C 8.06 g/m*3 9.6 C 0 km/h
685 17-11-2009 16:59:02 9.6 C 8.06 g/m*3 9.6 C 0 km/h
686 17-11-2009 17:11:01 9.5 C 8.1 g/m*3 9.5 C 0 km/h
687 17-11-2009 17:23:02 9.5 C 8.1 g/m*3 9.5 C 0 km/h
688 17-11-2009 17:35:01 9.5 C 8.1 g/m*3 9.5 C 0 km/h
689 17-11-2009 17:47:02 9.5 C 8.1 g/m*3 9.5 C 0 km/h
690 17-11-2009 17:59:02 9.5 C 8.1 g/m*3 9.5 C 0 km/h
691 17-11-2009 18:11:02 9.4 C 7.96 g/m*3 9.4 C 0 km/h
692 17-11-2009 18:23:02 9.5 C 8.01 g/m*3 9.5 C 0 km/h
693 17-11-2009 18:35:03 9.5 C 7.92 g/m*3 9.5 C 0 km/h
694 17-11-2009 18:47:02 9.6 C 7.97 g/m*3 9.6 C 0 km/h
695 17-11-2009 18:59:02 9.6 C 7.88 g/m*3 9.6 C 0 km/h
696 17-11-2009 19:11:01 9.8 C 7.7 g/m*3 9.8 C 0 km/h
697 17-11-2009 19:23:02 9.9 C 7.66 g/m*3 9.9 C 0 km/h
698 17-11-2009 19:35:02 9.8 C 7.7 g/m*3 9.8 C 0 km/h
699 17-11-2009 19:47:02 9.7 C 7.65 g/m*3 9.7 C 0 km/h
700 17-11-2009 19:59:02 9.7 C 7.65 g/m*3 9.7 C 0 km/h
Sensor: Nr:Datum:Temp:Abs-Feuchte:Windchill:Wind:
Aussen-T/F 701 17-11-2009 20:11:02 9.8 C 7.61 g/m*3 9.8 C 0 km/h
702 17-11-2009 20:23:02 9.8 C 7.61 g/m*3 9.8 C 0 km/h
703 17-11-2009 20:35:02 9.8 C 7.52 g/m*3 9.8 C 0 km/h
704 17-11-2009 20:47:01 9.8 C 7.52 g/m*3 9.8 C 0 km/h
705 17-11-2009 20:59:01 9.9 C 7.56 g/m*3 9.9 C 0 km/h
706 17-11-2009 21:11:02 9.7 C 7.47 g/m*3 9.7 C 0 km/h
707 17-11-2009 21:23:01 9.8 C 7.52 g/m*3 9.8 C 0 km/h
708 17-11-2009 21:35:01 9.6 C 7.42 g/m*3 9.6 C 0 km/h
709 17-11-2009 21:48:02 9.5 C 7.28 g/m*3 9.5 C 0 km/h
710 17-11-2009 22:00:02 9.5 C 7.37 g/m*3 9.5 C 0 km/h
711 17-11-2009 22:12:02 9.6 C 7.33 g/m*3 9.6 C 0 km/h
712 17-11-2009 22:24:02 9.5 C 7.19 g/m*3 9.5 C 0 km/h
713 17-11-2009 22:36:02 9.4 C 7.15 g/m*3 9.4 C 0 km/h
714 17-11-2009 22:48:02 9.2 C 7.05 g/m*3 9.2 C 0 km/h
715 17-11-2009 23:00:02 9.5 C 7.28 g/m*3 9.5 C 0 km/h
716 17-11-2009 23:12:02 9.7 C 7.19 g/m*3 9.7 C 0 km/h
717 17-11-2009 23:24:03 9.6 C 7.15 g/m*3 9.6 C 0 km/h
718 17-11-2009 23:36:03 9.6 C 7.15 g/m*3 9.6 C 0 km/h
719 17-11-2009 23:48:03 9.4 C 7.05 g/m*3 9.4 C 0 km/h
720 18-11-2009 00:00:03 9.4 C 7.05 g/m*3 9.4 C 0 km/h
721 18-11-2009 00:12:03 9.5 C 7.1 g/m*3 9.5 C 0 km/h
722 18-11-2009 00:24:03 9.6 C 7.05 g/m*3 9.6 C 0 km/h
723 18-11-2009 00:36:03 9.5 C 7.01 g/m*3 9.5 C 0 km/h
724 18-11-2009 00:48:03 9.5 C 7.1 g/m*3 9.5 C 0 km/h
725 18-11-2009 01:00:03 9.4 C 7.05 g/m*3 9.4 C 0 km/h
Sensor: Nr:Datum:Temp:Abs-Feuchte:Windchill:Wind:
Aussen-T/F 726 18-11-2009 01:12:03 9.3 C 7.01 g/m*3 9.3 C 0 km/h
727 18-11-2009 01:24:03 9.4 C 7.05 g/m*3 9.4 C 0 km/h
728 18-11-2009 01:36:03 9.3 C 6.92 g/m*3 9.3 C 0 km/h
729 18-11-2009 01:48:03 9.2 C 6.97 g/m*3 9.2 C 0 km/h
730 18-11-2009 02:00:03 9 C 6.88 g/m*3 9 C 0 km/h
731 18-11-2009 02:12:03 9.2 C 7.05 g/m*3 9.2 C 0 km/h
732 18-11-2009 02:24:03 9.3 C 6.92 g/m*3 9.3 C 0 km/h
733 18-11-2009 02:36:03 9.2 C 6.88 g/m*3 9.2 C 0 km/h
734 18-11-2009 02:48:03 9.1 C 6.83 g/m*3 9.1 C 0 km/h
735 18-11-2009 03:00:03 9.1 C 6.83 g/m*3 9.1 C 0 km/h
736 18-11-2009 03:12:04 8.9 C 6.92 g/m*3 8.9 C 0 km/h
737 18-11-2009 03:24:04 9 C 6.88 g/m*3 9 C 0 km/h
738 18-11-2009 03:36:04 8.8 C 6.88 g/m*3 8.8 C 0 km/h
739 18-11-2009 03:48:04 8.6 C 6.96 g/m*3 8.6 C 0 km/h
740 18-11-2009 04:00:04 8.7 C 7.01 g/m*3 8.7 C 0 km/h
741 18-11-2009 04:12:04 8.8 C 7.05 g/m*3 8.8 C 0 km/h
742 18-11-2009 04:24:04 8.7 C 7.01 g/m*3 8.7 C 0 km/h
743 18-11-2009 04:36:04 8.6 C 7.05 g/m*3 8.6 C 0 km/h
744 18-11-2009 04:48:04 8.5 C 7 g/m*3 8.5 C 0 km/h
745 18-11-2009 05:00:04 8.5 C 7.09 g/m*3 8.5 C 0 km/h
746 18-11-2009 05:12:04 8.8 C 7.14 g/m*3 8.8 C 0 km/h
747 18-11-2009 05:24:04 9 C 7.05 g/m*3 9 C 0 km/h
748 18-11-2009 05:36:04 8.9 C 6.92 g/m*3 8.9 C 0 km/h
749 18-11-2009 05:48:04 8.9 C 6.92 g/m*3 8.9 C 0 km/h
750 18-11-2009 06:00:04 9 C 6.79 g/m*3 9 C 0 km/h
Sensor: Nr:Datum:Temp:Abs-Feuchte:Windchill:Wind:
Aussen-T/F 751 18-11-2009 06:12:03 9 C 6.79 g/m*3 9 C 0 km/h
752 18-11-2009 06:24:03 8.8 C 6.79 g/m*3 8.8 C 0 km/h
753 18-11-2009 06:36:03 8.7 C 6.83 g/m*3 8.7 C 0 km/h
754 18-11-2009 06:48:02 8.7 C 6.75 g/m*3 8.7 C 0 km/h
755 18-11-2009 07:00:02 8.4 C 6.62 g/m*3 8.4 C 0 km/h
756 18-11-2009 07:12:03 8.3 C 6.66 g/m*3 8.3 C 0 km/h
757 18-11-2009 07:24:02 8 C 6.7 g/m*3 8 C 0 km/h
758 18-11-2009 07:36:02 8.4 C 6.96 g/m*3 8.4 C 0 km/h
759 18-11-2009 07:48:01 8.3 C 6.74 g/m*3 8.3 C 0 km/h
760 18-11-2009 08:00:01 8.5 C 6.66 g/m*3 8.5 C 0 km/h
761 18-11-2009 08:12:02 8.8 C 6.61 g/m*3 8.8 C 0 km/h
762 18-11-2009 08:24:01 9 C 6.52 g/m*3 9 C 0 km/h
763 18-11-2009 08:36:02 9.1 C 6.39 g/m*3 9.1 C 0 km/h
764 18-11-2009 08:48:02 9.4 C 6.51 g/m*3 9.4 C 0 km/h
765 18-11-2009 09:00:02 9.7 C 6.36 g/m*3 9.7 C 0 km/h
766 18-11-2009 09:12:02 9.7 C 6.18 g/m*3 9.7 C 0 km/h
767 18-11-2009 09:24:01 9.7 C 5.9 g/m*3 9.7 C 0 km/h
768 18-11-2009 09:36:02 9.6 C 5.86 g/m*3 9.6 C 0 km/h
769 18-11-2009 09:48:01 9.6 C 5.86 g/m*3 9.6 C 0 km/h
770 18-11-2009 10:00:01 9.9 C 6.07 g/m*3 9.9 C 0 km/h
771 18-11-2009 10:12:02 10.4 C 5.98 g/m*3 10.4 C 0 km/h
772 18-11-2009 10:24:02 10.6 C 5.95 g/m*3 10.6 C 0 km/h
773 18-11-2009 10:36:02 10.7 C 5.8 g/m*3 10.7 C 0 km/h
774 18-11-2009 10:48:02 10.9 C 5.67 g/m*3 10.9 C 0 km/h
775 18-11-2009 11:00:02 11 C 5.71 g/m*3 11 C 0 km/h
Sensor: Nr:Datum:Temp:Abs-Feuchte:Windchill:Wind:
Aussen-T/F 776 18-11-2009 11:12:02 11.1 C 5.74 g/m*3 11.1 C 0 km/h
777 18-11-2009 11:24:02 11.2 C 5.68 g/m*3 11.2 C 0 km/h
778 18-11-2009 11:36:02 11.2 C 5.57 g/m*3 11.2 C 0 km/h
779 18-11-2009 11:48:01 11.4 C 5.44 g/m*3 11.4 C 0 km/h
780 18-11-2009 12:00:01 11.7 C 5.44 g/m*3 11.7 C 0 km/h
781 18-11-2009 12:12:02 11.9 C 5.51 g/m*3 11.9 C 0 km/h
782 18-11-2009 12:24:01 11.8 C 5.16 g/m*3 11.8 C 0 km/h
783 18-11-2009 12:36:01 11.8 C 5.37 g/m*3 11.8 C 0 km/h
784 18-11-2009 12:48:01 11.7 C 5.23 g/m*3 11.7 C 0 km/h
785 18-11-2009 13:00:01 11.9 C 5.19 g/m*3 11.9 C 0 km/h
786 18-11-2009 13:12:02 12.3 C 5.21 g/m*3 12.3 C 0 km/h
787 18-11-2009 13:24:01 12.2 C 5.29 g/m*3 12.2 C 0 km/h
788 18-11-2009 13:36:02 12 C 5.12 g/m*3 12 C 0 km/h
789 18-11-2009 13:48:01 11.9 C 5.3 g/m*3 11.9 C 0 km/h
790 18-11-2009 14:00:01 11.9 C 5.4 g/m*3 11.9 C 0 km/h
791 18-11-2009 14:12:02 11.9 C 5.3 g/m*3 11.9 C 0 km/h
792 18-11-2009 14:24:01 11.9 C 5.3 g/m*3 11.9 C 0 km/h
793 18-11-2009 14:36:02 11.8 C 5.37 g/m*3 11.8 C 0 km/h
794 18-11-2009 14:48:01 11.8 C 5.26 g/m*3 11.8 C 0 km/h
795 18-11-2009 15:00:01 11.8 C 5.37 g/m*3 11.8 C 0 km/h
796 18-11-2009 15:12:02 11.7 C 5.33 g/m*3 11.7 C 0 km/h
797 18-11-2009 15:24:01 11.6 C 5.3 g/m*3 11.6 C 0 km/h
798 18-11-2009 15:36:02 11.5 C 5.27 g/m*3 11.5 C 0 km/h
799 18-11-2009 15:48:01 11.4 C 5.23 g/m*3 11.4 C 0 km/h
800 18-11-2009 16:00:01 11.3 C 5.41 g/m*3 11.3 C 0 km/h
Sensor: Nr:Datum:Temp:Abs-Feuchte:Windchill:Wind:
Aussen-T/F 801 18-11-2009 16:12:02 10.9 C 5.47 g/m*3 10.9 C 0 km/h
802 18-11-2009 16:24:02 10.9 C 5.47 g/m*3 10.9 C 0 km/h
803 18-11-2009 16:36:02 11.1 C 5.44 g/m*3 11.1 C 0 km/h
804 18-11-2009 16:48:01 11.1 C 5.44 g/m*3 11.1 C 0 km/h
805 18-11-2009 17:00:01 11.1 C 5.44 g/m*3 11.1 C 0 km/h
806 18-11-2009 17:12:02 11.1 C 5.44 g/m*3 11.1 C 0 km/h
807 18-11-2009 17:24:02 11.2 C 5.47 g/m*3 11.2 C 0 km/h
808 18-11-2009 17:36:01 11.2 C 5.57 g/m*3 11.2 C 0 km/h
809 18-11-2009 17:48:01 11.4 C 5.65 g/m*3 11.4 C 0 km/h
810 18-11-2009 18:00:01 11 C 5.61 g/m*3 11 C 0 km/h
811 18-11-2009 18:12:02 11 C 5.71 g/m*3 11 C 0 km/h
812 18-11-2009 18:24:02 10.9 C 5.87 g/m*3 10.9 C 0 km/h
813 18-11-2009 18:36:01 11 C 5.81 g/m*3 11 C 0 km/h
814 18-11-2009 18:48:02 11.1 C 5.84 g/m*3 11.1 C 0 km/h
815 18-11-2009 19:00:02 11.4 C 5.95 g/m*3 11.4 C 0 km/h
816 18-11-2009 19:12:01 11.4 C 5.95 g/m*3 11.4 C 0 km/h
817 18-11-2009 19:24:02 11.3 C 5.92 g/m*3 11.3 C 0 km/h
818 18-11-2009 19:36:01 11.3 C 5.92 g/m*3 11.3 C 0 km/h
819 18-11-2009 19:48:03 11.3 C 5.92 g/m*3 11.3 C 0 km/h
820 18-11-2009 20:00:03 11.3 C 5.92 g/m*3 11.3 C 0 km/h
821 18-11-2009 20:12:02 11.3 C 6.02 g/m*3 11.3 C 0 km/h
822 18-11-2009 20:24:02 11.3 C 6.02 g/m*3 11.3 C 0 km/h
823 18-11-2009 20:36:02 11.1 C 6.04 g/m*3 11.1 C 0 km/h
824 18-11-2009 20:48:02 10.9 C 6.07 g/m*3 10.9 C 0 km/h
825 18-11-2009 21:00:02 11 C 6.11 g/m*3 11 C 0 km/h
Sensor: Nr:Datum:Temp:Abs-Feuchte:Windchill:Wind:
Aussen-T/F 826 18-11-2009 21:12:02 11 C 6.11 g/m*3 11 C 0 km/h
827 18-11-2009 21:24:02 10.8 C 6.13 g/m*3 10.8 C 0 km/h
828 18-11-2009 21:36:02 10.6 C 6.15 g/m*3 10.6 C 0 km/h
829 18-11-2009 21:48:02 10.3 C 6.13 g/m*3 10.3 C 0 km/h
830 18-11-2009 22:00:02 10.3 C 6.22 g/m*3 10.3 C 0 km/h
831 18-11-2009 22:13:02 10.1 C 6.24 g/m*3 10.1 C 0 km/h
832 18-11-2009 22:25:02 10.2 C 6.28 g/m*3 10.2 C 0 km/h
833 18-11-2009 22:37:02 10.1 C 6.24 g/m*3 10.1 C 0 km/h
834 18-11-2009 22:49:02 10 C 6.3 g/m*3 10 C 0 km/h
835 18-11-2009 23:01:02 9.9 C 6.44 g/m*3 9.9 C 0 km/h
836 18-11-2009 23:13:02 10.1 C 6.43 g/m*3 10.1 C 0 km/h
837 18-11-2009 23:25:02 10.2 C 6.47 g/m*3 10.2 C 0 km/h
838 18-11-2009 23:37:02 10.3 C 6.42 g/m*3 10.3 C 0 km/h
839 18-11-2009 23:49:02 10.3 C 6.42 g/m*3 10.3 C 0 km/h
840 19-11-2009 00:01:02 10.1 C 6.43 g/m*3 10.1 C 0 km/h
841 19-11-2009 00:13:03 10 C 6.48 g/m*3 10 C 0 km/h
842 19-11-2009 00:25:03 9.9 C 6.63 g/m*3 9.9 C 0 km/h
843 19-11-2009 00:37:03 9.7 C 6.64 g/m*3 9.7 C 0 km/h
844 19-11-2009 00:49:03 9.5 C 6.64 g/m*3 9.5 C 0 km/h
845 19-11-2009 01:01:03 9.9 C 6.82 g/m*3 9.9 C 0 km/h
846 19-11-2009 01:13:03 10 C 6.77 g/m*3 10 C 0 km/h
847 19-11-2009 01:25:03 9.9 C 6.82 g/m*3 9.9 C 0 km/h
848 19-11-2009 01:37:03 9.9 C 6.82 g/m*3 9.9 C 0 km/h
849 19-11-2009 01:49:03 9.6 C 6.78 g/m*3 9.6 C 0 km/h
850 19-11-2009 02:01:03 9.7 C 6.91 g/m*3 9.7 C 0 km/h
Sensor: Nr:Datum:Temp:Abs-Feuchte:Windchill:Wind:
Aussen-T/F 851 19-11-2009 02:13:03 10.2 C 6.95 g/m*3 10.2 C 0 km/h
852 19-11-2009 02:25:03 10.4 C 6.84 g/m*3 10.4 C 0 km/h
853 19-11-2009 02:37:03 10.6 C 6.93 g/m*3 10.6 C 0 km/h
854 19-11-2009 02:49:03 10.6 C 6.83 g/m*3 10.6 C 0 km/h
855 19-11-2009 03:01:03 10.4 C 6.84 g/m*3 10.4 C 0 km/h
856 19-11-2009 03:13:03 10.5 C 6.89 g/m*3 10.5 C 0 km/h
857 19-11-2009 03:25:03 10.6 C 6.93 g/m*3 10.6 C 0 km/h
858 19-11-2009 03:37:03 10.6 C 6.83 g/m*3 10.6 C 0 km/h
859 19-11-2009 03:49:03 10.6 C 6.83 g/m*3 10.6 C 0 km/h
860 19-11-2009 04:01:04 10.4 C 6.75 g/m*3 10.4 C 0 km/h
861 19-11-2009 04:13:04 10 C 6.67 g/m*3 10 C 0 km/h
862 19-11-2009 04:25:04 9.8 C 6.87 g/m*3 9.8 C 0 km/h
863 19-11-2009 04:37:04 9.7 C 6.82 g/m*3 9.7 C 0 km/h
864 19-11-2009 04:49:04 9.3 C 6.74 g/m*3 9.3 C 0 km/h
865 19-11-2009 05:01:04 9.3 C 6.92 g/m*3 9.3 C 0 km/h
866 19-11-2009 05:13:04 9.2 C 6.88 g/m*3 9.2 C 0 km/h
867 19-11-2009 05:25:04 9.1 C 6.83 g/m*3 9.1 C 0 km/h
868 19-11-2009 05:37:04 9.2 C 6.88 g/m*3 9.2 C 0 km/h
869 19-11-2009 05:49:04 9.3 C 6.92 g/m*3 9.3 C 0 km/h
870 19-11-2009 06:01:04 9.4 C 6.96 g/m*3 9.4 C 0 km/h
871 19-11-2009 06:13:04 9.4 C 6.96 g/m*3 9.4 C 0 km/h
872 19-11-2009 06:25:04 9.6 C 7.05 g/m*3 9.6 C 0 km/h
873 19-11-2009 06:37:04 9.7 C 7.01 g/m*3 9.7 C 0 km/h
874 19-11-2009 06:49:04 9.7 C 7.01 g/m*3 9.7 C 0 km/h
875 19-11-2009 07:01:03 9.8 C 6.96 g/m*3 9.8 C 0 km/h
Sensor: Nr:Datum:Temp:Abs-Feuchte:Windchill:Wind:
Aussen-T/F 876 19-11-2009 07:13:03 9.7 C 6.91 g/m*3 9.7 C 0 km/h
877 19-11-2009 07:25:02 9.8 C 6.87 g/m*3 9.8 C 0 km/h
878 19-11-2009 07:37:02 9.7 C 6.82 g/m*3 9.7 C 0 km/h
879 19-11-2009 07:49:02 9.8 C 6.87 g/m*3 9.8 C 0 km/h
880 19-11-2009 08:01:02 9.7 C 6.82 g/m*3 9.7 C 0 km/h
881 19-11-2009 08:13:02 9.8 C 6.87 g/m*3 9.8 C 0 km/h
882 19-11-2009 08:25:01 9.9 C 6.82 g/m*3 9.9 C 0 km/h
883 19-11-2009 08:37:02 9.9 C 6.72 g/m*3 9.9 C 0 km/h
884 19-11-2009 08:49:02 9.9 C 6.72 g/m*3 9.9 C 0 km/h
885 19-11-2009 09:01:02 10 C 6.67 g/m*3 10 C 0 km/h
886 19-11-2009 09:13:02 10.1 C 6.62 g/m*3 10.1 C 0 km/h
887 19-11-2009 09:25:02 10 C 6.58 g/m*3 10 C 0 km/h
888 19-11-2009 09:37:02 9.8 C 6.68 g/m*3 9.8 C 0 km/h
889 19-11-2009 09:49:02 9.7 C 6.64 g/m*3 9.7 C 0 km/h
890 19-11-2009 10:01:02 9.6 C 6.6 g/m*3 9.6 C 0 km/h
891 19-11-2009 10:13:02 9.8 C 6.59 g/m*3 9.8 C 0 km/h
892 19-11-2009 10:25:03 9.8 C 6.49 g/m*3 9.8 C 0 km/h
893 19-11-2009 10:37:02 9.9 C 6.35 g/m*3 9.9 C 0 km/h
894 19-11-2009 10:49:02 10 C 6.3 g/m*3 10 C 0 km/h
895 19-11-2009 11:01:02 10.1 C 6.24 g/m*3 10.1 C 0 km/h
896 19-11-2009 11:13:02 10.2 C 6.19 g/m*3 10.2 C 0 km/h
897 19-11-2009 11:25:03 10.5 C 6.21 g/m*3 10.5 C 0 km/h
898 19-11-2009 11:37:02 10.8 C 6.23 g/m*3 10.8 C 0 km/h
899 19-11-2009 11:49:03 10.9 C 6.27 g/m*3 10.9 C 0 km/h
900 19-11-2009 12:01:02 11 C 6.31 g/m*3 11 C 0 km/h
Sensor: Nr:Datum:Temp:Abs-Feuchte:Windchill:Wind:
Aussen-T/F 901 19-11-2009 12:13:02 11.5 C 6.4 g/m*3 11.5 C 0 km/h
902 19-11-2009 12:25:02 12.2 C 5.94 g/m*3 12.2 C 0 km/h
903 19-11-2009 12:37:02 12.6 C 5.97 g/m*3 12.6 C 0 km/h
904 19-11-2009 12:49:02 12.8 C 5.94 g/m*3 12.8 C 0 km/h
905 19-11-2009 13:01:02 13.2 C 5.74 g/m*3 13.2 C 0 km/h
906 19-11-2009 13:13:02 13.5 C 5.85 g/m*3 13.5 C 0 km/h
907 19-11-2009 13:25:02 14 C 5.67 g/m*3 14 C 0 km/h
908 19-11-2009 13:37:02 14.2 C 5.62 g/m*3 14.2 C 0 km/h
909 19-11-2009 13:49:02 14.7 C 5.79 g/m*3 14.7 C 0 km/h
910 19-11-2009 14:01:01 14.9 C 5.86 g/m*3 14.9 C 0 km/h
911 19-11-2009 14:13:01 15.2 C 5.97 g/m*3 15.2 C 0 km/h
912 19-11-2009 14:25:02 15.4 C 6.04 g/m*3 15.4 C 0 km/h
913 19-11-2009 14:37:01 14.8 C 5.83 g/m*3 14.8 C 0 km/h
914 19-11-2009 14:49:02 13.9 C 5.99 g/m*3 13.9 C 0 km/h
915 19-11-2009 15:01:01 13.3 C 6.12 g/m*3 13.3 C 0 km/h
916 19-11-2009 15:13:01 12.7 C 6.23 g/m*3 12.7 C 0 km/h
917 19-11-2009 15:25:02 12.3 C 6.3 g/m*3 12.3 C 0 km/h
918 19-11-2009 15:37:01 12.1 C 6.33 g/m*3 12.1 C 0 km/h
919 19-11-2009 15:49:02 11.9 C 6.35 g/m*3 11.9 C 0 km/h
920 19-11-2009 16:01:02 11.5 C 6.51 g/m*3 11.5 C 0 km/h
921 19-11-2009 16:13:02 11.1 C 6.45 g/m*3 11.1 C 0 km/h
922 19-11-2009 16:25:02 11 C 6.41 g/m*3 11 C 0 km/h
923 19-11-2009 16:37:03 10.6 C 6.44 g/m*3 10.6 C 0 km/h
924 19-11-2009 16:49:02 10.2 C 6.47 g/m*3 10.2 C 0 km/h
925 19-11-2009 17:01:01 10 C 6.39 g/m*3 10 C 0 km/h
Sensor: Nr:Datum:Temp:Abs-Feuchte:Windchill:Wind:
Aussen-T/F 926 19-11-2009 17:13:01 9.7 C 6.45 g/m*3 9.7 C 0 km/h
927 19-11-2009 17:25:02 9.6 C 6.41 g/m*3 9.6 C 0 km/h
928 19-11-2009 17:37:02 9.2 C 6.43 g/m*3 9.2 C 0 km/h
929 19-11-2009 17:49:02 9 C 6.44 g/m*3 9 C 0 km/h
930 19-11-2009 18:01:03 9 C 6.52 g/m*3 9 C 0 km/h
931 19-11-2009 18:13:03 8.7 C 6.49 g/m*3 8.7 C 0 km/h
932 19-11-2009 18:25:02 8.6 C 6.44 g/m*3 8.6 C 0 km/h
933 19-11-2009 18:37:02 8.2 C 6.36 g/m*3 8.2 C 0 km/h
934 19-11-2009 18:49:02 8.2 C 6.45 g/m*3 8.2 C 0 km/h
935 19-11-2009 19:01:02 8.1 C 6.49 g/m*3 8.1 C 0 km/h
936 19-11-2009 19:13:02 7.9 C 6.49 g/m*3 7.9 C 0 km/h
937 19-11-2009 19:25:01 7.8 C 6.53 g/m*3 7.8 C 0 km/h
938 19-11-2009 19:37:02 7.6 C 6.44 g/m*3 7.6 C 0 km/h
939 19-11-2009 19:49:02 7.9 C 6.65 g/m*3 7.9 C 0 km/h
940 19-11-2009 20:01:02 8.2 C 6.53 g/m*3 8.2 C 0 km/h
941 19-11-2009 20:13:02 8.1 C 6.49 g/m*3 8.1 C 0 km/h
942 19-11-2009 20:25:02 7.8 C 6.45 g/m*3 7.8 C 0 km/h
943 19-11-2009 20:37:02 7.4 C 6.36 g/m*3 7.4 C 0 km/h
944 19-11-2009 20:49:02 7.2 C 6.36 g/m*3 7.2 C 0 km/h
945 19-11-2009 21:01:03 6.8 C 6.27 g/m*3 6.8 C 0 km/h
946 19-11-2009 21:13:03 6.6 C 6.27 g/m*3 6.6 C 0 km/h
947 19-11-2009 21:25:02 6.4 C 6.26 g/m*3 6.4 C 0 km/h
948 19-11-2009 21:37:02 6.4 C 6.41 g/m*3 6.4 C 0 km/h
949 19-11-2009 21:49:02 6.3 C 6.37 g/m*3 6.3 C 0 km/h
950 19-11-2009 22:01:02 6.3 C 6.37 g/m*3 6.3 C 0 km/h
Sensor: Nr:Datum:Temp:Abs-Feuchte:Windchill:Wind:
Aussen-T/F 951 19-11-2009 22:13:03 6 C 6.24 g/m*3 6 C 0 km/h
952 19-11-2009 22:25:01 6 C 6.24 g/m*3 6 C 0 km/h
953 19-11-2009 22:37:02 5.7 C 6.19 g/m*3 5.7 C 0 km/h
954 19-11-2009 22:50:01 5.8 C 6.3 g/m*3 5.8 C 0 km/h
955 19-11-2009 23:02:01 5.6 C 6.22 g/m*3 5.6 C 0 km/h
956 19-11-2009 23:14:01 5.6 C 6.22 g/m*3 5.6 C 0 km/h
957 19-11-2009 23:26:01 5.5 C 6.25 g/m*3 5.5 C 0 km/h
958 19-11-2009 23:38:01 5.2 C 6.13 g/m*3 5.2 C 0 km/h
959 19-11-2009 23:50:01 5.2 C 6.13 g/m*3 5.2 C 0 km/h
960 20-11-2009 00:02:01 5.1 C 6.09 g/m*3 5.1 C 0 km/h
961 20-11-2009 00:14:01 5 C 6.05 g/m*3 5 C 0 km/h
962 20-11-2009 00:26:02 4.9 C 6.08 g/m*3 4.9 C 0 km/h
963 20-11-2009 00:38:02 4.8 C 6.04 g/m*3 4.8 C 0 km/h
964 20-11-2009 00:50:02 4.8 C 6.1 g/m*3 4.8 C 0 km/h
965 20-11-2009 01:02:02 4.7 C 6.06 g/m*3 4.7 C 0 km/h
966 20-11-2009 01:14:02 4.7 C 6.06 g/m*3 4.7 C 0 km/h
967 20-11-2009 01:26:02 4.6 C 6.02 g/m*3 4.6 C 0 km/h
968 20-11-2009 01:38:02 4.5 C 5.98 g/m*3 4.5 C 0 km/h
969 20-11-2009 01:50:02 4.4 C 5.94 g/m*3 4.4 C 0 km/h
970 20-11-2009 02:02:02 4.3 C 5.9 g/m*3 4.3 C 0 km/h
971 20-11-2009 02:14:02 4.2 C 5.86 g/m*3 4.2 C 0 km/h
972 20-11-2009 02:26:02 4.2 C 5.86 g/m*3 4.2 C 0 km/h
973 20-11-2009 02:38:02 4.2 C 5.93 g/m*3 4.2 C 0 km/h
974 20-11-2009 02:50:02 4.2 C 5.93 g/m*3 4.2 C 0 km/h
975 20-11-2009 03:02:02 4 C 5.85 g/m*3 4 C 0 km/h
Sensor: Nr:Datum:Temp:Abs-Feuchte:Windchill:Wind:
Aussen-T/F 976 20-11-2009 03:14:02 4 C 5.85 g/m*3 4 C 0 km/h
977 20-11-2009 03:26:02 3.9 C 5.87 g/m*3 3.9 C 0 km/h
978 20-11-2009 03:38:02 3.8 C 5.83 g/m*3 3.8 C 0 km/h
979 20-11-2009 03:50:02 3.7 C 5.8 g/m*3 3.7 C 0 km/h
980 20-11-2009 04:02:02 3.8 C 5.83 g/m*3 3.8 C 0 km/h
981 20-11-2009 04:14:02 3.6 C 5.76 g/m*3 3.6 C 0 km/h
982 20-11-2009 04:26:03 3.4 C 5.68 g/m*3 3.4 C 0 km/h
983 20-11-2009 04:38:03 3.5 C 5.72 g/m*3 3.5 C 0 km/h
984 20-11-2009 04:50:03 3.6 C 5.76 g/m*3 3.6 C 0 km/h
985 20-11-2009 05:02:03 3.5 C 5.72 g/m*3 3.5 C 0 km/h
986 20-11-2009 05:14:03 3.5 C 5.78 g/m*3 3.5 C 0 km/h
987 20-11-2009 05:26:03 3.4 C 5.74 g/m*3 3.4 C 0 km/h
988 20-11-2009 05:38:03 3.3 C 5.7 g/m*3 3.3 C 0 km/h
989 20-11-2009 05:50:03 3.4 C 5.74 g/m*3 3.4 C 0 km/h
990 20-11-2009 06:02:03 3.2 C 5.66 g/m*3 3.2 C 0 km/h
991 20-11-2009 06:14:03 3.1 C 5.63 g/m*3 3.1 C 0 km/h
992 20-11-2009 06:26:03 3.1 C 5.63 g/m*3 3.1 C 0 km/h
993 20-11-2009 06:38:03 3 C 5.59 g/m*3 3 C 0 km/h
994 20-11-2009 06:50:03 3 C 5.59 g/m*3 3 C 0 km/h
995 20-11-2009 07:02:02 3.1 C 5.69 g/m*3 3.1 C 0 km/h
996 20-11-2009 07:14:02 3.1 C 5.69 g/m*3 3.1 C 0 km/h
997 20-11-2009 07:26:01 3.1 C 5.69 g/m*3 3.1 C 0 km/h
998 20-11-2009 07:38:02 3 C 5.65 g/m*3 3 C 0 km/h
999 20-11-2009 07:50:02 2.8 C 5.57 g/m*3 2.8 C 0 km/h
1000 20-11-2009 08:02:02 2.8 C 5.57 g/m*3 2.8 C 0 km/h
Sensor: Nr:Datum:Temp:Abs-Feuchte:Windchill:Wind:
Aussen-T/F 1001 20-11-2009 08:14:02 2.8 C 5.57 g/m*3 2.8 C 0 km/h
1002 20-11-2009 08:26:02 2.8 C 5.57 g/m*3 2.8 C 0 km/h
1003 20-11-2009 08:38:02 2.9 C 5.61 g/m*3 2.9 C 0 km/h
1004 20-11-2009 08:50:02 3 C 5.65 g/m*3 3 C 0 km/h
1005 20-11-2009 09:02:02 3.1 C 5.69 g/m*3 3.1 C 0 km/h
1006 20-11-2009 09:14:03 3.2 C 5.72 g/m*3 3.2 C 0 km/h
1007 20-11-2009 09:26:02 3.4 C 5.8 g/m*3 3.4 C 0 km/h
1008 20-11-2009 09:38:02 3.6 C 5.88 g/m*3 3.6 C 0 km/h
1009 20-11-2009 09:50:01 3.9 C 6 g/m*3 3.9 C 0 km/h
1010 20-11-2009 10:02:01 4.3 C 6.16 g/m*3 4.3 C 0 km/h
1011 20-11-2009 10:14:01 4.3 C 6.16 g/m*3 4.3 C 0 km/h
1012 20-11-2009 10:26:02 4.6 C 6.29 g/m*3 4.6 C 0 km/h
1013 20-11-2009 10:38:01 5.4 C 6.63 g/m*3 5.4 C 0 km/h
1014 20-11-2009 10:50:02 5.7 C 6.76 g/m*3 5.7 C 0 km/h
1015 20-11-2009 11:02:02 5.6 C 6.72 g/m*3 5.6 C 0 km/h
1016 20-11-2009 11:14:02 5.7 C 6.76 g/m*3 5.7 C 0 km/h
1017 20-11-2009 11:26:02 5.9 C 6.85 g/m*3 5.9 C 0 km/h
1018 20-11-2009 11:38:02 6.5 C 7.12 g/m*3 6.5 C 0 km/h
1019 20-11-2009 11:50:02 7.1 C 7.33 g/m*3 7.1 C 0 km/h
1020 20-11-2009 12:02:02 7.7 C 7.7 g/m*3 7.7 C 0 km/h
1021 20-11-2009 12:14:02 8.5 C 8.03 g/m*3 8.5 C 0 km/h
1022 20-11-2009 12:26:02 9.2 C 8.39 g/m*3 9.2 C 0 km/h
1023 20-11-2009 12:38:01 10.1 C 8.79 g/m*3 10.1 C 0 km/h
1024 20-11-2009 12:50:02 10.8 C 9.09 g/m*3 10.8 C 0 km/h
1025 20-11-2009 13:02:01 11.4 C 9.24 g/m*3 11.4 C 0 km/h
Sensor: Nr:Datum:Temp:Abs-Feuchte:Windchill:Wind:
Aussen-T/F 1026 20-11-2009 13:14:01 12.1 C 8.9 g/m*3 12.1 C 0 km/h
1027 20-11-2009 13:26:02 13.9 C 7.55 g/m*3 13.9 C 0 km/h
1028 20-11-2009 13:38:02 15 C 6.67 g/m*3 15 C 0 km/h
1029 20-11-2009 13:50:02 15.3 C 6.53 g/m*3 15.3 C 0 km/h
1030 20-11-2009 14:02:03 15.5 C 6.34 g/m*3 15.5 C 0 km/h
1031 20-11-2009 14:14:03 15.4 C 6.44 g/m*3 15.4 C 0 km/h
1032 20-11-2009 14:26:02 15.2 C 6.49 g/m*3 15.2 C 0 km/h
1033 20-11-2009 14:38:02 15.2 C 6.62 g/m*3 15.2 C 0 km/h
1034 20-11-2009 14:50:01 14.8 C 6.71 g/m*3 14.8 C 0 km/h
1035 20-11-2009 15:02:02 14.6 C 6.76 g/m*3 14.6 C 0 km/h
1036 20-11-2009 15:14:02 14.6 C 6.76 g/m*3 14.6 C 0 km/h
1037 20-11-2009 15:26:01 14.8 C 6.71 g/m*3 14.8 C 0 km/h
1038 20-11-2009 15:38:02 14.5 C 6.84 g/m*3 14.5 C 0 km/h
1039 20-11-2009 15:50:02 13.9 C 7.07 g/m*3 13.9 C 0 km/h
1040 20-11-2009 16:02:02 13.5 C 7.25 g/m*3 13.5 C 0 km/h
1041 20-11-2009 16:14:02 13 C 7.26 g/m*3 13 C 0 km/h
1042 20-11-2009 16:26:02 12.6 C 7.41 g/m*3 12.6 C 0 km/h
1043 20-11-2009 16:38:02 12.3 C 7.38 g/m*3 12.3 C 0 km/h
1044 20-11-2009 16:50:02 12.1 C 7.4 g/m*3 12.1 C 0 km/h
1045 20-11-2009 17:02:02 12 C 7.46 g/m*3 12 C 0 km/h
1046 20-11-2009 17:14:02 11.7 C 7.43 g/m*3 11.7 C 0 km/h
1047 20-11-2009 17:26:02 11.7 C 7.64 g/m*3 11.7 C 0 km/h
1048 20-11-2009 17:38:02 11.7 C 7.64 g/m*3 11.7 C 0 km/h
1049 20-11-2009 17:50:02 11.7 C 7.64 g/m*3 11.7 C 0 km/h
1050 20-11-2009 18:02:02 11.6 C 7.69 g/m*3 11.6 C 0 km/h
Sensor: Nr:Datum:Temp:Abs-Feuchte:Windchill:Wind:
Aussen-T/F 1051 20-11-2009 18:14:02 11.6 C 7.8 g/m*3 11.6 C 0 km/h
1052 20-11-2009 18:26:02 11.5 C 7.75 g/m*3 11.5 C 0 km/h
1053 20-11-2009 18:38:02 11.6 C 7.8 g/m*3 11.6 C 0 km/h
1054 20-11-2009 18:50:01 11.1 C 7.66 g/m*3 11.1 C 0 km/h
1055 20-11-2009 19:02:01 11.2 C 7.8 g/m*3 11.2 C 0 km/h
1056 20-11-2009 19:14:01 11.1 C 7.76 g/m*3 11.1 C 0 km/h
1057 20-11-2009 19:26:02 11.1 C 7.76 g/m*3 11.1 C 0 km/h
1058 20-11-2009 19:38:01 10.9 C 7.66 g/m*3 10.9 C 0 km/h
1059 20-11-2009 19:50:01 10.9 C 7.76 g/m*3 10.9 C 0 km/h
1060 20-11-2009 20:02:01 10.8 C 7.71 g/m*3 10.8 C 0 km/h
1061 20-11-2009 20:14:01 10.5 C 7.57 g/m*3 10.5 C 0 km/h
1062 20-11-2009 20:26:02 10.5 C 7.66 g/m*3 10.5 C 0 km/h
1063 20-11-2009 20:38:01 10.5 C 7.66 g/m*3 10.5 C 0 km/h
1064 20-11-2009 20:50:03 10.5 C 7.76 g/m*3 10.5 C 0 km/h
1065 20-11-2009 21:02:02 10.6 C 7.71 g/m*3 10.6 C 0 km/h
1066 20-11-2009 21:14:02 10.6 C 7.81 g/m*3 10.6 C 0 km/h
1067 20-11-2009 21:26:02 10.6 C 7.81 g/m*3 10.6 C 0 km/h
1068 20-11-2009 21:38:02 10.6 C 7.71 g/m*3 10.6 C 0 km/h
1069 20-11-2009 21:50:01 10.4 C 7.61 g/m*3 10.4 C 0 km/h
1070 20-11-2009 22:02:02 10.4 C 7.71 g/m*3 10.4 C 0 km/h
1071 20-11-2009 22:14:02 10.5 C 7.86 g/m*3 10.5 C 0 km/h
1072 20-11-2009 22:26:01 10.4 C 7.81 g/m*3 10.4 C 0 km/h
1073 20-11-2009 22:38:01 10.4 C 7.81 g/m*3 10.4 C 0 km/h
1074 20-11-2009 22:50:01 10.2 C 7.71 g/m*3 10.2 C 0 km/h
1075 20-11-2009 23:02:02 10.2 C 7.71 g/m*3 10.2 C 0 km/h
Sensor: Nr:Datum:Temp:Abs-Feuchte:Windchill:Wind:
Aussen-T/F 1076 20-11-2009 23:14:02 10.1 C 7.75 g/m*3 10.1 C 0 km/h
1077 20-11-2009 23:26:01 10.1 C 7.75 g/m*3 10.1 C 0 km/h
1078 20-11-2009 23:38:02 10 C 7.71 g/m*3 10 C 0 km/h
1079 20-11-2009 23:51:03 10.1 C 7.75 g/m*3 10.1 C 0 km/h
1080 21-11-2009 00:03:03 10 C 7.71 g/m*3 10 C 0 km/h
1081 21-11-2009 00:15:03 9.8 C 7.79 g/m*3 9.8 C 0 km/h
1082 21-11-2009 00:27:03 10.1 C 7.85 g/m*3 10.1 C 0 km/h
1083 21-11-2009 00:39:03 10.2 C 7.8 g/m*3 10.2 C 0 km/h
1084 21-11-2009 00:51:03 10.1 C 7.75 g/m*3 10.1 C 0 km/h
1085 21-11-2009 01:03:03 10.2 C 7.8 g/m*3 10.2 C 0 km/h
1086 21-11-2009 01:15:03 10.4 C 7.9 g/m*3 10.4 C 0 km/h
1087 21-11-2009 01:27:03 10.2 C 7.71 g/m*3 10.2 C 0 km/h
1088 21-11-2009 01:39:03 10.1 C 7.75 g/m*3 10.1 C 0 km/h
1089 21-11-2009 01:51:03 10.2 C 7.8 g/m*3 10.2 C 0 km/h
1090 21-11-2009 02:03:03 10 C 7.8 g/m*3 10 C 0 km/h
1091 21-11-2009 02:15:04 10 C 7.8 g/m*3 10 C 0 km/h
1092 21-11-2009 02:27:04 10.1 C 7.85 g/m*3 10.1 C 0 km/h
1093 21-11-2009 02:39:04 10 C 7.8 g/m*3 10 C 0 km/h
1094 21-11-2009 02:51:04 10.1 C 7.85 g/m*3 10.1 C 0 km/h
1095 21-11-2009 03:03:04 10.2 C 7.9 g/m*3 10.2 C 0 km/h
1096 21-11-2009 03:15:04 10.2 C 7.9 g/m*3 10.2 C 0 km/h
1097 21-11-2009 03:27:04 10.1 C 7.75 g/m*3 10.1 C 0 km/h
1098 21-11-2009 03:39:04 10 C 7.71 g/m*3 10 C 0 km/h
1099 21-11-2009 03:51:04 10 C 7.8 g/m*3 10 C 0 km/h
1100 21-11-2009 04:03:04 10.1 C 7.85 g/m*3 10.1 C 0 km/h
Sensor: Nr:Datum:Temp:Abs-Feuchte:Windchill:Wind:
Aussen-T/F 1101 21-11-2009 04:15:04 10.1 C 7.85 g/m*3 10.1 C 0 km/h
1102 21-11-2009 04:27:04 10.1 C 7.85 g/m*3 10.1 C 0 km/h
1103 21-11-2009 04:39:04 9.9 C 7.84 g/m*3 9.9 C 0 km/h
1104 21-11-2009 04:51:04 9.8 C 7.79 g/m*3 9.8 C 0 km/h
1105 21-11-2009 05:03:04 9.7 C 7.74 g/m*3 9.7 C 0 km/h
1106 21-11-2009 05:15:04 9.6 C 7.69 g/m*3 9.6 C 0 km/h
1107 21-11-2009 05:27:04 9.5 C 7.74 g/m*3 9.5 C 0 km/h
1108 21-11-2009 05:39:04 9.3 C 7.64 g/m*3 9.3 C 0 km/h
1109 21-11-2009 05:51:04 9.3 C 7.64 g/m*3 9.3 C 0 km/h
1110 21-11-2009 06:03:05 9.4 C 7.78 g/m*3 9.4 C 0 km/h
1111 21-11-2009 06:15:05 9.4 C 7.78 g/m*3 9.4 C 0 km/h
1112 21-11-2009 06:27:05 9.3 C 7.73 g/m*3 9.3 C 0 km/h
1113 21-11-2009 06:39:05 9.3 C 7.73 g/m*3 9.3 C 0 km/h
1114 21-11-2009 06:51:05 9.3 C 7.73 g/m*3 9.3 C 0 km/h
1115 21-11-2009 07:03:05 9.3 C 7.82 g/m*3 9.3 C 0 km/h
1116 21-11-2009 07:15:05 9.5 C 7.92 g/m*3 9.5 C 0 km/h
1117 21-11-2009 07:27:05 9.5 C 8.01 g/m*3 9.5 C 0 km/h
1118 21-11-2009 07:39:03 9.3 C 7.91 g/m*3 9.3 C 0 km/h
1119 21-11-2009 07:51:02 9.3 C 8 g/m*3 9.3 C 0 km/h
1120 21-11-2009 08:03:02 9.4 C 8.05 g/m*3 9.4 C 0 km/h
1121 21-11-2009 08:15:02 9.3 C 8 g/m*3 9.3 C 0 km/h
1122 21-11-2009 08:27:02 9.4 C 8.14 g/m*3 9.4 C 0 km/h
1123 21-11-2009 08:39:02 9.5 C 8.19 g/m*3 9.5 C 0 km/h
1124 21-11-2009 08:51:02 9.5 C 8.19 g/m*3 9.5 C 0 km/h
1125 21-11-2009 09:03:02 9.6 C 8.24 g/m*3 9.6 C 0 km/h
Sensor: Nr:Datum:Temp:Abs-Feuchte:Windchill:Wind:
Aussen-T/F 1126 21-11-2009 09:15:02 9.7 C 8.3 g/m*3 9.7 C 0 km/h
1127 21-11-2009 09:27:02 9.8 C 8.35 g/m*3 9.8 C 0 km/h
1128 21-11-2009 09:39:02 10 C 8.36 g/m*3 10 C 0 km/h
1129 21-11-2009 09:51:02 10 C 8.27 g/m*3 10 C 0 km/h
1130 21-11-2009 10:03:02 10.1 C 8.32 g/m*3 10.1 C 0 km/h
1131 21-11-2009 10:15:02 10.3 C 8.43 g/m*3 10.3 C 0 km/h
1132 21-11-2009 10:27:02 10.4 C 8.48 g/m*3 10.4 C 0 km/h
1133 21-11-2009 10:39:02 10.5 C 8.53 g/m*3 10.5 C 0 km/h
1134 21-11-2009 10:51:01 10.7 C 8.64 g/m*3 10.7 C 0 km/h
1135 21-11-2009 11:03:01 11.2 C 8.92 g/m*3 11.2 C 0 km/h
1136 21-11-2009 11:15:01 11.7 C 8.99 g/m*3 11.7 C 0 km/h
1137 21-11-2009 11:27:01 12.2 C 9.17 g/m*3 12.2 C 0 km/h
1138 21-11-2009 11:39:01 12.7 C 9.02 g/m*3 12.7 C 0 km/h
1139 21-11-2009 11:51:01 13 C 8.85 g/m*3 13 C 0 km/h
1140 21-11-2009 12:03:01 13.2 C 8.5 g/m*3 13.2 C 0 km/h
1141 21-11-2009 12:15:02 13.8 C 8.46 g/m*3 13.8 C 0 km/h
1142 21-11-2009 12:27:02 14 C 8.32 g/m*3 14 C 0 km/h
1143 21-11-2009 12:39:01 14.2 C 8.43 g/m*3 14.2 C 0 km/h
1144 21-11-2009 12:51:01 14.2 C 8.3 g/m*3 14.2 C 0 km/h
1145 21-11-2009 13:03:01 14.3 C 8.48 g/m*3 14.3 C 0 km/h
1146 21-11-2009 13:15:02 14.3 C 8.35 g/m*3 14.3 C 0 km/h
1147 21-11-2009 13:27:02 14.4 C 8.53 g/m*3 14.4 C 0 km/h
1148 21-11-2009 13:39:01 14.6 C 8.76 g/m*3 14.6 C 0 km/h
1149 21-11-2009 13:51:03 14.5 C 8.71 g/m*3 14.5 C 0 km/h
1150 21-11-2009 14:03:02 14.5 C 8.46 g/m*3 14.5 C 0 km/h
Sensor: Nr:Datum:Temp:Abs-Feuchte:Windchill:Wind:
Aussen-T/F 1151 21-11-2009 14:15:02 14.9 C 7.9 g/m*3 14.9 C 0 km/h
1152 21-11-2009 14:27:02 15.6 C 7.58 g/m*3 15.6 C 0 km/h
1153 21-11-2009 14:39:02 15.6 C 7.05 g/m*3 15.6 C 0 km/h
1154 21-11-2009 14:51:02 15.4 C 7.49 g/m*3 15.4 C 0 km/h
1155 21-11-2009 15:03:02 15.3 C 7.84 g/m*3 15.3 C 0 km/h
1156 21-11-2009 15:15:02 15.1 C 7.74 g/m*3 15.1 C 0 km/h
1157 21-11-2009 15:27:03 15.1 C 7.61 g/m*3 15.1 C 0 km/h
1158 21-11-2009 15:39:02 14.9 C 7.77 g/m*3 14.9 C 0 km/h
1159 21-11-2009 15:51:02 14.6 C 7.76 g/m*3 14.6 C 0 km/h
1160 21-11-2009 16:03:01 14.4 C 7.66 g/m*3 14.4 C 0 km/h
1161 21-11-2009 16:15:02 14.3 C 7.49 g/m*3 14.3 C 0 km/h
1162 21-11-2009 16:27:02 14.3 C 7.25 g/m*3 14.3 C 0 km/h
1163 21-11-2009 16:39:02 14.1 C 7.16 g/m*3 14.1 C 0 km/h
1164 21-11-2009 16:51:02 14 C 7.24 g/m*3 14 C 0 km/h
1165 21-11-2009 17:03:02 14 C 7.12 g/m*3 14 C 0 km/h
1166 21-11-2009 17:15:02 13.7 C 7.22 g/m*3 13.7 C 0 km/h
1167 21-11-2009 17:27:02 13.3 C 7.16 g/m*3 13.3 C 0 km/h
1168 21-11-2009 17:39:03 13.1 C 7.19 g/m*3 13.1 C 0 km/h
1169 21-11-2009 17:51:02 13 C 7.14 g/m*3 13 C 0 km/h
1170 21-11-2009 18:03:02 12.9 C 7.21 g/m*3 12.9 C 0 km/h
1171 21-11-2009 18:15:02 12.6 C 7.19 g/m*3 12.6 C 0 km/h
1172 21-11-2009 18:27:02 12.5 C 7.15 g/m*3 12.5 C 0 km/h
1173 21-11-2009 18:39:02 12.4 C 7.21 g/m*3 12.4 C 0 km/h
1174 21-11-2009 18:51:02 12.4 C 7.21 g/m*3 12.4 C 0 km/h
1175 21-11-2009 19:03:02 12.6 C 7.3 g/m*3 12.6 C 0 km/h
Sensor: Nr:Datum:Temp:Abs-Feuchte:Windchill:Wind:
Aussen-T/F 1176 21-11-2009 19:15:02 12.5 C 7.26 g/m*3 12.5 C 0 km/h
1177 21-11-2009 19:27:02 12.4 C 7.21 g/m*3 12.4 C 0 km/h
1178 21-11-2009 19:39:02 12.3 C 7.28 g/m*3 12.3 C 0 km/h
1179 21-11-2009 19:51:01 12.1 C 7.29 g/m*3 12.1 C 0 km/h
1180 21-11-2009 20:03:02 12.1 C 7.18 g/m*3 12.1 C 0 km/h
1181 21-11-2009 20:15:01 12.2 C 7.12 g/m*3 12.2 C 0 km/h
1182 21-11-2009 20:27:01 12.2 C 7.12 g/m*3 12.2 C 0 km/h
1183 21-11-2009 20:39:02 12.2 C 7.01 g/m*3 12.2 C 0 km/h
1184 21-11-2009 20:51:02 12.2 C 7.01 g/m*3 12.2 C 0 km/h
1185 21-11-2009 21:03:02 12.1 C 6.97 g/m*3 12.1 C 0 km/h
1186 21-11-2009 21:15:02 12.2 C 6.91 g/m*3 12.2 C 0 km/h
1187 21-11-2009 21:27:02 12.2 C 6.91 g/m*3 12.2 C 0 km/h
1188 21-11-2009 21:39:01 12.1 C 6.86 g/m*3 12.1 C 0 km/h
1189 21-11-2009 21:51:01 12.1 C 6.97 g/m*3 12.1 C 0 km/h
1190 21-11-2009 22:03:02 12.5 C 6.82 g/m*3 12.5 C 0 km/h
1191 21-11-2009 22:16:03 12.7 C 6.68 g/m*3 12.7 C 0 km/h
1192 21-11-2009 22:28:03 12.4 C 6.77 g/m*3 12.4 C 0 km/h
1193 21-11-2009 22:40:03 12.2 C 6.91 g/m*3 12.2 C 0 km/h
1194 21-11-2009 22:52:03 12 C 6.93 g/m*3 12 C 0 km/h
1195 21-11-2009 23:04:03 11.9 C 7.1 g/m*3 11.9 C 0 km/h
1196 21-11-2009 23:16:03 11.9 C 7.1 g/m*3 11.9 C 0 km/h
1197 21-11-2009 23:28:03 12 C 6.93 g/m*3 12 C 0 km/h
1198 21-11-2009 23:40:03 12.1 C 6.86 g/m*3 12.1 C 0 km/h
1199 21-11-2009 23:52:03 12.1 C 7.08 g/m*3 12.1 C 0 km/h
1200 22-11-2009 00:04:03 11.8 C 7.16 g/m*3 11.8 C 0 km/h
Sensor: Nr:Datum:Temp:Abs-Feuchte:Windchill:Wind:
Aussen-T/F 1201 22-11-2009 00:16:03 11.7 C 7.22 g/m*3 11.7 C 0 km/h
1202 22-11-2009 00:28:03 11.7 C 7.32 g/m*3 11.7 C 0 km/h
1203 22-11-2009 00:40:03 11.6 C 7.28 g/m*3 11.6 C 0 km/h
1204 22-11-2009 00:52:03 11.3 C 7.24 g/m*3 11.3 C 0 km/h
1205 22-11-2009 01:04:03 11.3 C 7.45 g/m*3 11.3 C 0 km/h
1206 22-11-2009 01:16:03 11.1 C 7.45 g/m*3 11.1 C 0 km/h
1207 22-11-2009 01:28:03 11 C 7.51 g/m*3 11 C 0 km/h
1208 22-11-2009 01:40:03 10.9 C 7.66 g/m*3 10.9 C 0 km/h
1209 22-11-2009 01:52:03 10.8 C 7.61 g/m*3 10.8 C 0 km/h
1210 22-11-2009 02:04:03 10.7 C 7.66 g/m*3 10.7 C 0 km/h
1211 22-11-2009 02:16:04 10.6 C 7.61 g/m*3 10.6 C 0 km/h
1212 22-11-2009 02:28:04 10.6 C 7.52 g/m*3 10.6 C 0 km/h
1213 22-11-2009 02:40:04 10.7 C 7.46 g/m*3 10.7 C 0 km/h
1214 22-11-2009 02:52:04 11.4 C 6.98 g/m*3 11.4 C 0 km/h
1215 22-11-2009 03:04:04 11.8 C 6.74 g/m*3 11.8 C 0 km/h
1216 22-11-2009 03:16:04 11.8 C 6.63 g/m*3 11.8 C 0 km/h
1217 22-11-2009 03:28:04 11.3 C 6.83 g/m*3 11.3 C 0 km/h
1218 22-11-2009 03:40:04 11 C 6.91 g/m*3 11 C 0 km/h
1219 22-11-2009 03:52:04 10.9 C 6.96 g/m*3 10.9 C 0 km/h
1220 22-11-2009 04:04:04 10.8 C 7.02 g/m*3 10.8 C 0 km/h
1221 22-11-2009 04:16:04 10.6 C 7.03 g/m*3 10.6 C 0 km/h
1222 22-11-2009 04:28:04 10.4 C 7.04 g/m*3 10.4 C 0 km/h
1223 22-11-2009 04:40:04 10.4 C 7.13 g/m*3 10.4 C 0 km/h
1224 22-11-2009 04:52:04 10.3 C 7.09 g/m*3 10.3 C 0 km/h
1225 22-11-2009 05:04:04 10.3 C 7.09 g/m*3 10.3 C 0 km/h
Sensor: Nr:Datum:Temp:Abs-Feuchte:Windchill:Wind:
Aussen-T/F 1226 22-11-2009 05:16:04 10.2 C 7.04 g/m*3 10.2 C 0 km/h
1227 22-11-2009 05:28:04 10.2 C 7.04 g/m*3 10.2 C 0 km/h
1228 22-11-2009 05:40:04 10.1 C 7.09 g/m*3 10.1 C 0 km/h
1229 22-11-2009 05:52:04 10.1 C 7.09 g/m*3 10.1 C 0 km/h
1230 22-11-2009 06:04:04 10.1 C 7.19 g/m*3 10.1 C 0 km/h
1231 22-11-2009 06:16:05 10 C 7.24 g/m*3 10 C 0 km/h
1232 22-11-2009 06:28:05 10 C 7.24 g/m*3 10 C 0 km/h
1233 22-11-2009 06:40:05 9.9 C 7.38 g/m*3 9.9 C 0 km/h
1234 22-11-2009 06:52:05 9.9 C 7.38 g/m*3 9.9 C 0 km/h
1235 22-11-2009 07:04:05 9.9 C 7.28 g/m*3 9.9 C 0 km/h
1236 22-11-2009 07:16:05 9.9 C 7.28 g/m*3 9.9 C 0 km/h
1237 22-11-2009 07:28:05 9.7 C 7.28 g/m*3 9.7 C 0 km/h
1238 22-11-2009 07:40:05 9.8 C 7.33 g/m*3 9.8 C 0 km/h
1239 22-11-2009 07:52:05 9.8 C 7.33 g/m*3 9.8 C 0 km/h
1240 22-11-2009 08:04:02 10.2 C 7.52 g/m*3 10.2 C 0 km/h
1241 22-11-2009 08:16:03 11 C 7.41 g/m*3 11 C 0 km/h
1242 22-11-2009 08:28:03 11.5 C 7.44 g/m*3 11.5 C 0 km/h
1243 22-11-2009 08:40:02 12.3 C 7.38 g/m*3 12.3 C 0 km/h
1244 22-11-2009 08:52:02 13.5 C 7.37 g/m*3 13.5 C 0 km/h
1245 22-11-2009 09:04:02 14.1 C 7.16 g/m*3 14.1 C 0 km/h
1246 22-11-2009 09:16:03 14 C 7.24 g/m*3 14 C 0 km/h
1247 22-11-2009 09:28:03 13.9 C 7.31 g/m*3 13.9 C 0 km/h
1248 22-11-2009 09:40:02 13.9 C 7.43 g/m*3 13.9 C 0 km/h
1249 22-11-2009 09:52:03 13.7 C 7.22 g/m*3 13.7 C 0 km/h
1250 22-11-2009 10:04:02 13.6 C 7.18 g/m*3 13.6 C 0 km/h
Sensor: Nr:Datum:Temp:Abs-Feuchte:Windchill:Wind:
Aussen-T/F 1251 22-11-2009 10:16:02 13.7 C 6.87 g/m*3 13.7 C 0 km/h
1252 22-11-2009 10:28:02 14 C 6.51 g/m*3 14 C 0 km/h
1253 22-11-2009 10:40:02 14.1 C 6.19 g/m*3 14.1 C 0 km/h
1254 22-11-2009 10:52:01 14.1 C 6.07 g/m*3 14.1 C 0 km/h
1255 22-11-2009 11:04:02 14 C 6.03 g/m*3 14 C 0 km/h
1256 22-11-2009 11:16:01 13.9 C 6.11 g/m*3 13.9 C 0 km/h
1257 22-11-2009 11:28:01 13.9 C 5.99 g/m*3 13.9 C 0 km/h
1258 22-11-2009 11:40:01 14 C 5.91 g/m*3 14 C 0 km/h
1259 22-11-2009 11:52:01 13.6 C 6 g/m*3 13.6 C 0 km/h
1260 22-11-2009 12:04:02 13.6 C 6 g/m*3 13.6 C 0 km/h
1261 22-11-2009 12:16:01 13.7 C 6.04 g/m*3 13.7 C 0 km/h
1262 22-11-2009 12:28:01 13.8 C 6.08 g/m*3 13.8 C 0 km/h
1263 22-11-2009 12:40:02 13.7 C 6.04 g/m*3 13.7 C 0 km/h
1264 22-11-2009 12:52:01 13.8 C 6.2 g/m*3 13.8 C 0 km/h
1265 22-11-2009 13:04:02 13.7 C 6.04 g/m*3 13.7 C 0 km/h
1266 22-11-2009 13:16:02 13.8 C 6.08 g/m*3 13.8 C 0 km/h
1267 22-11-2009 13:28:02 13.8 C 5.96 g/m*3 13.8 C 0 km/h
1268 22-11-2009 13:40:01 13.8 C 5.96 g/m*3 13.8 C 0 km/h
1269 22-11-2009 13:52:01 14 C 5.79 g/m*3 14 C 0 km/h
1270 22-11-2009 14:04:02 13.9 C 5.75 g/m*3 13.9 C 0 km/h
1271 22-11-2009 14:16:02 14 C 5.67 g/m*3 14 C 0 km/h
1272 22-11-2009 14:28:02 14 C 5.67 g/m*3 14 C 0 km/h
1273 22-11-2009 14:40:01 14.1 C 5.58 g/m*3 14.1 C 0 km/h
1274 22-11-2009 14:52:01 14 C 5.55 g/m*3 14 C 0 km/h
1275 22-11-2009 15:04:01 13.6 C 5.41 g/m*3 13.6 C 0 km/h
Sensor: Nr:Datum:Temp:Abs-Feuchte:Windchill:Wind:
Aussen-T/F 1276 22-11-2009 15:16:02 13.3 C 5.55 g/m*3 13.3 C 0 km/h
1277 22-11-2009 15:28:02 13.3 C 5.55 g/m*3 13.3 C 0 km/h
1278 22-11-2009 15:40:01 13.2 C 5.4 g/m*3 13.2 C 0 km/h
1279 22-11-2009 15:52:02 13 C 5.44 g/m*3 13 C 0 km/h
1280 22-11-2009 16:04:01 12.9 C 5.52 g/m*3 12.9 C 0 km/h
1281 22-11-2009 16:16:02 13 C 5.56 g/m*3 13 C 0 km/h
1282 22-11-2009 16:28:02 12.9 C 5.64 g/m*3 12.9 C 0 km/h
1283 22-11-2009 16:40:01 12.5 C 5.61 g/m*3 12.5 C 0 km/h
1284 22-11-2009 16:52:02 12 C 5.54 g/m*3 12 C 0 km/h
1285 22-11-2009 17:04:02 11.7 C 5.65 g/m*3 11.7 C 0 km/h
1286 22-11-2009 17:16:02 11.6 C 5.72 g/m*3 11.6 C 0 km/h
1287 22-11-2009 17:28:02 11.5 C 5.68 g/m*3 11.5 C 0 km/h
1288 22-11-2009 17:40:02 11.5 C 5.68 g/m*3 11.5 C 0 km/h
1289 22-11-2009 17:52:02 11.6 C 5.72 g/m*3 11.6 C 0 km/h
1290 22-11-2009 18:04:02 11.5 C 5.68 g/m*3 11.5 C 0 km/h
1291 22-11-2009 18:16:02 11.5 C 5.58 g/m*3 11.5 C 0 km/h
1292 22-11-2009 18:28:02 11.8 C 5.58 g/m*3 11.8 C 0 km/h
1293 22-11-2009 18:40:02 11.8 C 5.58 g/m*3 11.8 C 0 km/h
1294 22-11-2009 18:52:01 11.8 C 5.47 g/m*3 11.8 C 0 km/h
1295 22-11-2009 19:04:02 11.8 C 5.37 g/m*3 11.8 C 0 km/h
1296 22-11-2009 19:16:02 12 C 5.44 g/m*3 12 C 0 km/h
1297 22-11-2009 19:28:02 11.8 C 5.47 g/m*3 11.8 C 0 km/h
1298 22-11-2009 19:40:02 12.2 C 5.5 g/m*3 12.2 C 0 km/h
1299 22-11-2009 19:52:02 12.7 C 5.57 g/m*3 12.7 C 0 km/h
1300 22-11-2009 20:04:02 12.4 C 6.12 g/m*3 12.4 C 0 km/h
Sensor: Nr:Datum:Temp:Abs-Feuchte:Windchill:Wind:
Aussen-T/F 1301 22-11-2009 20:16:02 10.8 C 6.92 g/m*3 10.8 C 0 km/h
1302 22-11-2009 20:28:02 10.5 C 6.89 g/m*3 10.5 C 0 km/h
1303 22-11-2009 20:40:01 10.7 C 6.68 g/m*3 10.7 C 0 km/h
1304 22-11-2009 20:52:02 10.7 C 6.58 g/m*3 10.7 C 0 km/h
1305 22-11-2009 21:04:02 10.7 C 6.38 g/m*3 10.7 C 0 km/h
1306 22-11-2009 21:16:02 10.8 C 6.13 g/m*3 10.8 C 0 km/h
1307 22-11-2009 21:28:02 11 C 5.71 g/m*3 11 C 0 km/h
1308 22-11-2009 21:40:01 10.7 C 5.7 g/m*3 10.7 C 0 km/h
1309 22-11-2009 21:52:02 10.9 C 5.77 g/m*3 10.9 C 0 km/h
1310 22-11-2009 22:04:01 10.8 C 5.54 g/m*3 10.8 C 0 km/h
1311 22-11-2009 22:17:02 10.8 C 5.44 g/m*3 10.8 C 0 km/h
1312 22-11-2009 22:29:02 10.6 C 5.27 g/m*3 10.6 C 0 km/h
1313 22-11-2009 22:41:02 10.7 C 5.3 g/m*3 10.7 C 0 km/h
1314 22-11-2009 22:53:02 9.9 C 5.98 g/m*3 9.9 C 0 km/h
1315 22-11-2009 23:05:02 9.8 C 6.03 g/m*3 9.8 C 0 km/h
1316 22-11-2009 23:17:02 10.3 C 5.75 g/m*3 10.3 C 0 km/h
1317 22-11-2009 23:29:02 10.7 C 5.5 g/m*3 10.7 C 0 km/h
1318 22-11-2009 23:41:02 10.4 C 5.49 g/m*3 10.4 C 0 km/h
1319 22-11-2009 23:53:02 10.2 C 5.52 g/m*3 10.2 C 0 km/h
1320 23-11-2009 00:05:02 10.1 C 5.39 g/m*3 10.1 C 0 km/h
1321 23-11-2009 00:17:02 10.3 C 5.36 g/m*3 10.3 C 0 km/h
1322 23-11-2009 00:29:02 10.4 C 5.4 g/m*3 10.4 C 0 km/h
1323 23-11-2009 00:41:02 10.3 C 5.36 g/m*3 10.3 C 0 km/h
1324 23-11-2009 00:53:02 10.5 C 5.53 g/m*3 10.5 C 0 km/h
1325 23-11-2009 01:05:03 8.9 C 6.48 g/m*3 8.9 C 0 km/h
Sensor: Nr:Datum:Temp:Abs-Feuchte:Windchill:Wind:
Aussen-T/F 1326 23-11-2009 01:17:03 8.3 C 6.66 g/m*3 8.3 C 0 km/h
1327 23-11-2009 01:29:03 8.4 C 6.62 g/m*3 8.4 C 0 km/h
1328 23-11-2009 01:41:03 9.1 C 6.39 g/m*3 9.1 C 0 km/h
1329 23-11-2009 01:53:03 9.1 C 6.21 g/m*3 9.1 C 0 km/h
1330 23-11-2009 02:05:03 9 C 6.17 g/m*3 9 C 0 km/h
1331 23-11-2009 02:17:03 9.1 C 6.21 g/m*3 9.1 C 0 km/h
1332 23-11-2009 02:29:03 8.5 C 6.4 g/m*3 8.5 C 0 km/h
1333 23-11-2009 02:41:03 8.2 C 6.28 g/m*3 8.2 C 0 km/h
1334 23-11-2009 02:53:03 8.3 C 6.15 g/m*3 8.3 C 0 km/h
1335 23-11-2009 03:05:03 8.5 C 6.06 g/m*3 8.5 C 0 km/h
1336 23-11-2009 03:17:03 8.6 C 6.1 g/m*3 8.6 C 0 km/h
1337 23-11-2009 03:29:03 8.5 C 6.06 g/m*3 8.5 C 0 km/h
1338 23-11-2009 03:41:03 8.5 C 6.15 g/m*3 8.5 C 0 km/h
1339 23-11-2009 03:53:03 8.5 C 5.98 g/m*3 8.5 C 0 km/h
1340 23-11-2009 04:05:03 8.6 C 5.76 g/m*3 8.6 C 0 km/h
1341 23-11-2009 04:17:03 8.7 C 5.79 g/m*3 8.7 C 0 km/h
1342 23-11-2009 04:29:03 8.7 C 5.88 g/m*3 8.7 C 0 km/h
1343 23-11-2009 04:41:03 8.6 C 5.93 g/m*3 8.6 C 0 km/h
1344 23-11-2009 04:53:03 8.9 C 5.87 g/m*3 8.9 C 0 km/h
1345 23-11-2009 05:05:04 8.9 C 5.87 g/m*3 8.9 C 0 km/h
1346 23-11-2009 05:17:04 8.6 C 5.93 g/m*3 8.6 C 0 km/h
1347 23-11-2009 05:29:04 8.8 C 5.92 g/m*3 8.8 C 0 km/h
1348 23-11-2009 05:41:04 8.8 C 5.92 g/m*3 8.8 C 0 km/h
1349 23-11-2009 05:53:04 8.7 C 6.05 g/m*3 8.7 C 0 km/h
1350 23-11-2009 06:05:04 8.9 C 6.04 g/m*3 8.9 C 0 km/h
Sensor: Nr:Datum:Temp:Abs-Feuchte:Windchill:Wind:
Aussen-T/F 1351 23-11-2009 06:17:04 8.9 C 5.96 g/m*3 8.9 C 0 km/h
1352 23-11-2009 06:29:04 9.1 C 5.86 g/m*3 9.1 C 0 km/h
1353 23-11-2009 06:41:04 9.1 C 5.86 g/m*3 9.1 C 0 km/h
1354 23-11-2009 06:53:04 9.2 C 5.8 g/m*3 9.2 C 0 km/h
1355 23-11-2009 07:05:02 9 C 5.99 g/m*3 9 C 0 km/h
1356 23-11-2009 07:17:01 8.8 C 6.18 g/m*3 8.8 C 0 km/h
1357 23-11-2009 07:29:01 8.8 C 6.18 g/m*3 8.8 C 0 km/h
1358 23-11-2009 07:41:01 8.9 C 6.22 g/m*3 8.9 C 0 km/h
1359 23-11-2009 07:53:01 9.2 C 6.16 g/m*3 9.2 C 0 km/h
1360 23-11-2009 08:05:02 9.1 C 6.21 g/m*3 9.1 C 0 km/h
1361 23-11-2009 08:17:01 9.3 C 6.11 g/m*3 9.3 C 0 km/h
1362 23-11-2009 08:29:01 9.5 C 6.01 g/m*3 9.5 C 0 km/h
1363 23-11-2009 08:41:01 9.6 C 5.95 g/m*3 9.6 C 0 km/h
1364 23-11-2009 08:53:01 9.9 C 5.98 g/m*3 9.9 C 0 km/h
1365 23-11-2009 09:05:02 9.7 C 6.08 g/m*3 9.7 C 0 km/h
1366 23-11-2009 09:17:02 9.8 C 6.22 g/m*3 9.8 C 0 km/h
1367 23-11-2009 09:29:02 9.8 C 6.31 g/m*3 9.8 C 0 km/h
1368 23-11-2009 09:41:01 10.1 C 6.15 g/m*3 10.1 C 0 km/h
1369 23-11-2009 09:53:01 10.3 C 6.13 g/m*3 10.3 C 0 km/h
1370 23-11-2009 10:05:02 10.5 C 6.11 g/m*3 10.5 C 0 km/h
1371 23-11-2009 10:17:01 10.5 C 6.11 g/m*3 10.5 C 0 km/h
1372 23-11-2009 10:29:01 10.5 C 6.01 g/m*3 10.5 C 0 km/h
1373 23-11-2009 10:41:02 10.4 C 6.26 g/m*3 10.4 C 0 km/h
1374 23-11-2009 10:53:02 10.1 C 6.43 g/m*3 10.1 C 0 km/h
1375 23-11-2009 11:05:02 10.5 C 6.5 g/m*3 10.5 C 0 km/h
Sensor: Nr:Datum:Temp:Abs-Feuchte:Windchill:Wind:
Aussen-T/F 1376 23-11-2009 11:17:01 10.7 C 6.48 g/m*3 10.7 C 0 km/h
1377 23-11-2009 11:29:01 10.9 C 6.47 g/m*3 10.9 C 0 km/h
1378 23-11-2009 11:41:02 11 C 6.51 g/m*3 11 C 0 km/h
1379 23-11-2009 11:53:02 11 C 6.51 g/m*3 11 C 0 km/h
1380 23-11-2009 12:05:02 11.1 C 6.65 g/m*3 11.1 C 0 km/h
1381 23-11-2009 12:17:01 11.3 C 6.73 g/m*3 11.3 C 0 km/h
1382 23-11-2009 12:29:01 11.2 C 6.69 g/m*3 11.2 C 0 km/h
1383 23-11-2009 12:41:02 11.3 C 6.73 g/m*3 11.3 C 0 km/h
1384 23-11-2009 12:53:02 11.2 C 6.89 g/m*3 11.2 C 0 km/h
1385 23-11-2009 13:05:02 10.8 C 7.12 g/m*3 10.8 C 0 km/h
1386 23-11-2009 13:17:02 10.4 C 7.42 g/m*3 10.4 C 0 km/h
1387 23-11-2009 13:29:02 10.4 C 7.61 g/m*3 10.4 C 0 km/h
1388 23-11-2009 13:41:02 10.6 C 7.52 g/m*3 10.6 C 0 km/h
1389 23-11-2009 13:53:01 10.7 C 7.56 g/m*3 10.7 C 0 km/h
1390 23-11-2009 14:05:02 10.7 C 7.76 g/m*3 10.7 C 0 km/h
1391 23-11-2009 14:17:02 11 C 7.71 g/m*3 11 C 0 km/h
1392 23-11-2009 14:29:02 11.1 C 7.76 g/m*3 11.1 C 0 km/h
1393 23-11-2009 14:41:02 11.3 C 7.75 g/m*3 11.3 C 0 km/h
1394 23-11-2009 14:53:02 11.5 C 7.85 g/m*3 11.5 C 0 km/h
1395 23-11-2009 15:05:02 11.5 C 7.85 g/m*3 11.5 C 0 km/h
1396 23-11-2009 15:17:02 11.4 C 8.01 g/m*3 11.4 C 0 km/h
1397 23-11-2009 15:29:03 11.5 C 8.06 g/m*3 11.5 C 0 km/h
1398 23-11-2009 15:41:01 11.1 C 7.96 g/m*3 11.1 C 0 km/h
1399 23-11-2009 15:53:02 11.1 C 8.16 g/m*3 11.1 C 0 km/h
1400 23-11-2009 16:05:01 11.2 C 8.11 g/m*3 11.2 C 0 km/h
Sensor: Nr:Datum:Temp:Abs-Feuchte:Windchill:Wind:
Aussen-T/F 1401 23-11-2009 16:17:02 11.3 C 8.06 g/m*3 11.3 C 0 km/h
1402 23-11-2009 16:29:02 11.1 C 8.06 g/m*3 11.1 C 0 km/h
1403 23-11-2009 16:41:02 11.2 C 8.11 g/m*3 11.2 C 0 km/h
1404 23-11-2009 16:53:02 11.2 C 8.11 g/m*3 11.2 C 0 km/h
1405 23-11-2009 17:05:02 11.1 C 8.16 g/m*3 11.1 C 0 km/h
1406 23-11-2009 17:17:02 11 C 8.21 g/m*3 11 C 0 km/h
1407 23-11-2009 17:29:02 10.8 C 8.2 g/m*3 10.8 C 0 km/h
1408 23-11-2009 17:41:03 10.9 C 8.26 g/m*3 10.9 C 0 km/h
1409 23-11-2009 17:53:02 11.1 C 8.16 g/m*3 11.1 C 0 km/h
1410 23-11-2009 18:05:02 11.5 C 8.16 g/m*3 11.5 C 0 km/h
1411 23-11-2009 18:17:01 11.6 C 8 g/m*3 11.6 C 0 km/h
1412 23-11-2009 18:29:01 11.7 C 7.84 g/m*3 11.7 C 0 km/h
1413 23-11-2009 18:41:02 11.8 C 7.79 g/m*3 11.8 C 0 km/h
1414 23-11-2009 18:53:02 11.9 C 7.73 g/m*3 11.9 C 0 km/h
1415 23-11-2009 19:05:02 11.7 C 7.84 g/m*3 11.7 C 0 km/h
1416 23-11-2009 19:17:02 11.7 C 7.84 g/m*3 11.7 C 0 km/h
1417 23-11-2009 19:29:02 11.8 C 7.89 g/m*3 11.8 C 0 km/h
1418 23-11-2009 19:41:02 11.7 C 7.74 g/m*3 11.7 C 0 km/h
1419 23-11-2009 19:53:02 11.7 C 7.84 g/m*3 11.7 C 0 km/h
1420 23-11-2009 20:05:02 11.9 C 7.84 g/m*3 11.9 C 0 km/h
1421 23-11-2009 20:17:02 11.8 C 7.89 g/m*3 11.8 C 0 km/h
1422 23-11-2009 20:29:02 11.9 C 7.94 g/m*3 11.9 C 0 km/h
1423 23-11-2009 20:41:02 11.6 C 8 g/m*3 11.6 C 0 km/h
1424 23-11-2009 20:53:01 11.5 C 8.06 g/m*3 11.5 C 0 km/h
1425 23-11-2009 21:05:02 11.4 C 8.21 g/m*3 11.4 C 0 km/h
Sensor: Nr:Datum:Temp:Abs-Feuchte:Windchill:Wind:
Aussen-T/F 1426 23-11-2009 21:17:01 11.4 C 8.31 g/m*3 11.4 C 0 km/h
1427 23-11-2009 21:29:01 11.4 C 8.42 g/m*3 11.4 C 0 km/h
1428 23-11-2009 21:41:02 11.5 C 8.37 g/m*3 11.5 C 0 km/h
1429 23-11-2009 21:53:02 11.5 C 8.26 g/m*3 11.5 C 0 km/h
1430 23-11-2009 22:06:04 11.8 C 8.1 g/m*3 11.8 C 0 km/h
1431 23-11-2009 22:18:04 12 C 7.99 g/m*3 12 C 0 km/h
1432 23-11-2009 22:30:04 12.2 C 7.99 g/m*3 12.2 C 0 km/h
1433 23-11-2009 22:42:04 12.1 C 8.04 g/m*3 12.1 C 0 km/h
1434 23-11-2009 22:54:04 11.8 C 8.1 g/m*3 11.8 C 0 km/h
1435 23-11-2009 23:06:04 11.2 C 8.31 g/m*3 11.2 C 0 km/h
1436 23-11-2009 23:18:04 10.6 C 8.1 g/m*3 10.6 C 0 km/h
1437 23-11-2009 23:30:04 10.3 C 7.95 g/m*3 10.3 C 0 km/h
1438 23-11-2009 23:42:04 10.5 C 7.66 g/m*3 10.5 C 0 km/h
1439 23-11-2009 23:54:04 11 C 7.01 g/m*3 11 C 0 km/h
1440 24-11-2009 00:06:04 11.1 C 6.45 g/m*3 11.1 C 0 km/h
1441 24-11-2009 00:18:04 10.8 C 6.52 g/m*3 10.8 C 0 km/h
1442 24-11-2009 00:30:04 11 C 6.31 g/m*3 11 C 0 km/h
1443 24-11-2009 00:42:04 11.3 C 6.12 g/m*3 11.3 C 0 km/h
1444 24-11-2009 00:54:04 11.5 C 6.2 g/m*3 11.5 C 0 km/h
1445 24-11-2009 01:06:04 11.2 C 6.28 g/m*3 11.2 C 0 km/h
1446 24-11-2009 01:18:04 11.1 C 6.25 g/m*3 11.1 C 0 km/h
1447 24-11-2009 01:30:05 11 C 6.41 g/m*3 11 C 0 km/h
1448 24-11-2009 01:42:05 11.1 C 6.55 g/m*3 11.1 C 0 km/h
1449 24-11-2009 01:54:05 11.1 C 6.45 g/m*3 11.1 C 0 km/h
1450 24-11-2009 02:06:05 11.2 C 6.28 g/m*3 11.2 C 0 km/h
Sensor: Nr:Datum:Temp:Abs-Feuchte:Windchill:Wind:
Aussen-T/F 1451 24-11-2009 02:18:05 11.2 C 6.28 g/m*3 11.2 C 0 km/h
1452 24-11-2009 02:30:05 11 C 6.21 g/m*3 11 C 0 km/h
1453 24-11-2009 02:42:05 11 C 6.11 g/m*3 11 C 0 km/h
1454 24-11-2009 02:54:05 11 C 6.11 g/m*3 11 C 0 km/h
1455 24-11-2009 03:06:05 10.9 C 6.17 g/m*3 10.9 C 0 km/h
1456 24-11-2009 03:18:05 10.8 C 6.23 g/m*3 10.8 C 0 km/h
1457 24-11-2009 03:30:05 10.7 C 6.29 g/m*3 10.7 C 0 km/h
1458 24-11-2009 03:42:05 10.7 C 6.19 g/m*3 10.7 C 0 km/h
1459 24-11-2009 03:54:05 10.7 C 6.19 g/m*3 10.7 C 0 km/h
1460 24-11-2009 04:06:05 10.7 C 6.29 g/m*3 10.7 C 0 km/h
1461 24-11-2009 04:18:05 10.6 C 6.25 g/m*3 10.6 C 0 km/h
1462 24-11-2009 04:30:05 10.5 C 6.3 g/m*3 10.5 C 0 km/h
1463 24-11-2009 04:42:05 10.5 C 6.3 g/m*3 10.5 C 0 km/h
1464 24-11-2009 04:54:05 10.4 C 6.36 g/m*3 10.4 C 0 km/h
1465 24-11-2009 05:06:05 10.5 C 6.4 g/m*3 10.5 C 0 km/h
1466 24-11-2009 05:18:05 10.5 C 6.4 g/m*3 10.5 C 0 km/h
1467 24-11-2009 05:30:06 10.6 C 6.34 g/m*3 10.6 C 0 km/h
1468 24-11-2009 05:42:06 10.6 C 6.44 g/m*3 10.6 C 0 km/h
1469 24-11-2009 05:54:06 10.4 C 6.46 g/m*3 10.4 C 0 km/h
1470 24-11-2009 06:06:06 10.5 C 6.5 g/m*3 10.5 C 0 km/h
1471 24-11-2009 06:18:06 10.4 C 6.55 g/m*3 10.4 C 0 km/h
1472 24-11-2009 06:30:06 10.4 C 6.55 g/m*3 10.4 C 0 km/h
1473 24-11-2009 06:42:06 10.4 C 6.55 g/m*3 10.4 C 0 km/h
1474 24-11-2009 06:54:02 10.3 C 6.51 g/m*3 10.3 C 0 km/h
1475 24-11-2009 07:06:02 10.5 C 6.5 g/m*3 10.5 C 0 km/h
Sensor: Nr:Datum:Temp:Abs-Feuchte:Windchill:Wind:
Aussen-T/F 1476 24-11-2009 07:18:02 10.5 C 6.4 g/m*3 10.5 C 0 km/h
1477 24-11-2009 07:30:02 10.3 C 6.32 g/m*3 10.3 C 0 km/h
1478 24-11-2009 07:42:02 9.9 C 6.35 g/m*3 9.9 C 0 km/h
1479 24-11-2009 07:54:02 9.8 C 6.31 g/m*3 9.8 C 0 km/h
1480 24-11-2009 08:06:01 9.7 C 6.36 g/m*3 9.7 C 0 km/h
1481 24-11-2009 08:18:02 9.5 C 6.28 g/m*3 9.5 C 0 km/h
1482 24-11-2009 08:30:02 9.5 C 6.37 g/m*3 9.5 C 0 km/h
1483 24-11-2009 08:42:02 9.4 C 6.33 g/m*3 9.4 C 0 km/h
1484 24-11-2009 08:54:02 9.4 C 6.42 g/m*3 9.4 C 0 km/h
1485 24-11-2009 09:06:03 9.8 C 6.49 g/m*3 9.8 C 0 km/h
1486 24-11-2009 09:18:02 10 C 6.39 g/m*3 10 C 0 km/h
1487 24-11-2009 09:30:02 10 C 6.48 g/m*3 10 C 0 km/h
1488 24-11-2009 09:42:02 10.1 C 6.62 g/m*3 10.1 C 0 km/h
1489 24-11-2009 09:54:01 10.2 C 6.66 g/m*3 10.2 C 0 km/h
1490 24-11-2009 10:06:01 10.4 C 6.84 g/m*3 10.4 C 0 km/h
1491 24-11-2009 10:18:01 10.5 C 6.98 g/m*3 10.5 C 0 km/h
1492 24-11-2009 10:30:01 10.3 C 6.99 g/m*3 10.3 C 0 km/h
1493 24-11-2009 10:42:02 10.3 C 7.37 g/m*3 10.3 C 0 km/h
1494 24-11-2009 10:54:02 10.6 C 7.61 g/m*3 10.6 C 0 km/h
1495 24-11-2009 11:06:02 11 C 7.71 g/m*3 11 C 0 km/h
1496 24-11-2009 11:18:02 11.1 C 7.76 g/m*3 11.1 C 0 km/h
1497 24-11-2009 11:30:02 11.4 C 7.9 g/m*3 11.4 C 0 km/h
1498 24-11-2009 11:42:02 11.5 C 8.06 g/m*3 11.5 C 0 km/h
1499 24-11-2009 11:54:01 11.4 C 8.21 g/m*3 11.4 C 0 km/h
1500 24-11-2009 12:06:02 11.5 C 8.37 g/m*3 11.5 C 0 km/h
Sensor: Nr:Datum:Temp:Abs-Feuchte:Windchill:Wind:
Aussen-T/F 1501 24-11-2009 12:18:01 11.7 C 8.58 g/m*3 11.7 C 0 km/h
1502 24-11-2009 12:30:01 11.9 C 8.79 g/m*3 11.9 C 0 km/h
1503 24-11-2009 12:42:02 12.2 C 8.96 g/m*3 12.2 C 0 km/h
1504 24-11-2009 12:54:02 12.3 C 9.01 g/m*3 12.3 C 0 km/h
1505 24-11-2009 13:06:02 12.5 C 9.24 g/m*3 12.5 C 0 km/h
1506 24-11-2009 13:18:01 12.8 C 9.3 g/m*3 12.8 C 0 km/h
1507 24-11-2009 13:30:01 13.3 C 9.24 g/m*3 13.3 C 0 km/h
1508 24-11-2009 13:42:02 13.3 C 9.24 g/m*3 13.3 C 0 km/h
1509 24-11-2009 13:54:02 13.7 C 9.35 g/m*3 13.7 C 0 km/h
1510 24-11-2009 14:06:02 13.9 C 9.23 g/m*3 13.9 C 0 km/h
1511 24-11-2009 14:18:01 14.1 C 8.86 g/m*3 14.1 C 0 km/h
1512 24-11-2009 14:30:01 14.2 C 8.43 g/m*3 14.2 C 0 km/h
1513 24-11-2009 14:42:02 14.4 C 8.03 g/m*3 14.4 C 0 km/h
1514 24-11-2009 14:54:02 14.4 C 7.91 g/m*3 14.4 C 0 km/h
1515 24-11-2009 15:06:02 14.2 C 8.06 g/m*3 14.2 C 0 km/h
1516 24-11-2009 15:18:02 13.9 C 8.39 g/m*3 13.9 C 0 km/h
1517 24-11-2009 15:30:02 13.7 C 8.41 g/m*3 13.7 C 0 km/h
1518 24-11-2009 15:42:02 13.6 C 8.47 g/m*3 13.6 C 0 km/h
1519 24-11-2009 15:54:02 13.5 C 8.54 g/m*3 13.5 C 0 km/h
1520 24-11-2009 16:06:02 13.5 C 8.42 g/m*3 13.5 C 0 km/h
1521 24-11-2009 16:18:02 13.4 C 8.25 g/m*3 13.4 C 0 km/h
1522 24-11-2009 16:30:02 13.3 C 8.2 g/m*3 13.3 C 0 km/h
1523 24-11-2009 16:42:02 13.3 C 8.2 g/m*3 13.3 C 0 km/h
1524 24-11-2009 16:54:01 13.2 C 8.15 g/m*3 13.2 C 0 km/h
1525 24-11-2009 17:06:02 13.4 C 8.25 g/m*3 13.4 C 0 km/h
Sensor: Nr:Datum:Temp:Abs-Feuchte:Windchill:Wind:
Aussen-T/F 1526 24-11-2009 17:18:02 13.2 C 8.15 g/m*3 13.2 C 0 km/h
1527 24-11-2009 17:30:02 13.3 C 8.2 g/m*3 13.3 C 0 km/h
1528 24-11-2009 17:42:02 13.2 C 8.15 g/m*3 13.2 C 0 km/h
1529 24-11-2009 17:54:02 13.2 C 8.27 g/m*3 13.2 C 0 km/h
1530 24-11-2009 18:06:02 13.1 C 8.22 g/m*3 13.1 C 0 km/h
1531 24-11-2009 18:18:02 13.1 C 8.33 g/m*3 13.1 C 0 km/h
1532 24-11-2009 18:30:03 13.1 C 8.33 g/m*3 13.1 C 0 km/h
1533 24-11-2009 18:42:01 13 C 8.28 g/m*3 13 C 0 km/h
1534 24-11-2009 18:54:02 13 C 8.28 g/m*3 13 C 0 km/h
1535 24-11-2009 19:06:01 13.1 C 8.22 g/m*3 13.1 C 0 km/h
1536 24-11-2009 19:18:02 13.1 C 8.1 g/m*3 13.1 C 0 km/h
1537 24-11-2009 19:30:02 13 C 8.05 g/m*3 13 C 0 km/h
1538 24-11-2009 19:42:02 13 C 8.05 g/m*3 13 C 0 km/h
1539 24-11-2009 19:54:02 13 C 7.94 g/m*3 13 C 0 km/h
1540 24-11-2009 20:06:02 13 C 7.94 g/m*3 13 C 0 km/h
1541 24-11-2009 20:18:02 13.1 C 7.87 g/m*3 13.1 C 0 km/h
1542 24-11-2009 20:30:02 13.1 C 7.87 g/m*3 13.1 C 0 km/h
1543 24-11-2009 20:42:02 13.1 C 7.76 g/m*3 13.1 C 0 km/h
1544 24-11-2009 20:54:02 13.2 C 7.81 g/m*3 13.2 C 0 km/h
1545 24-11-2009 21:06:01 13.3 C 7.74 g/m*3 13.3 C 0 km/h
1546 24-11-2009 21:18:02 13.4 C 7.67 g/m*3 13.4 C 0 km/h
1547 24-11-2009 21:30:02 13.3 C 7.63 g/m*3 13.3 C 0 km/h
1548 24-11-2009 21:42:01 13.3 C 7.63 g/m*3 13.3 C 0 km/h
1549 24-11-2009 21:54:02 13.1 C 7.53 g/m*3 13.1 C 0 km/h
1550 24-11-2009 22:06:01 13.3 C 7.51 g/m*3 13.3 C 0 km/h
Sensor: Nr:Datum:Temp:Abs-Feuchte:Windchill:Wind:
Aussen-T/F 1551 24-11-2009 22:18:02 13.3 C 7.39 g/m*3 13.3 C 0 km/h
1552 24-11-2009 22:30:02 13.4 C 7.32 g/m*3 13.4 C 0 km/h
1553 24-11-2009 22:42:01 13.3 C 7.28 g/m*3 13.3 C 0 km/h
1554 24-11-2009 22:55:03 13.3 C 7.28 g/m*3 13.3 C 0 km/h
1555 24-11-2009 23:07:03 13.2 C 7.12 g/m*3 13.2 C 0 km/h
1556 24-11-2009 23:19:03 13.2 C 7 g/m*3 13.2 C 0 km/h
1557 24-11-2009 23:31:03 13.2 C 6.89 g/m*3 13.2 C 0 km/h
1558 24-11-2009 23:43:03 13.2 C 6.77 g/m*3 13.2 C 0 km/h
1559 24-11-2009 23:55:03 13.1 C 6.62 g/m*3 13.1 C 0 km/h
1560 25-11-2009 00:07:03 13.2 C 6.54 g/m*3 13.2 C 0 km/h
1561 25-11-2009 00:19:03 13.2 C 6.54 g/m*3 13.2 C 0 km/h
1562 25-11-2009 00:31:03 13.2 C 6.54 g/m*3 13.2 C 0 km/h
1563 25-11-2009 00:43:03 13.2 C 6.54 g/m*3 13.2 C 0 km/h
1564 25-11-2009 00:55:03 13.1 C 6.5 g/m*3 13.1 C 0 km/h
1565 25-11-2009 01:07:03 13.1 C 6.62 g/m*3 13.1 C 0 km/h
1566 25-11-2009 01:19:03 13.1 C 6.73 g/m*3 13.1 C 0 km/h
1567 25-11-2009 01:31:03 12.9 C 6.88 g/m*3 12.9 C 0 km/h
1568 25-11-2009 01:43:04 13 C 6.8 g/m*3 13 C 0 km/h
1569 25-11-2009 01:55:04 13.1 C 6.85 g/m*3 13.1 C 0 km/h
1570 25-11-2009 02:07:04 13 C 7.03 g/m*3 13 C 0 km/h
1571 25-11-2009 02:19:04 12.9 C 7.1 g/m*3 12.9 C 0 km/h
1572 25-11-2009 02:31:04 12.8 C 7.06 g/m*3 12.8 C 0 km/h
1573 25-11-2009 02:43:04 12.9 C 6.99 g/m*3 12.9 C 0 km/h
1574 25-11-2009 02:55:04 12.9 C 6.76 g/m*3 12.9 C 0 km/h
1575 25-11-2009 03:07:04 12.9 C 6.76 g/m*3 12.9 C 0 km/h
Sensor: Nr:Datum:Temp:Abs-Feuchte:Windchill:Wind:
Aussen-T/F 1576 25-11-2009 03:19:04 13 C 6.58 g/m*3 13 C 0 km/h
1577 25-11-2009 03:31:04 13 C 6.46 g/m*3 13 C 0 km/h
1578 25-11-2009 03:43:04 13.1 C 6.5 g/m*3 13.1 C 0 km/h
1579 25-11-2009 03:55:04 13.1 C 6.5 g/m*3 13.1 C 0 km/h
1580 25-11-2009 04:07:04 13 C 6.46 g/m*3 13 C 0 km/h
1581 25-11-2009 04:19:04 12.9 C 6.42 g/m*3 12.9 C 0 km/h
1582 25-11-2009 04:31:04 13 C 6.24 g/m*3 13 C 0 km/h
1583 25-11-2009 04:43:04 12.8 C 6.38 g/m*3 12.8 C 0 km/h
1584 25-11-2009 04:55:04 12.7 C 6.35 g/m*3 12.7 C 0 km/h
1585 25-11-2009 05:07:04 12.7 C 6.35 g/m*3 12.7 C 0 km/h
1586 25-11-2009 05:19:04 12.6 C 6.31 g/m*3 12.6 C 0 km/h
1587 25-11-2009 05:31:04 12.4 C 6.23 g/m*3 12.4 C 0 km/h
1588 25-11-2009 05:43:05 12.2 C 6.26 g/m*3 12.2 C 0 km/h
1589 25-11-2009 05:55:05 12.1 C 6.33 g/m*3 12.1 C 0 km/h
1590 25-11-2009 06:07:05 11.9 C 6.35 g/m*3 11.9 C 0 km/h
1591 25-11-2009 06:19:05 11.7 C 6.38 g/m*3 11.7 C 0 km/h
1592 25-11-2009 06:31:05 11.5 C 6.3 g/m*3 11.5 C 0 km/h
1593 25-11-2009 06:43:05 11.4 C 6.36 g/m*3 11.4 C 0 km/h
1594 25-11-2009 06:55:05 11.2 C 6.28 g/m*3 11.2 C 0 km/h
1595 25-11-2009 07:07:02 11.2 C 6.28 g/m*3 11.2 C 0 km/h
1596 25-11-2009 07:19:03 11.2 C 6.28 g/m*3 11.2 C 0 km/h
1597 25-11-2009 07:31:02 10.7 C 6.29 g/m*3 10.7 C 0 km/h
1598 25-11-2009 07:43:02 10.1 C 6.24 g/m*3 10.1 C 0 km/h
1599 25-11-2009 07:55:02 10 C 6.3 g/m*3 10 C 0 km/h
1600 25-11-2009 08:07:01 9.8 C 6.31 g/m*3 9.8 C 0 km/h
Sensor: Nr:Datum:Temp:Abs-Feuchte:Windchill:Wind:
Aussen-T/F 1601 25-11-2009 08:19:02 9.5 C 6.28 g/m*3 9.5 C 0 km/h
1602 25-11-2009 08:31:01 9.5 C 6.28 g/m*3 9.5 C 0 km/h
1603 25-11-2009 08:43:01 9.4 C 6.33 g/m*3 9.4 C 0 km/h
1604 25-11-2009 08:55:02 9.3 C 6.29 g/m*3 9.3 C 0 km/h
1605 25-11-2009 09:07:02 9.5 C 6.46 g/m*3 9.5 C 0 km/h
1606 25-11-2009 09:19:02 9.4 C 6.33 g/m*3 9.4 C 0 km/h
1607 25-11-2009 09:31:02 9.4 C 6.42 g/m*3 9.4 C 0 km/h
1608 25-11-2009 09:43:02 9.5 C 6.37 g/m*3 9.5 C 0 km/h
1609 25-11-2009 09:55:02 10.2 C 6.28 g/m*3 10.2 C 0 km/h
1610 25-11-2009 10:07:02 10.6 C 6.34 g/m*3 10.6 C 0 km/h
1611 25-11-2009 10:19:02 11.2 C 6.18 g/m*3 11.2 C 0 km/h
1612 25-11-2009 10:31:01 11.5 C 6.2 g/m*3 11.5 C 0 km/h
1613 25-11-2009 10:43:01 11.2 C 6.08 g/m*3 11.2 C 0 km/h
1614 25-11-2009 10:55:02 11.2 C 6.18 g/m*3 11.2 C 0 km/h
1615 25-11-2009 11:07:01 11.5 C 6.2 g/m*3 11.5 C 0 km/h
1616 25-11-2009 11:19:01 11.8 C 6.31 g/m*3 11.8 C 0 km/h
1617 25-11-2009 11:31:02 12.3 C 6.08 g/m*3 12.3 C 0 km/h
1618 25-11-2009 11:43:02 12.5 C 6.05 g/m*3 12.5 C 0 km/h
1619 25-11-2009 11:55:02 12.6 C 5.97 g/m*3 12.6 C 0 km/h
1620 25-11-2009 12:07:02 13.1 C 5.71 g/m*3 13.1 C 0 km/h
1621 25-11-2009 12:19:02 13.7 C 5.68 g/m*3 13.7 C 0 km/h
1622 25-11-2009 12:31:02 13.9 C 5.51 g/m*3 13.9 C 0 km/h
1623 25-11-2009 12:43:02 14.1 C 5.22 g/m*3 14.1 C 0 km/h
1624 25-11-2009 12:55:02 14.1 C 5.22 g/m*3 14.1 C 0 km/h
1625 25-11-2009 13:07:02 14.4 C 5.07 g/m*3 14.4 C 0 km/h
Sensor: Nr:Datum:Temp:Abs-Feuchte:Windchill:Wind:
Aussen-T/F 1626 25-11-2009 13:19:01 15 C 5 g/m*3 15 C 0 km/h
1627 25-11-2009 13:31:02 15 C 5 g/m*3 15 C 0 km/h
1628 25-11-2009 13:43:02 15 C 4.74 g/m*3 15 C 0 km/h
1629 25-11-2009 13:55:02 15.2 C 4.67 g/m*3 15.2 C 0 km/h
1630 25-11-2009 14:07:02 15.2 C 4.67 g/m*3 15.2 C 0 km/h
1631 25-11-2009 14:19:01 15.1 C 4.52 g/m*3 15.1 C 0 km/h
1632 25-11-2009 14:31:02 15.2 C 4.67 g/m*3 15.2 C 0 km/h
1633 25-11-2009 14:43:02 15.2 C 4.67 g/m*3 15.2 C 0 km/h
1634 25-11-2009 14:55:02 15.1 C 4.77 g/m*3 15.1 C 0 km/h
1635 25-11-2009 15:07:02 14.8 C 4.94 g/m*3 14.8 C 0 km/h
1636 25-11-2009 15:19:02 14.7 C 4.78 g/m*3 14.7 C 0 km/h
1637 25-11-2009 15:31:02 14.5 C 4.85 g/m*3 14.5 C 0 km/h
1638 25-11-2009 15:43:02 14.4 C 4.94 g/m*3 14.4 C 0 km/h
1639 25-11-2009 15:55:02 14.3 C 4.91 g/m*3 14.3 C 0 km/h
1640 25-11-2009 16:07:02 14.2 C 4.88 g/m*3 14.2 C 0 km/h
1641 25-11-2009 16:19:03 14.1 C 4.85 g/m*3 14.1 C 0 km/h
1642 25-11-2009 16:31:02 14 C 4.95 g/m*3 14 C 0 km/h
1643 25-11-2009 16:43:02 14 C 4.95 g/m*3 14 C 0 km/h
1644 25-11-2009 16:55:02 13.8 C 5 g/m*3 13.8 C 0 km/h
1645 25-11-2009 17:07:02 13.6 C 5.18 g/m*3 13.6 C 0 km/h
1646 25-11-2009 17:19:02 13.4 C 5.23 g/m*3 13.4 C 0 km/h
1647 25-11-2009 17:31:02 13.4 C 5.23 g/m*3 13.4 C 0 km/h
1648 25-11-2009 17:43:02 13.4 C 5.35 g/m*3 13.4 C 0 km/h
1649 25-11-2009 17:55:02 13 C 5.78 g/m*3 13 C 0 km/h
1650 25-11-2009 18:07:02 12.8 C 6.05 g/m*3 12.8 C 0 km/h
Sensor: Nr:Datum:Temp:Abs-Feuchte:Windchill:Wind:
Aussen-T/F 1651 25-11-2009 18:19:02 12.4 C 6.45 g/m*3 12.4 C 0 km/h
1652 25-11-2009 18:31:02 12 C 6.61 g/m*3 12 C 0 km/h
1653 25-11-2009 18:43:02 11.3 C 7.04 g/m*3 11.3 C 0 km/h
1654 25-11-2009 18:55:02 10.6 C 7.42 g/m*3 10.6 C 0 km/h
1655 25-11-2009 19:07:01 10.3 C 7.57 g/m*3 10.3 C 0 km/h
1656 25-11-2009 19:19:02 10.2 C 7.71 g/m*3 10.2 C 0 km/h
1657 25-11-2009 19:31:01 10.1 C 7.75 g/m*3 10.1 C 0 km/h
1658 25-11-2009 19:43:01 10 C 7.8 g/m*3 10 C 0 km/h
1659 25-11-2009 19:55:02 9.9 C 7.84 g/m*3 9.9 C 0 km/h
1660 25-11-2009 20:07:01 9.9 C 7.84 g/m*3 9.9 C 0 km/h
1661 25-11-2009 20:19:01 10 C 7.71 g/m*3 10 C 0 km/h
1662 25-11-2009 20:31:02 10.4 C 7.61 g/m*3 10.4 C 0 km/h
1663 25-11-2009 20:43:02 10.4 C 7.42 g/m*3 10.4 C 0 km/h
1664 25-11-2009 20:55:02 10.3 C 7.37 g/m*3 10.3 C 0 km/h
1665 25-11-2009 21:07:02 10.2 C 7.33 g/m*3 10.2 C 0 km/h
1666 25-11-2009 21:19:02 10.1 C 7.38 g/m*3 10.1 C 0 km/h
1667 25-11-2009 21:31:02 10.2 C 7.33 g/m*3 10.2 C 0 km/h
1668 25-11-2009 21:43:03 10.3 C 7.09 g/m*3 10.3 C 0 km/h
1669 25-11-2009 21:55:01 10.3 C 6.99 g/m*3 10.3 C 0 km/h
1670 25-11-2009 22:08:02 10.2 C 6.95 g/m*3 10.2 C 0 km/h
1671 25-11-2009 22:20:02 10.2 C 6.85 g/m*3 10.2 C 0 km/h
1672 25-11-2009 22:32:02 10 C 6.86 g/m*3 10 C 0 km/h
1673 25-11-2009 22:44:02 10 C 6.86 g/m*3 10 C 0 km/h
1674 25-11-2009 22:56:02 10 C 6.77 g/m*3 10 C 0 km/h
1675 25-11-2009 23:08:02 10.1 C 6.81 g/m*3 10.1 C 0 km/h
Sensor: Nr:Datum:Temp:Abs-Feuchte:Windchill:Wind:
Aussen-T/F 1676 25-11-2009 23:20:02 10.1 C 6.71 g/m*3 10.1 C 0 km/h
1677 25-11-2009 23:32:02 9.8 C 6.68 g/m*3 9.8 C 0 km/h
1678 25-11-2009 23:44:02 9.8 C 6.59 g/m*3 9.8 C 0 km/h
1679 25-11-2009 23:56:02 9.8 C 6.49 g/m*3 9.8 C 0 km/h
1680 26-11-2009 00:08:02 9.8 C 6.59 g/m*3 9.8 C 0 km/h
1681 26-11-2009 00:20:02 9.8 C 6.49 g/m*3 9.8 C 0 km/h
1682 26-11-2009 00:32:02 9.9 C 6.44 g/m*3 9.9 C 0 km/h
1683 26-11-2009 00:44:02 9.8 C 6.4 g/m*3 9.8 C 0 km/h
1684 26-11-2009 00:56:02 9.6 C 6.41 g/m*3 9.6 C 0 km/h
1685 26-11-2009 01:08:03 9.7 C 6.36 g/m*3 9.7 C 0 km/h
1686 26-11-2009 01:20:03 9.5 C 6.28 g/m*3 9.5 C 0 km/h
1687 26-11-2009 01:32:03 9.5 C 6.19 g/m*3 9.5 C 0 km/h
1688 26-11-2009 01:44:03 9.4 C 6.06 g/m*3 9.4 C 0 km/h
1689 26-11-2009 01:56:03 9.2 C 5.98 g/m*3 9.2 C 0 km/h
1690 26-11-2009 02:08:03 9 C 5.91 g/m*3 9 C 0 km/h
1691 26-11-2009 02:20:03 9.2 C 5.8 g/m*3 9.2 C 0 km/h
1692 26-11-2009 02:32:03 9.1 C 5.77 g/m*3 9.1 C 0 km/h
1693 26-11-2009 02:44:03 9.1 C 5.77 g/m*3 9.1 C 0 km/h
1694 26-11-2009 02:56:03 9.2 C 5.8 g/m*3 9.2 C 0 km/h
1695 26-11-2009 03:08:03 9.4 C 5.79 g/m*3 9.4 C 0 km/h
1696 26-11-2009 03:20:03 9.5 C 5.83 g/m*3 9.5 C 0 km/h
1697 26-11-2009 03:32:03 9.4 C 5.88 g/m*3 9.4 C 0 km/h
1698 26-11-2009 03:44:03 9.5 C 5.83 g/m*3 9.5 C 0 km/h
1699 26-11-2009 03:56:03 9.4 C 5.79 g/m*3 9.4 C 0 km/h
1700 26-11-2009 04:08:03 9.5 C 5.73 g/m*3 9.5 C 0 km/h
Sensor: Nr:Datum:Temp:Abs-Feuchte:Windchill:Wind:
Aussen-T/F 1701 26-11-2009 04:20:03 9.4 C 5.7 g/m*3 9.4 C 0 km/h
1702 26-11-2009 04:32:03 9.5 C 5.73 g/m*3 9.5 C 0 km/h
1703 26-11-2009 04:44:03 9.6 C 5.68 g/m*3 9.6 C 0 km/h
1704 26-11-2009 04:56:03 9.6 C 5.59 g/m*3 9.6 C 0 km/h
1705 26-11-2009 05:08:03 9.6 C 5.59 g/m*3 9.6 C 0 km/h
1706 26-11-2009 05:20:04 9.6 C 5.59 g/m*3 9.6 C 0 km/h
1707 26-11-2009 05:32:04 9.7 C 5.53 g/m*3 9.7 C 0 km/h
1708 26-11-2009 05:44:04 9.7 C 5.44 g/m*3 9.7 C 0 km/h
1709 26-11-2009 05:56:04 9.7 C 5.44 g/m*3 9.7 C 0 km/h
1710 26-11-2009 06:08:04 9.6 C 5.5 g/m*3 9.6 C 0 km/h
1711 26-11-2009 06:20:04 9.6 C 5.5 g/m*3 9.6 C 0 km/h
1712 26-11-2009 06:32:04 9.6 C 5.5 g/m*3 9.6 C 0 km/h
1713 26-11-2009 06:44:04 9.7 C 5.53 g/m*3 9.7 C 0 km/h
1714 26-11-2009 06:56:04 9.6 C 5.5 g/m*3 9.6 C 0 km/h
1715 26-11-2009 07:08:02 9.7 C 5.53 g/m*3 9.7 C 0 km/h
1716 26-11-2009 07:20:01 9.7 C 5.44 g/m*3 9.7 C 0 km/h
1717 26-11-2009 07:32:02 9.7 C 5.44 g/m*3 9.7 C 0 km/h
1718 26-11-2009 07:44:02 9.8 C 5.47 g/m*3 9.8 C 0 km/h
1719 26-11-2009 07:56:02 9.8 C 5.38 g/m*3 9.8 C 0 km/h
1720 26-11-2009 08:08:02 9.8 C 5.47 g/m*3 9.8 C 0 km/h
1721 26-11-2009 08:20:02 9.9 C 5.42 g/m*3 9.9 C 0 km/h
1722 26-11-2009 08:32:02 9.8 C 5.47 g/m*3 9.8 C 0 km/h
1723 26-11-2009 08:44:02 10 C 5.45 g/m*3 10 C 0 km/h
1724 26-11-2009 08:56:01 10 C 5.45 g/m*3 10 C 0 km/h
1725 26-11-2009 09:08:01 9.9 C 5.51 g/m*3 9.9 C 0 km/h
Sensor: Nr:Datum:Temp:Abs-Feuchte:Windchill:Wind:
Aussen-T/F 1726 26-11-2009 09:20:01 10 C 5.36 g/m*3 10 C 0 km/h
1727 26-11-2009 09:32:01 10 C 5.36 g/m*3 10 C 0 km/h
1728 26-11-2009 09:44:01 10 C 5.36 g/m*3 10 C 0 km/h
1729 26-11-2009 09:56:01 10 C 5.36 g/m*3 10 C 0 km/h
1730 26-11-2009 10:08:01 10 C 5.26 g/m*3 10 C 0 km/h
1731 26-11-2009 10:20:02 10.1 C 5.3 g/m*3 10.1 C 0 km/h
1732 26-11-2009 10:32:01 10.2 C 5.23 g/m*3 10.2 C 0 km/h
1733 26-11-2009 10:44:01 10.3 C 5.27 g/m*3 10.3 C 0 km/h
1734 26-11-2009 10:56:02 10.4 C 5.2 g/m*3 10.4 C 0 km/h
1735 26-11-2009 11:08:01 10.5 C 5.14 g/m*3 10.5 C 0 km/h
1736 26-11-2009 11:20:02 10.9 C 5.07 g/m*3 10.9 C 0 km/h
1737 26-11-2009 11:32:01 10.7 C 5.3 g/m*3 10.7 C 0 km/h
1738 26-11-2009 11:44:01 10.9 C 5.27 g/m*3 10.9 C 0 km/h
1739 26-11-2009 11:56:03 11.1 C 5.24 g/m*3 11.1 C 0 km/h
1740 26-11-2009 12:08:02 11.3 C 5.2 g/m*3 11.3 C 0 km/h
1741 26-11-2009 12:20:02 11.1 C 5.24 g/m*3 11.1 C 0 km/h
1742 26-11-2009 12:32:02 11 C 5.31 g/m*3 11 C 0 km/h
1743 26-11-2009 12:44:02 11 C 5.31 g/m*3 11 C 0 km/h
1744 26-11-2009 12:56:02 11.3 C 5.41 g/m*3 11.3 C 0 km/h
1745 26-11-2009 13:08:02 11.3 C 5.41 g/m*3 11.3 C 0 km/h
1746 26-11-2009 13:20:02 11.4 C 5.44 g/m*3 11.4 C 0 km/h
1747 26-11-2009 13:32:02 11.7 C 5.54 g/m*3 11.7 C 0 km/h
1748 26-11-2009 13:44:02 11.2 C 5.88 g/m*3 11.2 C 0 km/h
1749 26-11-2009 13:56:02 11.1 C 5.94 g/m*3 11.1 C 0 km/h
1750 26-11-2009 14:08:01 10.7 C 5.8 g/m*3 10.7 C 0 km/h
Sensor: Nr:Datum:Temp:Abs-Feuchte:Windchill:Wind:
Aussen-T/F 1751 26-11-2009 14:20:01 10.6 C 5.76 g/m*3 10.6 C 0 km/h
1752 26-11-2009 14:32:02 10.7 C 5.8 g/m*3 10.7 C 0 km/h
1753 26-11-2009 14:44:02 10.8 C 5.83 g/m*3 10.8 C 0 km/h
1754 26-11-2009 14:56:02 10.7 C 5.8 g/m*3 10.7 C 0 km/h
1755 26-11-2009 15:08:02 10.7 C 5.89 g/m*3 10.7 C 0 km/h
1756 26-11-2009 15:20:02 10.8 C 5.83 g/m*3 10.8 C 0 km/h
1757 26-11-2009 15:32:02 10.8 C 5.63 g/m*3 10.8 C 0 km/h
1758 26-11-2009 15:44:02 10.8 C 5.73 g/m*3 10.8 C 0 km/h
1759 26-11-2009 15:56:01 10.6 C 5.47 g/m*3 10.6 C 0 km/h
1760 26-11-2009 16:08:02 10.3 C 5.46 g/m*3 10.3 C 0 km/h
1761 26-11-2009 16:20:01 10.3 C 5.46 g/m*3 10.3 C 0 km/h
1762 26-11-2009 16:32:02 10.2 C 5.33 g/m*3 10.2 C 0 km/h
1763 26-11-2009 16:44:02 10.1 C 5.3 g/m*3 10.1 C 0 km/h
1764 26-11-2009 16:56:02 9.9 C 5.42 g/m*3 9.9 C 0 km/h
1765 26-11-2009 17:08:02 9.8 C 5.47 g/m*3 9.8 C 0 km/h
1766 26-11-2009 17:20:01 9.7 C 5.53 g/m*3 9.7 C 0 km/h
1767 26-11-2009 17:32:02 10 C 5.54 g/m*3 10 C 0 km/h
1768 26-11-2009 17:44:02 9.9 C 5.7 g/m*3 9.9 C 0 km/h
1769 26-11-2009 17:56:02 10 C 5.64 g/m*3 10 C 0 km/h
1770 26-11-2009 18:08:02 9.8 C 5.66 g/m*3 9.8 C 0 km/h
1771 26-11-2009 18:20:02 10.1 C 5.67 g/m*3 10.1 C 0 km/h
1772 26-11-2009 18:32:02 10 C 5.64 g/m*3 10 C 0 km/h
1773 26-11-2009 18:44:02 10 C 5.64 g/m*3 10 C 0 km/h
1774 26-11-2009 18:56:02 10.2 C 5.61 g/m*3 10.2 C 0 km/h
1775 26-11-2009 19:08:02 10.2 C 5.52 g/m*3 10.2 C 0 km/h
Sensor: Nr:Datum:Temp:Abs-Feuchte:Windchill:Wind:
Aussen-T/F 1776 26-11-2009 19:20:02 10.3 C 5.55 g/m*3 10.3 C 0 km/h
1777 26-11-2009 19:32:02 9.5 C 6.1 g/m*3 9.5 C 0 km/h
1778 26-11-2009 19:44:02 9 C 6.44 g/m*3 9 C 0 km/h
1779 26-11-2009 19:56:02 8.8 C 6.79 g/m*3 8.8 C 0 km/h
1780 26-11-2009 20:08:02 8.8 C 6.7 g/m*3 8.8 C 0 km/h
1781 26-11-2009 20:20:02 8.9 C 6.83 g/m*3 8.9 C 0 km/h
1782 26-11-2009 20:32:02 8.4 C 6.79 g/m*3 8.4 C 0 km/h
1783 26-11-2009 20:44:02 8.4 C 6.79 g/m*3 8.4 C 0 km/h
1784 26-11-2009 20:56:02 8.8 C 6.35 g/m*3 8.8 C 0 km/h
1785 26-11-2009 21:08:02 9.3 C 6.11 g/m*3 9.3 C 0 km/h
1786 26-11-2009 21:20:02 9.7 C 6.08 g/m*3 9.7 C 0 km/h
1787 26-11-2009 21:32:03 9.8 C 5.94 g/m*3 9.8 C 0 km/h
1788 26-11-2009 21:44:03 10 C 5.83 g/m*3 10 C 0 km/h
1789 26-11-2009 21:56:02 10 C 5.83 g/m*3 10 C 0 km/h
1790 26-11-2009 22:08:02 10 C 5.92 g/m*3 10 C 0 km/h
1791 26-11-2009 22:20:01 10 C 5.83 g/m*3 10 C 0 km/h
1792 26-11-2009 22:32:02 10.1 C 5.86 g/m*3 10.1 C 0 km/h
1793 26-11-2009 22:44:02 10.1 C 5.77 g/m*3 10.1 C 0 km/h
1794 26-11-2009 22:56:02 10.3 C 5.75 g/m*3 10.3 C 0 km/h
1795 26-11-2009 23:09:01 10.5 C 5.72 g/m*3 10.5 C 0 km/h
1796 26-11-2009 23:21:01 10.4 C 5.69 g/m*3 10.4 C 0 km/h
1797 26-11-2009 23:33:01 10.5 C 5.72 g/m*3 10.5 C 0 km/h
1798 26-11-2009 23:45:01 10.4 C 5.78 g/m*3 10.4 C 0 km/h
1799 26-11-2009 23:57:01 10.4 C 5.88 g/m*3 10.4 C 0 km/h
1800 27-11-2009 00:09:01 10.4 C 5.88 g/m*3 10.4 C 0 km/h
Sensor: Nr:Datum:Temp:Abs-Feuchte:Windchill:Wind:
Aussen-T/F 1801 27-11-2009 00:21:01 10.6 C 5.86 g/m*3 10.6 C 0 km/h
1802 27-11-2009 00:33:01 10.8 C 5.73 g/m*3 10.8 C 0 km/h
1803 27-11-2009 00:45:01 10.8 C 5.73 g/m*3 10.8 C 0 km/h
1804 27-11-2009 00:57:02 10.7 C 5.89 g/m*3 10.7 C 0 km/h
1805 27-11-2009 01:09:02 10.4 C 6.07 g/m*3 10.4 C 0 km/h
1806 27-11-2009 01:21:02 10.7 C 5.99 g/m*3 10.7 C 0 km/h
1807 27-11-2009 01:33:02 10.8 C 5.93 g/m*3 10.8 C 0 km/h
1808 27-11-2009 01:45:02 10.9 C 5.87 g/m*3 10.9 C 0 km/h
1809 27-11-2009 01:57:02 11 C 5.81 g/m*3 11 C 0 km/h
1810 27-11-2009 02:09:02 11 C 5.71 g/m*3 11 C 0 km/h
1811 27-11-2009 02:21:02 10.9 C 5.87 g/m*3 10.9 C 0 km/h
1812 27-11-2009 02:33:02 11 C 5.71 g/m*3 11 C 0 km/h
1813 27-11-2009 02:45:02 10.9 C 5.77 g/m*3 10.9 C 0 km/h
1814 27-11-2009 02:57:02 11 C 5.51 g/m*3 11 C 0 km/h
1815 27-11-2009 03:09:02 10.9 C 5.57 g/m*3 10.9 C 0 km/h
1816 27-11-2009 03:21:02 10.9 C 5.57 g/m*3 10.9 C 0 km/h
1817 27-11-2009 03:33:02 10.9 C 5.67 g/m*3 10.9 C 0 km/h
1818 27-11-2009 03:45:02 10.8 C 5.63 g/m*3 10.8 C 0 km/h
1819 27-11-2009 03:57:02 10.5 C 5.72 g/m*3 10.5 C 0 km/h
1820 27-11-2009 04:09:02 10.1 C 5.86 g/m*3 10.1 C 0 km/h
1821 27-11-2009 04:21:02 9.8 C 5.94 g/m*3 9.8 C 0 km/h
1822 27-11-2009 04:33:02 9.3 C 5.84 g/m*3 9.3 C 0 km/h
1823 27-11-2009 04:45:03 9.1 C 6.03 g/m*3 9.1 C 0 km/h
1824 27-11-2009 04:57:03 8.9 C 6.22 g/m*3 8.9 C 0 km/h
1825 27-11-2009 05:09:03 9 C 6.08 g/m*3 9 C 0 km/h
Sensor: Nr:Datum:Temp:Abs-Feuchte:Windchill:Wind:
Aussen-T/F 1826 27-11-2009 05:21:03 9.1 C 6.03 g/m*3 9.1 C 0 km/h
1827 27-11-2009 05:33:03 9.1 C 6.03 g/m*3 9.1 C 0 km/h
1828 27-11-2009 05:45:03 9.1 C 6.12 g/m*3 9.1 C 0 km/h
1829 27-11-2009 05:57:03 8.9 C 6.22 g/m*3 8.9 C 0 km/h
1830 27-11-2009 06:09:03 8.5 C 6.32 g/m*3 8.5 C 0 km/h
1831 27-11-2009 06:21:03 8.3 C 6.66 g/m*3 8.3 C 0 km/h
1832 27-11-2009 06:33:03 8.2 C 6.78 g/m*3 8.2 C 0 km/h
1833 27-11-2009 06:45:03 8.1 C 6.66 g/m*3 8.1 C 0 km/h
1834 27-11-2009 06:57:03 7.9 C 6.74 g/m*3 7.9 C 0 km/h
1835 27-11-2009 07:09:02 7.7 C 6.73 g/m*3 7.7 C 0 km/h
1836 27-11-2009 07:21:01 7.5 C 6.72 g/m*3 7.5 C 0 km/h
1837 27-11-2009 07:33:01 7.4 C 6.84 g/m*3 7.4 C 0 km/h
1838 27-11-2009 07:45:01 7.5 C 6.96 g/m*3 7.5 C 0 km/h
1839 27-11-2009 07:57:01 7.5 C 7.04 g/m*3 7.5 C 0 km/h
1840 27-11-2009 08:09:02 7.6 C 6.93 g/m*3 7.6 C 0 km/h
1841 27-11-2009 08:21:01 8.2 C 6.7 g/m*3 8.2 C 0 km/h
1842 27-11-2009 08:33:02 8.2 C 6.36 g/m*3 8.2 C 0 km/h
1843 27-11-2009 08:45:01 8.4 C 6.02 g/m*3 8.4 C 0 km/h
1844 27-11-2009 08:57:01 8.4 C 5.85 g/m*3 8.4 C 0 km/h
1845 27-11-2009 09:09:02 8.3 C 5.82 g/m*3 8.3 C 0 km/h
1846 27-11-2009 09:21:02 8.5 C 5.72 g/m*3 8.5 C 0 km/h
1847 27-11-2009 09:33:02 8.6 C 5.67 g/m*3 8.6 C 0 km/h
1848 27-11-2009 09:45:02 8.8 C 5.57 g/m*3 8.8 C 0 km/h
1849 27-11-2009 09:57:02 8.7 C 5.53 g/m*3 8.7 C 0 km/h
1850 27-11-2009 10:09:02 8.8 C 5.57 g/m*3 8.8 C 0 km/h
Sensor: Nr:Datum:Temp:Abs-Feuchte:Windchill:Wind:
Aussen-T/F 1851 27-11-2009 10:21:01 9 C 5.55 g/m*3 9 C 0 km/h
1852 27-11-2009 10:33:01 9.1 C 5.59 g/m*3 9.1 C 0 km/h
1853 27-11-2009 10:45:01 9.2 C 5.54 g/m*3 9.2 C 0 km/h
1854 27-11-2009 10:57:01 9.2 C 5.54 g/m*3 9.2 C 0 km/h
1855 27-11-2009 11:09:02 9.4 C 5.61 g/m*3 9.4 C 0 km/h
1856 27-11-2009 11:21:02 9.3 C 5.57 g/m*3 9.3 C 0 km/h
1857 27-11-2009 11:33:01 9.4 C 5.52 g/m*3 9.4 C 0 km/h
1858 27-11-2009 11:45:02 9.5 C 5.46 g/m*3 9.5 C 0 km/h
1859 27-11-2009 11:57:02 9.6 C 5.4 g/m*3 9.6 C 0 km/h
1860 27-11-2009 12:09:01 9.3 C 5.3 g/m*3 9.3 C 0 km/h
1861 27-11-2009 12:21:02 9.1 C 5.32 g/m*3 9.1 C 0 km/h
1862 27-11-2009 12:33:01 9 C 5.47 g/m*3 9 C 0 km/h
1863 27-11-2009 12:45:03 9.2 C 5.54 g/m*3 9.2 C 0 km/h
1864 27-11-2009 12:57:03 9.5 C 5.55 g/m*3 9.5 C 0 km/h
1865 27-11-2009 13:09:02 9.8 C 5.57 g/m*3 9.8 C 0 km/h
1866 27-11-2009 13:21:02 10 C 5.26 g/m*3 10 C 0 km/h
1867 27-11-2009 13:33:02 10 C 5.17 g/m*3 10 C 0 km/h
1868 27-11-2009 13:45:02 9.8 C 5.2 g/m*3 9.8 C 0 km/h
1869 27-11-2009 13:57:02 9.6 C 5.13 g/m*3 9.6 C 0 km/h
1870 27-11-2009 14:09:02 9.7 C 5.07 g/m*3 9.7 C 0 km/h
1871 27-11-2009 14:21:02 9.8 C 5.01 g/m*3 9.8 C 0 km/h
1872 27-11-2009 14:33:01 9.8 C 5.01 g/m*3 9.8 C 0 km/h
1873 27-11-2009 14:45:02 9.8 C 4.92 g/m*3 9.8 C 0 km/h
1874 27-11-2009 14:57:02 9.7 C 4.98 g/m*3 9.7 C 0 km/h
1875 27-11-2009 15:09:01 9.8 C 5.01 g/m*3 9.8 C 0 km/h
Sensor: Nr:Datum:Temp:Abs-Feuchte:Windchill:Wind:
Aussen-T/F 1876 27-11-2009 15:21:02 9.6 C 4.95 g/m*3 9.6 C 0 km/h
1877 27-11-2009 15:33:02 9.3 C 5.12 g/m*3 9.3 C 0 km/h
1878 27-11-2009 15:45:02 9.1 C 5.23 g/m*3 9.1 C 0 km/h
1879 27-11-2009 15:57:02 9 C 5.38 g/m*3 9 C 0 km/h
1880 27-11-2009 16:09:02 8.8 C 5.48 g/m*3 8.8 C 0 km/h
1881 27-11-2009 16:21:01 8.7 C 5.45 g/m*3 8.7 C 0 km/h
1882 27-11-2009 16:33:02 8.5 C 5.29 g/m*3 8.5 C 0 km/h
1883 27-11-2009 16:45:01 8.6 C 5.16 g/m*3 8.6 C 0 km/h
1884 27-11-2009 16:57:01 8.4 C 5.09 g/m*3 8.4 C 0 km/h
1885 27-11-2009 17:09:02 8.5 C 4.95 g/m*3 8.5 C 0 km/h
1886 27-11-2009 17:21:01 8.4 C 4.92 g/m*3 8.4 C 0 km/h
1887 27-11-2009 17:33:02 8.3 C 4.89 g/m*3 8.3 C 0 km/h
1888 27-11-2009 17:45:01 8.4 C 4.92 g/m*3 8.4 C 0 km/h
1889 27-11-2009 17:57:01 8.4 C 4.92 g/m*3 8.4 C 0 km/h
1890 27-11-2009 18:09:02 8.4 C 5.01 g/m*3 8.4 C 0 km/h
1891 27-11-2009 18:21:02 8.5 C 4.95 g/m*3 8.5 C 0 km/h
1892 27-11-2009 18:33:02 8.5 C 4.87 g/m*3 8.5 C 0 km/h
1893 27-11-2009 18:45:01 8.4 C 4.84 g/m*3 8.4 C 0 km/h
1894 27-11-2009 18:57:01 8.4 C 4.92 g/m*3 8.4 C 0 km/h
1895 27-11-2009 19:09:02 8.9 C 4.82 g/m*3 8.9 C 0 km/h
1896 27-11-2009 19:21:02 8.7 C 5.02 g/m*3 8.7 C 0 km/h
1897 27-11-2009 19:33:01 8.3 C 5.14 g/m*3 8.3 C 0 km/h
1898 27-11-2009 19:45:02 8.2 C 5.11 g/m*3 8.2 C 0 km/h
1899 27-11-2009 19:57:02 8.2 C 5.11 g/m*3 8.2 C 0 km/h
1900 27-11-2009 20:09:01 8.3 C 5.14 g/m*3 8.3 C 0 km/h
Sensor: Nr:Datum:Temp:Abs-Feuchte:Windchill:Wind:
Aussen-T/F 1901 27-11-2009 20:21:02 8.2 C 5.11 g/m*3 8.2 C 0 km/h
1902 27-11-2009 20:33:01 8.2 C 5.11 g/m*3 8.2 C 0 km/h
1903 27-11-2009 20:45:02 8.2 C 5.11 g/m*3 8.2 C 0 km/h
1904 27-11-2009 20:57:02 8.1 C 5.08 g/m*3 8.1 C 0 km/h
1905 27-11-2009 21:09:01 8.1 C 5.16 g/m*3 8.1 C 0 km/h
1906 27-11-2009 21:21:01 8.3 C 5.23 g/m*3 8.3 C 0 km/h
1907 27-11-2009 21:33:02 8.3 C 5.14 g/m*3 8.3 C 0 km/h
1908 27-11-2009 21:45:02 8.1 C 5.08 g/m*3 8.1 C 0 km/h
1909 27-11-2009 21:57:03 8 C 5.04 g/m*3 8 C 0 km/h
1910 27-11-2009 22:09:02 8 C 5.04 g/m*3 8 C 0 km/h
1911 27-11-2009 22:21:02 8.1 C 5.08 g/m*3 8.1 C 0 km/h
1912 27-11-2009 22:34:04 8 C 5.13 g/m*3 8 C 0 km/h
1913 27-11-2009 22:46:04 8.1 C 5.24 g/m*3 8.1 C 0 km/h
1914 27-11-2009 22:58:04 8 C 5.29 g/m*3 8 C 0 km/h
1915 27-11-2009 23:10:04 7.9 C 5.59 g/m*3 7.9 C 0 km/h
1916 27-11-2009 23:22:04 7.8 C 5.55 g/m*3 7.8 C 0 km/h
1917 27-11-2009 23:34:04 7.9 C 5.5 g/m*3 7.9 C 0 km/h
1918 27-11-2009 23:46:04 8 C 5.37 g/m*3 8 C 0 km/h
1919 27-11-2009 23:58:04 8 C 5.29 g/m*3 8 C 0 km/h
1920 28-11-2009 00:10:04 7.9 C 5.26 g/m*3 7.9 C 0 km/h
1921 28-11-2009 00:22:04 8 C 5.21 g/m*3 8 C 0 km/h
1922 28-11-2009 00:34:04 8.1 C 5.16 g/m*3 8.1 C 0 km/h
1923 28-11-2009 00:46:04 8 C 5.37 g/m*3 8 C 0 km/h
1924 28-11-2009 00:58:05 7.3 C 5.69 g/m*3 7.3 C 0 km/h
1925 28-11-2009 01:10:05 7 C 5.81 g/m*3 7 C 0 km/h
Sensor: Nr:Datum:Temp:Abs-Feuchte:Windchill:Wind:
Aussen-T/F 1926 28-11-2009 01:22:05 7.4 C 5.88 g/m*3 7.4 C 0 km/h
1927 28-11-2009 01:34:05 7.3 C 5.93 g/m*3 7.3 C 0 km/h
1928 28-11-2009 01:46:05 7.4 C 5.88 g/m*3 7.4 C 0 km/h
1929 28-11-2009 01:58:05 7.6 C 5.72 g/m*3 7.6 C 0 km/h
1930 28-11-2009 02:10:05 7.6 C 5.56 g/m*3 7.6 C 0 km/h
1931 28-11-2009 02:22:05 7.5 C 5.6 g/m*3 7.5 C 0 km/h
1932 28-11-2009 02:34:05 7.5 C 5.6 g/m*3 7.5 C 0 km/h
1933 28-11-2009 02:46:05 7.5 C 5.6 g/m*3 7.5 C 0 km/h
1934 28-11-2009 02:58:05 7.8 C 5.55 g/m*3 7.8 C 0 km/h
1935 28-11-2009 03:10:05 8 C 5.46 g/m*3 8 C 0 km/h
1936 28-11-2009 03:22:05 8 C 5.37 g/m*3 8 C 0 km/h
1937 28-11-2009 03:34:05 7.9 C 5.34 g/m*3 7.9 C 0 km/h
1938 28-11-2009 03:46:05 7.9 C 5.42 g/m*3 7.9 C 0 km/h
1939 28-11-2009 03:58:05 8 C 5.29 g/m*3 8 C 0 km/h
1940 28-11-2009 04:10:05 7.6 C 5.32 g/m*3 7.6 C 0 km/h
1941 28-11-2009 04:22:05 7.6 C 5.24 g/m*3 7.6 C 0 km/h
1942 28-11-2009 04:34:05 7.5 C 5.28 g/m*3 7.5 C 0 km/h
1943 28-11-2009 04:46:05 7.7 C 5.27 g/m*3 7.7 C 0 km/h
1944 28-11-2009 04:58:06 7.9 C 5.26 g/m*3 7.9 C 0 km/h
1945 28-11-2009 05:10:06 7.9 C 5.17 g/m*3 7.9 C 0 km/h
1946 28-11-2009 05:22:06 7.9 C 5.34 g/m*3 7.9 C 0 km/h
1947 28-11-2009 05:34:06 7.1 C 5.77 g/m*3 7.1 C 0 km/h
1948 28-11-2009 05:46:06 7 C 5.89 g/m*3 7 C 0 km/h
1949 28-11-2009 05:58:06 6.9 C 5.93 g/m*3 6.9 C 0 km/h
1950 28-11-2009 06:10:06 7.3 C 5.77 g/m*3 7.3 C 0 km/h
Sensor: Nr:Datum:Temp:Abs-Feuchte:Windchill:Wind:
Aussen-T/F 1951 28-11-2009 06:22:06 7.4 C 5.73 g/m*3 7.4 C 0 km/h
1952 28-11-2009 06:34:06 7.6 C 5.72 g/m*3 7.6 C 0 km/h
1953 28-11-2009 06:46:06 7.5 C 5.68 g/m*3 7.5 C 0 km/h
1954 28-11-2009 06:58:06 7.5 C 5.68 g/m*3 7.5 C 0 km/h
1955 28-11-2009 07:10:06 7.4 C 5.65 g/m*3 7.4 C 0 km/h
1956 28-11-2009 07:22:06 7.5 C 5.6 g/m*3 7.5 C 0 km/h
1957 28-11-2009 07:34:06 7.4 C 5.65 g/m*3 7.4 C 0 km/h
1958 28-11-2009 07:46:06 7.3 C 5.61 g/m*3 7.3 C 0 km/h
1959 28-11-2009 07:58:06 7.2 C 5.65 g/m*3 7.2 C 0 km/h
1960 28-11-2009 08:10:03 7 C 5.58 g/m*3 7 C 0 km/h
1961 28-11-2009 08:22:03 7.2 C 5.73 g/m*3 7.2 C 0 km/h
1962 28-11-2009 08:34:03 7.3 C 5.77 g/m*3 7.3 C 0 km/h
1963 28-11-2009 08:46:01 7.7 C 5.76 g/m*3 7.7 C 0 km/h
1964 28-11-2009 08:58:01 7.7 C 5.68 g/m*3 7.7 C 0 km/h
1965 28-11-2009 09:10:02 7.6 C 5.72 g/m*3 7.6 C 0 km/h
1966 28-11-2009 09:22:01 8 C 5.7 g/m*3 8 C 0 km/h
1967 28-11-2009 09:34:02 8.2 C 5.78 g/m*3 8.2 C 0 km/h
1968 28-11-2009 09:46:02 8.4 C 5.77 g/m*3 8.4 C 0 km/h
1969 28-11-2009 09:58:02 8.5 C 5.81 g/m*3 8.5 C 0 km/h
1970 28-11-2009 10:10:02 8.5 C 5.89 g/m*3 8.5 C 0 km/h
1971 28-11-2009 10:22:02 8.6 C 5.84 g/m*3 8.6 C 0 km/h
1972 28-11-2009 10:34:02 8.7 C 5.88 g/m*3 8.7 C 0 km/h
1973 28-11-2009 10:46:01 8.7 C 5.88 g/m*3 8.7 C 0 km/h
1974 28-11-2009 10:58:01 9.2 C 5.8 g/m*3 9.2 C 0 km/h
1975 28-11-2009 11:10:02 9.5 C 5.64 g/m*3 9.5 C 0 km/h
Sensor: Nr:Datum:Temp:Abs-Feuchte:Windchill:Wind:
Aussen-T/F 1976 28-11-2009 11:22:02 9.7 C 5.62 g/m*3 9.7 C 0 km/h
1977 28-11-2009 11:34:01 9.7 C 5.72 g/m*3 9.7 C 0 km/h
1978 28-11-2009 11:46:02 9.5 C 5.83 g/m*3 9.5 C 0 km/h
1979 28-11-2009 11:58:02 9.2 C 5.98 g/m*3 9.2 C 0 km/h
1980 28-11-2009 12:10:01 8.8 C 6.18 g/m*3 8.8 C 0 km/h
1981 28-11-2009 12:22:02 8.4 C 6.36 g/m*3 8.4 C 0 km/h
1982 28-11-2009 12:34:01 8.3 C 6.41 g/m*3 8.3 C 0 km/h
1983 28-11-2009 12:46:02 8.3 C 6.41 g/m*3 8.3 C 0 km/h
1984 28-11-2009 12:58:02 8.4 C 6.45 g/m*3 8.4 C 0 km/h
1985 28-11-2009 13:10:01 8.5 C 6.49 g/m*3 8.5 C 0 km/h
1986 28-11-2009 13:22:01 8.6 C 6.44 g/m*3 8.6 C 0 km/h
1987 28-11-2009 13:34:01 8.8 C 6.44 g/m*3 8.8 C 0 km/h
1988 28-11-2009 13:46:02 9 C 6.35 g/m*3 9 C 0 km/h
1989 28-11-2009 13:58:02 9.1 C 6.12 g/m*3 9.1 C 0 km/h
1990 28-11-2009 14:10:02 9.2 C 6.16 g/m*3 9.2 C 0 km/h
1991 28-11-2009 14:22:02 9.2 C 6.16 g/m*3 9.2 C 0 km/h
1992 28-11-2009 14:34:02 9.3 C 6.2 g/m*3 9.3 C 0 km/h
1993 28-11-2009 14:46:02 9.4 C 6.24 g/m*3 9.4 C 0 km/h
1994 28-11-2009 14:58:03 9.3 C 6.2 g/m*3 9.3 C 0 km/h
1995 28-11-2009 15:10:01 9.3 C 6.29 g/m*3 9.3 C 0 km/h
1996 28-11-2009 15:22:01 9.2 C 6.34 g/m*3 9.2 C 0 km/h
1997 28-11-2009 15:34:02 9.2 C 6.43 g/m*3 9.2 C 0 km/h
1998 28-11-2009 15:46:02 9.4 C 6.33 g/m*3 9.4 C 0 km/h
1999 28-11-2009 15:58:02 9.3 C 6.38 g/m*3 9.3 C 0 km/h
2000 28-11-2009 16:10:03 9.4 C 6.51 g/m*3 9.4 C 0 km/h
Sensor: Nr:Datum:Temp:Abs-Feuchte:Windchill:Wind:
Aussen-T/F 2001 28-11-2009 16:22:02 9.3 C 6.56 g/m*3 9.3 C 0 km/h
2002 28-11-2009 16:34:02 9.4 C 6.6 g/m*3 9.4 C 0 km/h
2003 28-11-2009 16:46:01 9.5 C 6.55 g/m*3 9.5 C 0 km/h
2004 28-11-2009 16:58:01 9.6 C 6.5 g/m*3 9.6 C 0 km/h
2005 28-11-2009 17:10:02 9.8 C 6.49 g/m*3 9.8 C 0 km/h
2006 28-11-2009 17:22:01 9.7 C 6.45 g/m*3 9.7 C 0 km/h
2007 28-11-2009 17:34:02 9.6 C 6.5 g/m*3 9.6 C 0 km/h
2008 28-11-2009 17:46:02 9.5 C 6.55 g/m*3 9.5 C 0 km/h
2009 28-11-2009 17:58:02 9.6 C 6.6 g/m*3 9.6 C 0 km/h
2010 28-11-2009 18:10:02 9.7 C 6.55 g/m*3 9.7 C 0 km/h
2011 28-11-2009 18:22:01 9.7 C 6.55 g/m*3 9.7 C 0 km/h
2012 28-11-2009 18:34:02 9.9 C 6.54 g/m*3 9.9 C 0 km/h
2013 28-11-2009 18:46:02 10 C 6.48 g/m*3 10 C 0 km/h
2014 28-11-2009 18:58:02 9.9 C 6.63 g/m*3 9.9 C 0 km/h
2015 28-11-2009 19:10:02 9.5 C 6.74 g/m*3 9.5 C 0 km/h
2016 28-11-2009 19:22:01 9.6 C 6.78 g/m*3 9.6 C 0 km/h
2017 28-11-2009 19:34:02 9.9 C 6.72 g/m*3 9.9 C 0 km/h
2018 28-11-2009 19:46:02 10.2 C 6.57 g/m*3 10.2 C 0 km/h
2019 28-11-2009 19:58:02 10.3 C 6.51 g/m*3 10.3 C 0 km/h
2020 28-11-2009 20:10:02 10.4 C 6.46 g/m*3 10.4 C 0 km/h
2021 28-11-2009 20:22:01 10.4 C 6.46 g/m*3 10.4 C 0 km/h
2022 28-11-2009 20:34:02 10.1 C 6.43 g/m*3 10.1 C 0 km/h
2023 28-11-2009 20:46:01 10.2 C 6.47 g/m*3 10.2 C 0 km/h
2024 28-11-2009 20:58:01 10.4 C 6.46 g/m*3 10.4 C 0 km/h
2025 28-11-2009 21:10:02 10.5 C 6.4 g/m*3 10.5 C 0 km/h
Sensor: Nr:Datum:Temp:Abs-Feuchte:Windchill:Wind:
Aussen-T/F 2026 28-11-2009 21:22:02 10.6 C 6.25 g/m*3 10.6 C 0 km/h
2027 28-11-2009 21:34:02 10.8 C 6.13 g/m*3 10.8 C 0 km/h
2028 28-11-2009 21:46:02 10.9 C 6.07 g/m*3 10.9 C 0 km/h
2029 28-11-2009 21:58:02 10.9 C 5.97 g/m*3 10.9 C 0 km/h
2030 28-11-2009 22:10:03 10.9 C 5.77 g/m*3 10.9 C 0 km/h
2031 28-11-2009 22:22:02 10.9 C 5.77 g/m*3 10.9 C 0 km/h
2032 28-11-2009 22:34:02 10.5 C 5.72 g/m*3 10.5 C 0 km/h
2033 28-11-2009 22:46:01 10.3 C 5.65 g/m*3 10.3 C 0 km/h
2034 28-11-2009 22:58:01 10.4 C 5.59 g/m*3 10.4 C 0 km/h
2035 28-11-2009 23:11:02 10.3 C 5.65 g/m*3 10.3 C 0 km/h
2036 28-11-2009 23:23:02 10.4 C 5.59 g/m*3 10.4 C 0 km/h
2037 28-11-2009 23:35:02 10.4 C 5.59 g/m*3 10.4 C 0 km/h
2038 28-11-2009 23:47:02 10.4 C 5.49 g/m*3 10.4 C 0 km/h
2039 28-11-2009 23:59:02 10.2 C 5.42 g/m*3 10.2 C 0 km/h
2040 29-11-2009 00:11:02 9.8 C 5.47 g/m*3 9.8 C 0 km/h
2041 29-11-2009 00:23:02 9.7 C 5.35 g/m*3 9.7 C 0 km/h
2042 29-11-2009 00:35:02 9.6 C 5.4 g/m*3 9.6 C 0 km/h
2043 29-11-2009 00:47:02 9.5 C 5.37 g/m*3 9.5 C 0 km/h
2044 29-11-2009 00:59:02 9.6 C 5.31 g/m*3 9.6 C 0 km/h
2045 29-11-2009 01:11:02 10 C 5.26 g/m*3 10 C 0 km/h
2046 29-11-2009 01:23:02 10.1 C 5.11 g/m*3 10.1 C 0 km/h
2047 29-11-2009 01:35:03 10 C 5.17 g/m*3 10 C 0 km/h
2048 29-11-2009 01:47:03 10.1 C 5.01 g/m*3 10.1 C 0 km/h
2049 29-11-2009 01:59:03 10.4 C 4.92 g/m*3 10.4 C 0 km/h
2050 29-11-2009 02:11:03 10.6 C 4.88 g/m*3 10.6 C 0 km/h
Sensor: Nr:Datum:Temp:Abs-Feuchte:Windchill:Wind:
Aussen-T/F 2051 29-11-2009 02:23:03 10.7 C 4.81 g/m*3 10.7 C 0 km/h
2052 29-11-2009 02:35:03 10.6 C 4.88 g/m*3 10.6 C 0 km/h
2053 29-11-2009 02:47:03 10.7 C 4.71 g/m*3 10.7 C 0 km/h
2054 29-11-2009 02:59:03 10.6 C 4.78 g/m*3 10.6 C 0 km/h
2055 29-11-2009 03:11:03 10.4 C 4.82 g/m*3 10.4 C 0 km/h
2056 29-11-2009 03:23:03 10.1 C 4.82 g/m*3 10.1 C 0 km/h
2057 29-11-2009 03:35:03 10.1 C 4.73 g/m*3 10.1 C 0 km/h
2058 29-11-2009 03:47:03 9.9 C 4.86 g/m*3 9.9 C 0 km/h
2059 29-11-2009 03:59:03 9.5 C 4.82 g/m*3 9.5 C 0 km/h
2060 29-11-2009 04:11:03 9 C 4.94 g/m*3 9 C 0 km/h
2061 29-11-2009 04:23:03 8.8 C 5.05 g/m*3 8.8 C 0 km/h
2062 29-11-2009 04:35:03 8.7 C 5.02 g/m*3 8.7 C 0 km/h
2063 29-11-2009 04:47:03 8.4 C 5.09 g/m*3 8.4 C 0 km/h
2064 29-11-2009 04:59:03 8.1 C 5.08 g/m*3 8.1 C 0 km/h
2065 29-11-2009 05:11:03 8.2 C 5.02 g/m*3 8.2 C 0 km/h
2066 29-11-2009 05:23:04 8.5 C 5.12 g/m*3 8.5 C 0 km/h
2067 29-11-2009 05:35:04 8.6 C 4.98 g/m*3 8.6 C 0 km/h
2068 29-11-2009 05:47:04 8.3 C 4.89 g/m*3 8.3 C 0 km/h
2069 29-11-2009 05:59:04 8.1 C 4.99 g/m*3 8.1 C 0 km/h
2070 29-11-2009 06:11:04 8 C 4.96 g/m*3 8 C 0 km/h
2071 29-11-2009 06:23:04 8.1 C 4.91 g/m*3 8.1 C 0 km/h
2072 29-11-2009 06:35:04 8.2 C 4.86 g/m*3 8.2 C 0 km/h
2073 29-11-2009 06:47:04 8.3 C 4.89 g/m*3 8.3 C 0 km/h
2074 29-11-2009 06:59:04 8.1 C 4.91 g/m*3 8.1 C 0 km/h
2075 29-11-2009 07:11:04 8.3 C 4.8 g/m*3 8.3 C 0 km/h
Sensor: Nr:Datum:Temp:Abs-Feuchte:Windchill:Wind:
Aussen-T/F 2076 29-11-2009 07:23:04 8.2 C 4.77 g/m*3 8.2 C 0 km/h
2077 29-11-2009 07:35:03 7.9 C 4.93 g/m*3 7.9 C 0 km/h
2078 29-11-2009 07:47:02 8.1 C 4.99 g/m*3 8.1 C 0 km/h
2079 29-11-2009 07:59:02 8.1 C 4.99 g/m*3 8.1 C 0 km/h
2080 29-11-2009 08:11:03 8.3 C 5.06 g/m*3 8.3 C 0 km/h
2081 29-11-2009 08:23:02 8.6 C 5.16 g/m*3 8.6 C 0 km/h
2082 29-11-2009 08:35:02 8.6 C 5.24 g/m*3 8.6 C 0 km/h
2083 29-11-2009 08:47:01 8.7 C 5.28 g/m*3 8.7 C 0 km/h
2084 29-11-2009 08:59:01 8.9 C 5.34 g/m*3 8.9 C 0 km/h
2085 29-11-2009 09:11:02 9.1 C 5.32 g/m*3 9.1 C 0 km/h
2086 29-11-2009 09:23:01 9.4 C 5.25 g/m*3 9.4 C 0 km/h
2087 29-11-2009 09:35:02 9.4 C 5.25 g/m*3 9.4 C 0 km/h
2088 29-11-2009 09:47:02 9.5 C 5.37 g/m*3 9.5 C 0 km/h
2089 29-11-2009 09:59:02 9.8 C 5.38 g/m*3 9.8 C 0 km/h
2090 29-11-2009 10:11:02 10 C 5.45 g/m*3 10 C 0 km/h
2091 29-11-2009 10:23:02 10.2 C 5.33 g/m*3 10.2 C 0 km/h
2092 29-11-2009 10:35:01 10.5 C 5.33 g/m*3 10.5 C 0 km/h
2093 29-11-2009 10:47:02 10.5 C 5.33 g/m*3 10.5 C 0 km/h
2094 29-11-2009 10:59:02 11 C 5.41 g/m*3 11 C 0 km/h
2095 29-11-2009 11:11:01 11.2 C 5.27 g/m*3 11.2 C 0 km/h
2096 29-11-2009 11:23:02 11.3 C 5.2 g/m*3 11.3 C 0 km/h
2097 29-11-2009 11:35:02 11.3 C 5.1 g/m*3 11.3 C 0 km/h
2098 29-11-2009 11:47:02 11.5 C 5.16 g/m*3 11.5 C 0 km/h
2099 29-11-2009 11:59:03 11.7 C 5.33 g/m*3 11.7 C 0 km/h
2100 29-11-2009 12:11:02 11.9 C 5.3 g/m*3 11.9 C 0 km/h
Sensor: Nr:Datum:Temp:Abs-Feuchte:Windchill:Wind:
Aussen-T/F 2101 29-11-2009 12:23:02 12.1 C 5.15 g/m*3 12.1 C 0 km/h
2102 29-11-2009 12:35:02 12.5 C 5.17 g/m*3 12.5 C 0 km/h
2103 29-11-2009 12:47:02 12.8 C 5.26 g/m*3 12.8 C 0 km/h
2104 29-11-2009 12:59:02 13.2 C 5.28 g/m*3 13.2 C 0 km/h
2105 29-11-2009 13:11:01 13.4 C 5.23 g/m*3 13.4 C 0 km/h
2106 29-11-2009 13:23:01 13.7 C 5.33 g/m*3 13.7 C 0 km/h
2107 29-11-2009 13:35:02 13.8 C 5.24 g/m*3 13.8 C 0 km/h
2108 29-11-2009 13:47:02 13 C 5.67 g/m*3 13 C 0 km/h
2109 29-11-2009 13:59:02 12.7 C 6.12 g/m*3 12.7 C 0 km/h
2110 29-11-2009 14:11:02 11.7 C 6.48 g/m*3 11.7 C 0 km/h
2111 29-11-2009 14:23:02 11 C 6.91 g/m*3 11 C 0 km/h
2112 29-11-2009 14:35:02 10.8 C 7.12 g/m*3 10.8 C 0 km/h
2113 29-11-2009 14:47:02 10.7 C 7.17 g/m*3 10.7 C 0 km/h
2114 29-11-2009 14:59:02 10.5 C 7.18 g/m*3 10.5 C 0 km/h
2115 29-11-2009 15:11:03 10.4 C 7.13 g/m*3 10.4 C 0 km/h
2116 29-11-2009 15:23:02 10.3 C 7.28 g/m*3 10.3 C 0 km/h
2117 29-11-2009 15:35:02 10.2 C 7.23 g/m*3 10.2 C 0 km/h
2118 29-11-2009 15:47:01 9.9 C 7.28 g/m*3 9.9 C 0 km/h
2119 29-11-2009 15:59:01 9.9 C 7.28 g/m*3 9.9 C 0 km/h
2120 29-11-2009 16:11:02 9.9 C 7.19 g/m*3 9.9 C 0 km/h
2121 29-11-2009 16:23:01 9.8 C 7.14 g/m*3 9.8 C 0 km/h
2122 29-11-2009 16:35:02 9.7 C 7.19 g/m*3 9.7 C 0 km/h
2123 29-11-2009 16:47:01 9.5 C 7.19 g/m*3 9.5 C 0 km/h
2124 29-11-2009 16:59:01 9.5 C 7.28 g/m*3 9.5 C 0 km/h
2125 29-11-2009 17:11:02 9.4 C 7.33 g/m*3 9.4 C 0 km/h
Sensor: Nr:Datum:Temp:Abs-Feuchte:Windchill:Wind:
Aussen-T/F 2126 29-11-2009 17:23:01 9.3 C 7.37 g/m*3 9.3 C 0 km/h
2127 29-11-2009 17:35:02 9.2 C 7.32 g/m*3 9.2 C 0 km/h
2128 29-11-2009 17:47:01 9 C 7.23 g/m*3 9 C 0 km/h
2129 29-11-2009 17:59:01 8.9 C 7.36 g/m*3 8.9 C 0 km/h
2130 29-11-2009 18:11:02 8.7 C 7.26 g/m*3 8.7 C 0 km/h
2131 29-11-2009 18:23:01 8.5 C 7.26 g/m*3 8.5 C 0 km/h
2132 29-11-2009 18:35:02 8.4 C 7.3 g/m*3 8.4 C 0 km/h
2133 29-11-2009 18:47:01 8.3 C 7.25 g/m*3 8.3 C 0 km/h
2134 29-11-2009 18:59:01 8.2 C 7.29 g/m*3 8.2 C 0 km/h
2135 29-11-2009 19:11:02 8.2 C 7.37 g/m*3 8.2 C 0 km/h
2136 29-11-2009 19:23:02 8.2 C 7.37 g/m*3 8.2 C 0 km/h
2137 29-11-2009 19:35:01 8.2 C 7.45 g/m*3 8.2 C 0 km/h
2138 29-11-2009 19:47:02 8.1 C 7.41 g/m*3 8.1 C 0 km/h
2139 29-11-2009 19:59:02 8.1 C 7.49 g/m*3 8.1 C 0 km/h
2140 29-11-2009 20:11:01 8.1 C 7.49 g/m*3 8.1 C 0 km/h
2141 29-11-2009 20:23:02 8.1 C 7.57 g/m*3 8.1 C 0 km/h
2142 29-11-2009 20:35:01 8.1 C 7.57 g/m*3 8.1 C 0 km/h
2143 29-11-2009 20:47:02 7.9 C 7.56 g/m*3 7.9 C 0 km/h
2144 29-11-2009 20:59:02 7.8 C 7.51 g/m*3 7.8 C 0 km/h
2145 29-11-2009 21:11:02 7.6 C 7.41 g/m*3 7.6 C 0 km/h
2146 29-11-2009 21:23:01 7.6 C 7.41 g/m*3 7.6 C 0 km/h
2147 29-11-2009 21:35:02 7.5 C 7.36 g/m*3 7.5 C 0 km/h
2148 29-11-2009 21:47:01 7.4 C 7.4 g/m*3 7.4 C 0 km/h
2149 29-11-2009 21:59:01 7.4 C 7.4 g/m*3 7.4 C 0 km/h
2150 29-11-2009 22:11:02 7.3 C 7.35 g/m*3 7.3 C 0 km/h
Sensor: Nr:Datum:Temp:Abs-Feuchte:Windchill:Wind:
Aussen-T/F 2151 29-11-2009 22:23:01 7.2 C 7.3 g/m*3 7.2 C 0 km/h
2152 29-11-2009 22:36:02 7.1 C 7.25 g/m*3 7.1 C 0 km/h
2153 29-11-2009 22:48:02 7.1 C 7.33 g/m*3 7.1 C 0 km/h
2154 29-11-2009 23:00:02 7.1 C 7.33 g/m*3 7.1 C 0 km/h
2155 29-11-2009 23:12:02 7.1 C 7.33 g/m*3 7.1 C 0 km/h
2156 29-11-2009 23:24:02 7 C 7.28 g/m*3 7 C 0 km/h
2157 29-11-2009 23:36:03 7 C 7.28 g/m*3 7 C 0 km/h
2158 29-11-2009 23:48:03 7 C 7.28 g/m*3 7 C 0 km/h
2159 30-11-2009 00:00:03 6.9 C 7.31 g/m*3 6.9 C 0 km/h
2160 30-11-2009 00:12:03 6.9 C 7.31 g/m*3 6.9 C 0 km/h
2161 30-11-2009 00:24:03 6.7 C 7.22 g/m*3 6.7 C 0 km/h
2162 30-11-2009 00:36:03 6.5 C 7.12 g/m*3 6.5 C 0 km/h
2163 30-11-2009 00:48:03 6.4 C 7.08 g/m*3 6.4 C 0 km/h
2164 30-11-2009 01:00:03 6.4 C 7.08 g/m*3 6.4 C 0 km/h
2165 30-11-2009 01:12:03 6.4 C 7.08 g/m*3 6.4 C 0 km/h
2166 30-11-2009 01:24:03 6.4 C 7.08 g/m*3 6.4 C 0 km/h
2167 30-11-2009 01:36:03 6.4 C 7.08 g/m*3 6.4 C 0 km/h
2168 30-11-2009 01:48:03 6.3 C 7.03 g/m*3 6.3 C 0 km/h
2169 30-11-2009 02:00:03 6.2 C 6.99 g/m*3 6.2 C 0 km/h
2170 30-11-2009 02:12:03 6.2 C 6.99 g/m*3 6.2 C 0 km/h
2171 30-11-2009 02:24:03 6.3 C 7.03 g/m*3 6.3 C 0 km/h
2172 30-11-2009 02:36:03 6.3 C 7.03 g/m*3 6.3 C 0 km/h
2173 30-11-2009 02:48:03 6.2 C 6.99 g/m*3 6.2 C 0 km/h
2174 30-11-2009 03:00:03 6.2 C 6.91 g/m*3 6.2 C 0 km/h
2175 30-11-2009 03:12:03 6.1 C 6.87 g/m*3 6.1 C 0 km/h
Sensor: Nr:Datum:Temp:Abs-Feuchte:Windchill:Wind:
Aussen-T/F 2176 30-11-2009 03:24:04 6.2 C 6.84 g/m*3 6.2 C 0 km/h
2177 30-11-2009 03:36:04 6.2 C 6.77 g/m*3 6.2 C 0 km/h
2178 30-11-2009 03:48:04 6.2 C 6.69 g/m*3 6.2 C 0 km/h
2179 30-11-2009 04:00:04 6.2 C 6.69 g/m*3 6.2 C 0 km/h
2180 30-11-2009 04:12:04 6.2 C 6.62 g/m*3 6.2 C 0 km/h
2181 30-11-2009 04:24:04 6.2 C 6.62 g/m*3 6.2 C 0 km/h
2182 30-11-2009 04:36:04 6.2 C 6.62 g/m*3 6.2 C 0 km/h
2183 30-11-2009 04:48:04 6.3 C 6.66 g/m*3 6.3 C 0 km/h
2184 30-11-2009 05:00:04 6.3 C 6.66 g/m*3 6.3 C 0 km/h
2185 30-11-2009 05:12:04 6.4 C 6.71 g/m*3 6.4 C 0 km/h
2186 30-11-2009 05:24:04 6.3 C 6.59 g/m*3 6.3 C 0 km/h
2187 30-11-2009 05:36:04 6.3 C 6.66 g/m*3 6.3 C 0 km/h
2188 30-11-2009 05:48:04 6.4 C 6.71 g/m*3 6.4 C 0 km/h
2189 30-11-2009 06:00:04 6.4 C 6.71 g/m*3 6.4 C 0 km/h
2190 30-11-2009 06:12:04 6.4 C 6.71 g/m*3 6.4 C 0 km/h
2191 30-11-2009 06:24:04 6.2 C 6.55 g/m*3 6.2 C 0 km/h
2192 30-11-2009 06:36:04 6.2 C 6.55 g/m*3 6.2 C 0 km/h
2193 30-11-2009 06:48:04 6.1 C 6.5 g/m*3 6.1 C 0 km/h
2194 30-11-2009 07:00:04 6 C 6.39 g/m*3 6 C 0 km/h
2195 30-11-2009 07:12:02 6 C 6.39 g/m*3 6 C 0 km/h
2196 30-11-2009 07:24:02 6 C 6.31 g/m*3 6 C 0 km/h
2197 30-11-2009 07:36:02 5.9 C 6.42 g/m*3 5.9 C 0 km/h
2198 30-11-2009 07:48:02 5.9 C 6.42 g/m*3 5.9 C 0 km/h
2199 30-11-2009 08:00:02 5.8 C 6.45 g/m*3 5.8 C 0 km/h
2200 30-11-2009 08:12:01 5.8 C 6.45 g/m*3 5.8 C 0 km/h
Sensor: Nr:Datum:Temp:Abs-Feuchte:Windchill:Wind:
Aussen-T/F 2201 30-11-2009 08:24:01 5.6 C 6.29 g/m*3 5.6 C 0 km/h
2202 30-11-2009 08:36:02 5.5 C 6.32 g/m*3 5.5 C 0 km/h
2203 30-11-2009 08:48:02 5.6 C 6.36 g/m*3 5.6 C 0 km/h
2204 30-11-2009 09:00:02 5.9 C 6.56 g/m*3 5.9 C 0 km/h
2205 30-11-2009 09:12:02 6 C 6.53 g/m*3 6 C 0 km/h
2206 30-11-2009 09:24:02 6.2 C 6.55 g/m*3 6.2 C 0 km/h
2207 30-11-2009 09:36:02 6.3 C 6.59 g/m*3 6.3 C 0 km/h
2208 30-11-2009 09:48:03 6.4 C 6.63 g/m*3 6.4 C 0 km/h
2209 30-11-2009 10:00:03 6.4 C 6.56 g/m*3 6.4 C 0 km/h
2210 30-11-2009 10:12:02 6.5 C 6.37 g/m*3 6.5 C 0 km/h
2211 30-11-2009 10:24:02 6.7 C 6.38 g/m*3 6.7 C 0 km/h
2212 30-11-2009 10:36:02 7 C 6.43 g/m*3 7 C 0 km/h
2213 30-11-2009 10:48:02 7.1 C 6.47 g/m*3 7.1 C 0 km/h
2214 30-11-2009 11:00:02 7.3 C 6.4 g/m*3 7.3 C 0 km/h
2215 30-11-2009 11:12:02 7.4 C 6.28 g/m*3 7.4 C 0 km/h
2216 30-11-2009 11:24:02 7.3 C 6.08 g/m*3 7.3 C 0 km/h
2217 30-11-2009 11:36:01 7.4 C 6.12 g/m*3 7.4 C 0 km/h
2218 30-11-2009 11:48:02 7.5 C 6.16 g/m*3 7.5 C 0 km/h
2219 30-11-2009 12:00:02 7.6 C 6.12 g/m*3 7.6 C 0 km/h
2220 30-11-2009 12:12:01 7.6 C 6.04 g/m*3 7.6 C 0 km/h
2221 30-11-2009 12:24:02 7.8 C 6.04 g/m*3 7.8 C 0 km/h
2222 30-11-2009 12:36:01 8 C 6.04 g/m*3 8 C 0 km/h
2223 30-11-2009 12:48:02 8 C 5.87 g/m*3 8 C 0 km/h
2224 30-11-2009 13:00:02 7.9 C 5.91 g/m*3 7.9 C 0 km/h
2225 30-11-2009 13:12:02 8.2 C 5.95 g/m*3 8.2 C 0 km/h
Sensor: Nr:Datum:Temp:Abs-Feuchte:Windchill:Wind:
Aussen-T/F 2226 30-11-2009 13:24:02 8.1 C 5.82 g/m*3 8.1 C 0 km/h
2227 30-11-2009 13:36:03 8.1 C 5.74 g/m*3 8.1 C 0 km/h
2228 30-11-2009 13:48:02 8.2 C 5.69 g/m*3 8.2 C 0 km/h
2229 30-11-2009 14:00:02 8.3 C 5.65 g/m*3 8.3 C 0 km/h
2230 30-11-2009 14:12:01 8.4 C 5.68 g/m*3 8.4 C 0 km/h
2231 30-11-2009 14:24:02 8.3 C 5.65 g/m*3 8.3 C 0 km/h
2232 30-11-2009 14:36:02 8.3 C 5.73 g/m*3 8.3 C 0 km/h
2233 30-11-2009 14:48:02 8.3 C 5.65 g/m*3 8.3 C 0 km/h
2234 30-11-2009 15:00:02 8.1 C 5.66 g/m*3 8.1 C 0 km/h
2235 30-11-2009 15:12:03 8 C 5.7 g/m*3 8 C 0 km/h
2236 30-11-2009 15:24:02 7.9 C 5.75 g/m*3 7.9 C 0 km/h
2237 30-11-2009 15:36:02 7.8 C 5.88 g/m*3 7.8 C 0 km/h
2238 30-11-2009 15:48:01 7.6 C 5.8 g/m*3 7.6 C 0 km/h
2239 30-11-2009 16:00:01 7.3 C 5.77 g/m*3 7.3 C 0 km/h
2240 30-11-2009 16:12:02 7 C 5.81 g/m*3 7 C 0 km/h
2241 30-11-2009 16:24:01 6.6 C 5.89 g/m*3 6.6 C 0 km/h
2242 30-11-2009 16:36:02 6.3 C 5.85 g/m*3 6.3 C 0 km/h
2243 30-11-2009 16:48:02 6.1 C 5.84 g/m*3 6.1 C 0 km/h
2244 30-11-2009 17:00:02 6 C 5.88 g/m*3 6 C 0 km/h
2245 30-11-2009 17:12:02 5.9 C 5.91 g/m*3 5.9 C 0 km/h
2246 30-11-2009 17:24:01 6 C 5.95 g/m*3 6 C 0 km/h
2247 30-11-2009 17:36:02 6 C 5.95 g/m*3 6 C 0 km/h
2248 30-11-2009 17:48:02 6 C 5.95 g/m*3 6 C 0 km/h
2249 30-11-2009 18:00:02 6 C 6.02 g/m*3 6 C 0 km/h
2250 30-11-2009 18:12:02 6 C 6.02 g/m*3 6 C 0 km/h
Sensor: Nr:Datum:Temp:Abs-Feuchte:Windchill:Wind:
Aussen-T/F 2251 30-11-2009 18:24:01 5.9 C 6.06 g/m*3 5.9 C 0 km/h
2252 30-11-2009 18:36:02 6 C 6.02 g/m*3 6 C 0 km/h
2253 30-11-2009 18:48:02 6.1 C 6.06 g/m*3 6.1 C 0 km/h
2254 30-11-2009 19:00:02 6 C 6.02 g/m*3 6 C 0 km/h
2255 30-11-2009 19:12:02 6 C 6.02 g/m*3 6 C 0 km/h
2256 30-11-2009 19:24:01 5.9 C 6.06 g/m*3 5.9 C 0 km/h
2257 30-11-2009 19:36:02 5.9 C 6.13 g/m*3 5.9 C 0 km/h
2258 30-11-2009 19:48:01 5.9 C 6.13 g/m*3 5.9 C 0 km/h
2259 30-11-2009 20:00:01 5.9 C 6.13 g/m*3 5.9 C 0 km/h
2260 30-11-2009 20:12:02 5.9 C 6.13 g/m*3 5.9 C 0 km/h
2261 30-11-2009 20:24:02 5.9 C 6.13 g/m*3 5.9 C 0 km/h
2262 30-11-2009 20:36:02 5.9 C 6.13 g/m*3 5.9 C 0 km/h
2263 30-11-2009 20:48:02 5.7 C 6.05 g/m*3 5.7 C 0 km/h
2264 30-11-2009 21:00:02 5.7 C 6.05 g/m*3 5.7 C 0 km/h
2265 30-11-2009 21:12:02 5.6 C 6.01 g/m*3 5.6 C 0 km/h
2266 30-11-2009 21:24:02 5.6 C 6.08 g/m*3 5.6 C 0 km/h
2267 30-11-2009 21:36:01 5.5 C 6.04 g/m*3 5.5 C 0 km/h
2268 30-11-2009 21:48:02 5.5 C 6.04 g/m*3 5.5 C 0 km/h
2269 30-11-2009 22:00:02 5.4 C 6 g/m*3 5.4 C 0 km/h
2270 30-11-2009 22:12:02 5.4 C 6 g/m*3 5.4 C 0 km/h
2271 30-11-2009 22:24:02 5.3 C 6.03 g/m*3 5.3 C 0 km/h
2272 30-11-2009 22:36:01 5.3 C 6.03 g/m*3 5.3 C 0 km/h
2273 30-11-2009 22:48:01 5.2 C 5.99 g/m*3 5.2 C 0 km/h
2274 30-11-2009 23:00:01 5.2 C 5.99 g/m*3 5.2 C 0 km/h
2275 30-11-2009 23:12:01 5.4 C 6.07 g/m*3 5.4 C 0 km/h
Sensor: Nr:Datum:Temp:Abs-Feuchte:Windchill:Wind:
Aussen-T/F 2276 30-11-2009 23:24:02 5.5 C 6.11 g/m*3 5.5 C 0 km/h
2277 30-11-2009 23:36:01 5.4 C 6.07 g/m*3 5.4 C 0 km/h
2278 30-11-2009 23:48:02 5.5 C 6.18 g/m*3 5.5 C 0 km/h
2279 01-12-2009 00:00:02 5.5 C 6.18 g/m*3 5.5 C 0 km/h
2280 01-12-2009 00:12:01 5.6 C 6.15 g/m*3 5.6 C 0 km/h
2281 01-12-2009 00:24:01 5.6 C 6.15 g/m*3 5.6 C 0 km/h
2282 01-12-2009 00:36:02 5.6 C 6.15 g/m*3 5.6 C 0 km/h
2283 01-12-2009 00:48:02 5.6 C 6.15 g/m*3 5.6 C 0 km/h
2284 01-12-2009 01:00:02 5.5 C 6.11 g/m*3 5.5 C 0 km/h
2285 01-12-2009 01:12:02 5.5 C 6.11 g/m*3 5.5 C 0 km/h
2286 01-12-2009 01:24:02 5.5 C 6.11 g/m*3 5.5 C 0 km/h
2287 01-12-2009 01:36:02 5.5 C 6.11 g/m*3 5.5 C 0 km/h
2288 01-12-2009 01:48:02 5.4 C 6.07 g/m*3 5.4 C 0 km/h
2289 01-12-2009 02:00:02 5.4 C 6.14 g/m*3 5.4 C 0 km/h
2290 01-12-2009 02:12:02 5.4 C 6.14 g/m*3 5.4 C 0 km/h
2291 01-12-2009 02:24:02 5.4 C 6.14 g/m*3 5.4 C 0 km/h
2292 01-12-2009 02:36:02 5.4 C 6.07 g/m*3 5.4 C 0 km/h
2293 01-12-2009 02:48:01 5.4 C 6.07 g/m*3 5.4 C 0 km/h
2294 01-12-2009 03:00:01 5.3 C 6.03 g/m*3 5.3 C 0 km/h
2295 01-12-2009 03:12:01 5.3 C 5.96 g/m*3 5.3 C 0 km/h
2296 01-12-2009 03:24:02 5.3 C 5.89 g/m*3 5.3 C 0 km/h
2297 01-12-2009 03:36:01 5.3 C 5.89 g/m*3 5.3 C 0 km/h
2298 01-12-2009 03:48:01 5.2 C 5.78 g/m*3 5.2 C 0 km/h
2299 01-12-2009 04:00:01 5 C 5.71 g/m*3 5 C 0 km/h
2300 01-12-2009 04:12:02 4.9 C 5.81 g/m*3 4.9 C 0 km/h
Sensor: Nr:Datum:Temp:Abs-Feuchte:Windchill:Wind:
Aussen-T/F 2301 01-12-2009 04:24:01 4.8 C 5.77 g/m*3 4.8 C 0 km/h
2302 01-12-2009 04:36:01 4.7 C 5.73 g/m*3 4.7 C 0 km/h
2303 01-12-2009 04:48:01 4.7 C 5.73 g/m*3 4.7 C 0 km/h
2304 01-12-2009 05:00:01 4.9 C 5.87 g/m*3 4.9 C 0 km/h
2305 01-12-2009 05:12:02 4.9 C 5.94 g/m*3 4.9 C 0 km/h
2306 01-12-2009 05:24:01 5 C 5.91 g/m*3 5 C 0 km/h
2307 01-12-2009 05:36:01 5 C 5.91 g/m*3 5 C 0 km/h
2308 01-12-2009 05:48:01 5 C 5.91 g/m*3 5 C 0 km/h
2309 01-12-2009 06:00:01 5.1 C 5.95 g/m*3 5.1 C 0 km/h
2310 01-12-2009 06:12:01 5.1 C 5.95 g/m*3 5.1 C 0 km/h
2311 01-12-2009 06:24:02 5.1 C 5.95 g/m*3 5.1 C 0 km/h
2312 01-12-2009 06:36:01 5 C 5.91 g/m*3 5 C 0 km/h
2313 01-12-2009 06:48:02 5 C 5.91 g/m*3 5 C 0 km/h
2314 01-12-2009 07:00:02 5 C 5.91 g/m*3 5 C 0 km/h
2315 01-12-2009 07:12:01 5 C 5.98 g/m*3 5 C 0 km/h
2316 01-12-2009 07:24:02 5 C 5.98 g/m*3 5 C 0 km/h
2317 01-12-2009 07:36:01 5 C 5.98 g/m*3 5 C 0 km/h
2318 01-12-2009 07:48:02 4.9 C 5.94 g/m*3 4.9 C 0 km/h
2319 01-12-2009 08:00:02 4.8 C 5.9 g/m*3 4.8 C 0 km/h
2320 01-12-2009 08:12:01 4.8 C 5.9 g/m*3 4.8 C 0 km/h
2321 01-12-2009 08:24:01 4.8 C 5.97 g/m*3 4.8 C 0 km/h
2322 01-12-2009 08:36:01 4.9 C 6.01 g/m*3 4.9 C 0 km/h
2323 01-12-2009 08:48:02 4.9 C 6.01 g/m*3 4.9 C 0 km/h
2324 01-12-2009 09:00:02 5 C 5.98 g/m*3 5 C 0 km/h
2325 01-12-2009 09:12:01 5.1 C 6.02 g/m*3 5.1 C 0 km/h
Sensor: Nr:Datum:Temp:Abs-Feuchte:Windchill:Wind:
Aussen-T/F 2326 01-12-2009 09:24:01 5.2 C 6.06 g/m*3 5.2 C 0 km/h
2327 01-12-2009 09:36:02 5.3 C 6.1 g/m*3 5.3 C 0 km/h
2328 01-12-2009 09:48:01 5.4 C 6.14 g/m*3 5.4 C 0 km/h
2329 01-12-2009 10:00:01 5.5 C 6.11 g/m*3 5.5 C 0 km/h
2330 01-12-2009 10:12:02 5.6 C 6.15 g/m*3 5.6 C 0 km/h
2331 01-12-2009 10:24:01 5.7 C 6.12 g/m*3 5.7 C 0 km/h
2332 01-12-2009 10:36:02 5.7 C 6.12 g/m*3 5.7 C 0 km/h
2333 01-12-2009 10:48:01 5.8 C 6.09 g/m*3 5.8 C 0 km/h
2334 01-12-2009 11:00:01 6.1 C 6.06 g/m*3 6.1 C 0 km/h
2335 01-12-2009 11:12:02 6.3 C 6.07 g/m*3 6.3 C 0 km/h
2336 01-12-2009 11:24:01 6.3 C 6 g/m*3 6.3 C 0 km/h
2337 01-12-2009 11:36:01 6.4 C 6.04 g/m*3 6.4 C 0 km/h
2338 01-12-2009 11:48:01 6.6 C 5.96 g/m*3 6.6 C 0 km/h
2339 01-12-2009 12:00:01 6.7 C 5.85 g/m*3 6.7 C 0 km/h
2340 01-12-2009 12:12:01 6.8 C 5.89 g/m*3 6.8 C 0 km/h
2341 01-12-2009 12:24:01 6.8 C 5.81 g/m*3 6.8 C 0 km/h
2342 01-12-2009 12:36:01 6.9 C 5.85 g/m*3 6.9 C 0 km/h
2343 01-12-2009 12:48:01 6.9 C 5.77 g/m*3 6.9 C 0 km/h
2344 01-12-2009 13:00:01 6.9 C 5.77 g/m*3 6.9 C 0 km/h
2345 01-12-2009 13:12:01 6.9 C 5.77 g/m*3 6.9 C 0 km/h
2346 01-12-2009 13:24:02 6.9 C 5.77 g/m*3 6.9 C 0 km/h
2347 01-12-2009 13:36:01 6.9 C 5.7 g/m*3 6.9 C 0 km/h
2348 01-12-2009 13:48:02 6.9 C 5.77 g/m*3 6.9 C 0 km/h
2349 01-12-2009 14:00:02 6.8 C 5.74 g/m*3 6.8 C 0 km/h
2350 01-12-2009 14:12:01 6.8 C 5.81 g/m*3 6.8 C 0 km/h
Sensor: Nr:Datum:Temp:Abs-Feuchte:Windchill:Wind:
Aussen-T/F 2351 01-12-2009 14:24:02 6.8 C 5.74 g/m*3 6.8 C 0 km/h
2352 01-12-2009 14:36:01 6.8 C 5.81 g/m*3 6.8 C 0 km/h
2353 01-12-2009 14:48:02 6.8 C 5.81 g/m*3 6.8 C 0 km/h
2354 01-12-2009 15:00:02 6.7 C 5.85 g/m*3 6.7 C 0 km/h
2355 01-12-2009 15:12:01 6.6 C 5.89 g/m*3 6.6 C 0 km/h
2356 01-12-2009 15:24:01 6.6 C 5.89 g/m*3 6.6 C 0 km/h
2357 01-12-2009 15:36:01 6.5 C 5.85 g/m*3 6.5 C 0 km/h
2358 01-12-2009 15:48:02 6.5 C 5.85 g/m*3 6.5 C 0 km/h
2359 01-12-2009 16:00:02 6.4 C 5.81 g/m*3 6.4 C 0 km/h
2360 01-12-2009 16:12:01 6.3 C 5.85 g/m*3 6.3 C 0 km/h
2361 01-12-2009 16:24:01 6.2 C 5.81 g/m*3 6.2 C 0 km/h
2362 01-12-2009 16:36:02 6.1 C 5.77 g/m*3 6.1 C 0 km/h
2363 01-12-2009 16:48:01 6 C 5.81 g/m*3 6 C 0 km/h
2364 01-12-2009 17:00:01 5.9 C 5.84 g/m*3 5.9 C 0 km/h
2365 01-12-2009 17:12:02 5.9 C 5.84 g/m*3 5.9 C 0 km/h
2366 01-12-2009 17:24:01 5.9 C 5.84 g/m*3 5.9 C 0 km/h
2367 01-12-2009 17:36:02 5.8 C 5.87 g/m*3 5.8 C 0 km/h
2368 01-12-2009 17:48:01 5.8 C 5.87 g/m*3 5.8 C 0 km/h
2369 01-12-2009 18:00:01 5.8 C 5.87 g/m*3 5.8 C 0 km/h
2370 01-12-2009 18:12:02 5.7 C 5.91 g/m*3 5.7 C 0 km/h
2371 01-12-2009 18:24:01 5.8 C 5.95 g/m*3 5.8 C 0 km/h
2372 01-12-2009 18:36:02 5.7 C 5.91 g/m*3 5.7 C 0 km/h
2373 01-12-2009 18:48:02 5.7 C 5.91 g/m*3 5.7 C 0 km/h
2374 01-12-2009 19:00:02 5.7 C 5.91 g/m*3 5.7 C 0 km/h
2375 01-12-2009 19:12:01 5.6 C 5.87 g/m*3 5.6 C 0 km/h
Sensor: Nr:Datum:Temp:Abs-Feuchte:Windchill:Wind:
Aussen-T/F 2376 01-12-2009 19:24:02 5.6 C 5.87 g/m*3 5.6 C 0 km/h
2377 01-12-2009 19:36:01 5.6 C 5.87 g/m*3 5.6 C 0 km/h
2378 01-12-2009 19:48:02 5.7 C 5.91 g/m*3 5.7 C 0 km/h
2379 01-12-2009 20:00:02 5.6 C 5.87 g/m*3 5.6 C 0 km/h
2380 01-12-2009 20:12:01 5.6 C 5.87 g/m*3 5.6 C 0 km/h
2381 01-12-2009 20:24:02 5.5 C 5.83 g/m*3 5.5 C 0 km/h
2382 01-12-2009 20:36:01 5.5 C 5.83 g/m*3 5.5 C 0 km/h
2383 01-12-2009 20:48:02 5.5 C 5.83 g/m*3 5.5 C 0 km/h
2384 01-12-2009 21:00:02 5.5 C 5.9 g/m*3 5.5 C 0 km/h
2385 01-12-2009 21:12:01 5.5 C 5.9 g/m*3 5.5 C 0 km/h
2386 01-12-2009 21:24:01 5.4 C 5.86 g/m*3 5.4 C 0 km/h
2387 01-12-2009 21:36:02 5.4 C 5.86 g/m*3 5.4 C 0 km/h
2388 01-12-2009 21:48:01 5.4 C 5.93 g/m*3 5.4 C 0 km/h
2389 01-12-2009 22:00:01 5.6 C 6.01 g/m*3 5.6 C 0 km/h
2390 01-12-2009 22:12:02 5.5 C 5.97 g/m*3 5.5 C 0 km/h
2391 01-12-2009 22:25:05 5.4 C 5.93 g/m*3 5.4 C 0 km/h
2392 01-12-2009 22:37:05 5.3 C 5.89 g/m*3 5.3 C 0 km/h
2393 01-12-2009 22:49:05 5.3 C 5.89 g/m*3 5.3 C 0 km/h
2394 01-12-2009 23:01:05 5.2 C 5.78 g/m*3 5.2 C 0 km/h
2395 01-12-2009 23:13:05 5.2 C 5.78 g/m*3 5.2 C 0 km/h
2396 01-12-2009 23:25:05 5.2 C 5.78 g/m*3 5.2 C 0 km/h
2397 01-12-2009 23:37:05 5.2 C 5.78 g/m*3 5.2 C 0 km/h
2398 01-12-2009 23:49:05 5.2 C 5.71 g/m*3 5.2 C 0 km/h
2399 02-12-2009 00:01:06 5.2 C 5.65 g/m*3 5.2 C 0 km/h
2400 02-12-2009 00:13:06 5.2 C 5.65 g/m*3 5.2 C 0 km/h
Sensor: Nr:Datum:Temp:Abs-Feuchte:Windchill:Wind:
Aussen-T/F 2401 02-12-2009 00:25:06 5.2 C 5.58 g/m*3 5.2 C 0 km/h
2402 02-12-2009 00:37:06 5.2 C 5.58 g/m*3 5.2 C 0 km/h
2403 02-12-2009 00:49:06 5 C 5.44 g/m*3 5 C 0 km/h
2404 02-12-2009 01:01:06 4.8 C 5.43 g/m*3 4.8 C 0 km/h
2405 02-12-2009 01:13:06 4.7 C 5.46 g/m*3 4.7 C 0 km/h
2406 02-12-2009 01:25:06 4.6 C 5.49 g/m*3 4.6 C 0 km/h
2407 02-12-2009 01:37:06 4.5 C 5.52 g/m*3 4.5 C 0 km/h
2408 02-12-2009 01:49:06 4.3 C 5.45 g/m*3 4.3 C 0 km/h
2409 02-12-2009 02:01:06 4.4 C 5.55 g/m*3 4.4 C 0 km/h
2410 02-12-2009 02:13:06 4.6 C 5.62 g/m*3 4.6 C 0 km/h
2411 02-12-2009 02:25:06 4.7 C 5.66 g/m*3 4.7 C 0 km/h
2412 02-12-2009 02:37:06 4.7 C 5.66 g/m*3 4.7 C 0 km/h
2413 02-12-2009 02:49:06 4.8 C 5.77 g/m*3 4.8 C 0 km/h
2414 02-12-2009 03:01:06 4.9 C 5.81 g/m*3 4.9 C 0 km/h
2415 02-12-2009 03:13:06 4.7 C 5.73 g/m*3 4.7 C 0 km/h
2416 02-12-2009 03:25:06 4.7 C 5.8 g/m*3 4.7 C 0 km/h
2417 02-12-2009 03:37:06 4.8 C 5.83 g/m*3 4.8 C 0 km/h
2418 02-12-2009 03:49:06 5 C 5.84 g/m*3 5 C 0 km/h
2419 02-12-2009 04:01:07 4.9 C 5.87 g/m*3 4.9 C 0 km/h
2420 02-12-2009 04:13:07 4.9 C 5.87 g/m*3 4.9 C 0 km/h
2421 02-12-2009 04:25:07 4.9 C 5.87 g/m*3 4.9 C 0 km/h
2422 02-12-2009 04:37:07 4.9 C 5.94 g/m*3 4.9 C 0 km/h
2423 02-12-2009 04:49:07 5 C 5.91 g/m*3 5 C 0 km/h
2424 02-12-2009 05:01:07 5 C 5.91 g/m*3 5 C 0 km/h
2425 02-12-2009 05:13:07 5 C 5.91 g/m*3 5 C 0 km/h
Sensor: Nr:Datum:Temp:Abs-Feuchte:Windchill:Wind:
Aussen-T/F 2426 02-12-2009 05:25:07 4.8 C 5.83 g/m*3 4.8 C 0 km/h
2427 02-12-2009 05:37:07 4.8 C 5.83 g/m*3 4.8 C 0 km/h
2428 02-12-2009 05:49:07 4.8 C 5.83 g/m*3 4.8 C 0 km/h
2429 02-12-2009 06:01:05 4.8 C 5.83 g/m*3 4.8 C 0 km/h
2430 02-12-2009 06:13:05 5 C 5.91 g/m*3 5 C 0 km/h
2431 02-12-2009 06:25:05 4.9 C 5.87 g/m*3 4.9 C 0 km/h
2432 02-12-2009 06:37:05 5 C 5.91 g/m*3 5 C 0 km/h
2433 02-12-2009 06:49:01 5 C 5.91 g/m*3 5 C 0 km/h
2434 02-12-2009 07:01:02 4.9 C 5.94 g/m*3 4.9 C 0 km/h
2435 02-12-2009 07:13:02 5 C 5.91 g/m*3 5 C 0 km/h
2436 02-12-2009 07:25:01 5.1 C 5.95 g/m*3 5.1 C 0 km/h
2437 02-12-2009 07:37:01 5.2 C 5.99 g/m*3 5.2 C 0 km/h
2438 02-12-2009 07:49:01 5.2 C 5.99 g/m*3 5.2 C 0 km/h
2439 02-12-2009 08:01:01 4.8 C 5.83 g/m*3 4.8 C 0 km/h
2440 02-12-2009 08:13:01 4.8 C 5.83 g/m*3 4.8 C 0 km/h
2441 02-12-2009 08:25:02 4.6 C 5.82 g/m*3 4.6 C 0 km/h
2442 02-12-2009 08:37:01 4.7 C 5.86 g/m*3 4.7 C 0 km/h
2443 02-12-2009 08:49:02 4.7 C 5.8 g/m*3 4.7 C 0 km/h
2444 02-12-2009 09:01:01 4.6 C 5.76 g/m*3 4.6 C 0 km/h
2445 02-12-2009 09:13:01 4.6 C 5.76 g/m*3 4.6 C 0 km/h
2446 02-12-2009 09:25:02 4.5 C 5.65 g/m*3 4.5 C 0 km/h
2447 02-12-2009 09:37:01 4.5 C 5.65 g/m*3 4.5 C 0 km/h
2448 02-12-2009 09:49:02 4.5 C 5.65 g/m*3 4.5 C 0 km/h
2449 02-12-2009 10:01:02 4.7 C 5.66 g/m*3 4.7 C 0 km/h
2450 02-12-2009 10:13:02 4.9 C 5.54 g/m*3 4.9 C 0 km/h
Sensor: Nr:Datum:Temp:Abs-Feuchte:Windchill:Wind:
Aussen-T/F 2451 02-12-2009 10:25:02 5.2 C 5.23 g/m*3 5.2 C 0 km/h
2452 02-12-2009 10:37:02 5.2 C 5.1 g/m*3 5.2 C 0 km/h
2453 02-12-2009 10:49:02 5.2 C 5.03 g/m*3 5.2 C 0 km/h
2454 02-12-2009 11:01:01 5.3 C 4.99 g/m*3 5.3 C 0 km/h
2455 02-12-2009 11:13:01 5.5 C 5.06 g/m*3 5.5 C 0 km/h
2456 02-12-2009 11:25:02 5.8 C 4.8 g/m*3 5.8 C 0 km/h
2457 02-12-2009 11:37:02 5.7 C 4.84 g/m*3 5.7 C 0 km/h
2458 02-12-2009 11:49:02 5.9 C 4.61 g/m*3 5.9 C 0 km/h
2459 02-12-2009 12:01:02 6.2 C 4.41 g/m*3 6.2 C 0 km/h
2460 02-12-2009 12:13:02 6.8 C 4.44 g/m*3 6.8 C 0 km/h
2461 02-12-2009 12:25:02 7.2 C 4.32 g/m*3 7.2 C 0 km/h
2462 02-12-2009 12:37:03 7.5 C 4.4 g/m*3 7.5 C 0 km/h
2463 02-12-2009 12:49:02 7.6 C 4.27 g/m*3 7.6 C 0 km/h
2464 02-12-2009 13:01:02 7.6 C 4.27 g/m*3 7.6 C 0 km/h
2465 02-12-2009 13:13:02 7.7 C 4.3 g/m*3 7.7 C 0 km/h
2466 02-12-2009 13:25:02 7.7 C 4.22 g/m*3 7.7 C 0 km/h
2467 02-12-2009 13:37:02 7.9 C 4.35 g/m*3 7.9 C 0 km/h
2468 02-12-2009 13:49:02 7.8 C 4.24 g/m*3 7.8 C 0 km/h
2469 02-12-2009 14:01:02 8 C 4.38 g/m*3 8 C 0 km/h
2470 02-12-2009 14:13:02 8 C 4.3 g/m*3 8 C 0 km/h
2471 02-12-2009 14:25:02 7.8 C 4.24 g/m*3 7.8 C 0 km/h
2472 02-12-2009 14:37:02 7.8 C 4.33 g/m*3 7.8 C 0 km/h
2473 02-12-2009 14:49:02 7.8 C 4.33 g/m*3 7.8 C 0 km/h
2474 02-12-2009 15:01:02 7.7 C 4.3 g/m*3 7.7 C 0 km/h
2475 02-12-2009 15:13:02 7.7 C 4.38 g/m*3 7.7 C 0 km/h
Sensor: Nr:Datum:Temp:Abs-Feuchte:Windchill:Wind:
Aussen-T/F 2476 02-12-2009 15:25:02 7.6 C 4.27 g/m*3 7.6 C 0 km/h
2477 02-12-2009 15:37:02 7.6 C 4.19 g/m*3 7.6 C 0 km/h
2478 02-12-2009 15:49:02 7.5 C 4.24 g/m*3 7.5 C 0 km/h
2479 02-12-2009 16:01:02 7.4 C 4.21 g/m*3 7.4 C 0 km/h
2480 02-12-2009 16:13:02 7.3 C 4.19 g/m*3 7.3 C 0 km/h
2481 02-12-2009 16:25:02 7 C 4.26 g/m*3 7 C 0 km/h
2482 02-12-2009 16:37:02 6.9 C 4.39 g/m*3 6.9 C 0 km/h
2483 02-12-2009 16:49:02 6.8 C 4.44 g/m*3 6.8 C 0 km/h
2484 02-12-2009 17:01:02 6.9 C 4.46 g/m*3 6.9 C 0 km/h
2485 02-12-2009 17:13:02 6.8 C 4.51 g/m*3 6.8 C 0 km/h
2486 02-12-2009 17:25:03 6.6 C 4.53 g/m*3 6.6 C 0 km/h
2487 02-12-2009 17:37:02 6.5 C 4.5 g/m*3 6.5 C 0 km/h
2488 02-12-2009 17:49:02 6.5 C 4.57 g/m*3 6.5 C 0 km/h
2489 02-12-2009 18:01:02 6.5 C 4.65 g/m*3 6.5 C 0 km/h
2490 02-12-2009 18:13:02 6.5 C 4.65 g/m*3 6.5 C 0 km/h
2491 02-12-2009 18:25:02 6.4 C 4.62 g/m*3 6.4 C 0 km/h
2492 02-12-2009 18:37:02 6.5 C 4.65 g/m*3 6.5 C 0 km/h
2493 02-12-2009 18:49:02 6.4 C 4.69 g/m*3 6.4 C 0 km/h
2494 02-12-2009 19:01:01 6.4 C 4.77 g/m*3 6.4 C 0 km/h
2495 02-12-2009 19:13:01 6.5 C 4.8 g/m*3 6.5 C 0 km/h
2496 02-12-2009 19:25:02 6.7 C 4.79 g/m*3 6.7 C 0 km/h
2497 02-12-2009 19:37:01 6.6 C 4.83 g/m*3 6.6 C 0 km/h
2498 02-12-2009 19:49:02 6.6 C 4.98 g/m*3 6.6 C 0 km/h
2499 02-12-2009 20:01:01 6.4 C 4.99 g/m*3 6.4 C 0 km/h
2500 02-12-2009 20:13:01 6.5 C 5.02 g/m*3 6.5 C 0 km/h
Sensor: Nr:Datum:Temp:Abs-Feuchte:Windchill:Wind:
Aussen-T/F 2501 02-12-2009 20:25:01 6.6 C 5.06 g/m*3 6.6 C 0 km/h
2502 02-12-2009 20:37:02 6.6 C 5.06 g/m*3 6.6 C 0 km/h
2503 02-12-2009 20:49:02 6.7 C 5.09 g/m*3 6.7 C 0 km/h
2504 02-12-2009 21:01:02 6.8 C 5.12 g/m*3 6.8 C 0 km/h
2505 02-12-2009 21:13:02 6.9 C 5.16 g/m*3 6.9 C 0 km/h
2506 02-12-2009 21:25:02 7 C 5.04 g/m*3 7 C 0 km/h
2507 02-12-2009 21:37:02 6.9 C 5.08 g/m*3 6.9 C 0 km/h
2508 02-12-2009 21:49:02 7 C 5.04 g/m*3 7 C 0 km/h
2509 02-12-2009 22:01:02 7 C 5.11 g/m*3 7 C 0 km/h
2510 02-12-2009 22:13:02 6.9 C 5.23 g/m*3 6.9 C 0 km/h
2511 02-12-2009 22:26:02 7 C 5.19 g/m*3 7 C 0 km/h
2512 02-12-2009 22:38:02 7 C 5.19 g/m*3 7 C 0 km/h
2513 02-12-2009 22:50:02 6.9 C 5.31 g/m*3 6.9 C 0 km/h
2514 02-12-2009 23:02:02 6.8 C 5.28 g/m*3 6.8 C 0 km/h
2515 02-12-2009 23:14:02 6.7 C 5.32 g/m*3 6.7 C 0 km/h
2516 02-12-2009 23:26:02 6.6 C 5.36 g/m*3 6.6 C 0 km/h
2517 02-12-2009 23:38:02 6.4 C 5.36 g/m*3 6.4 C 0 km/h
2518 02-12-2009 23:50:02 6.4 C 5.36 g/m*3 6.4 C 0 km/h
2519 03-12-2009 00:02:03 6.6 C 5.44 g/m*3 6.6 C 0 km/h
2520 03-12-2009 00:14:03 6.7 C 5.47 g/m*3 6.7 C 0 km/h
2521 03-12-2009 00:26:03 6.8 C 5.51 g/m*3 6.8 C 0 km/h
2522 03-12-2009 00:38:03 7 C 5.35 g/m*3 7 C 0 km/h
2523 03-12-2009 00:50:03 7.1 C 5.3 g/m*3 7.1 C 0 km/h
2524 03-12-2009 01:02:03 7.1 C 5.3 g/m*3 7.1 C 0 km/h
2525 03-12-2009 01:14:03 7.2 C 5.34 g/m*3 7.2 C 0 km/h
Sensor: Nr:Datum:Temp:Abs-Feuchte:Windchill:Wind:
Aussen-T/F 2526 03-12-2009 01:26:03 7.2 C 5.34 g/m*3 7.2 C 0 km/h
2527 03-12-2009 01:38:03 7.1 C 5.3 g/m*3 7.1 C 0 km/h
2528 03-12-2009 01:50:03 7 C 5.19 g/m*3 7 C 0 km/h
2529 03-12-2009 02:02:03 7.1 C 5.23 g/m*3 7.1 C 0 km/h
2530 03-12-2009 02:14:03 7.1 C 5.3 g/m*3 7.1 C 0 km/h
2531 03-12-2009 02:26:03 7.2 C 5.26 g/m*3 7.2 C 0 km/h
2532 03-12-2009 02:38:03 7.3 C 5.29 g/m*3 7.3 C 0 km/h
2533 03-12-2009 02:50:03 7.5 C 5.28 g/m*3 7.5 C 0 km/h
2534 03-12-2009 03:02:03 7.4 C 5.25 g/m*3 7.4 C 0 km/h
2535 03-12-2009 03:14:03 7.4 C 5.41 g/m*3 7.4 C 0 km/h
2536 03-12-2009 03:26:03 7.3 C 5.45 g/m*3 7.3 C 0 km/h
2537 03-12-2009 03:38:03 7.5 C 5.68 g/m*3 7.5 C 0 km/h
2538 03-12-2009 03:50:03 7.7 C 5.68 g/m*3 7.7 C 0 km/h
2539 03-12-2009 04:02:03 7.8 C 5.79 g/m*3 7.8 C 0 km/h
2540 03-12-2009 04:14:04 7.9 C 5.83 g/m*3 7.9 C 0 km/h
2541 03-12-2009 04:26:04 8.1 C 5.82 g/m*3 8.1 C 0 km/h
2542 03-12-2009 04:38:04 8.1 C 5.82 g/m*3 8.1 C 0 km/h
2543 03-12-2009 04:50:04 7.8 C 5.96 g/m*3 7.8 C 0 km/h
2544 03-12-2009 05:02:04 7.5 C 6.08 g/m*3 7.5 C 0 km/h
2545 03-12-2009 05:14:04 7.3 C 6.24 g/m*3 7.3 C 0 km/h
2546 03-12-2009 05:26:04 7.4 C 6.28 g/m*3 7.4 C 0 km/h
2547 03-12-2009 05:38:04 7.6 C 6.36 g/m*3 7.6 C 0 km/h
2548 03-12-2009 05:50:04 7.6 C 6.36 g/m*3 7.6 C 0 km/h
2549 03-12-2009 06:02:04 7.8 C 6.45 g/m*3 7.8 C 0 km/h
2550 03-12-2009 06:14:04 8 C 6.37 g/m*3 8 C 0 km/h
Sensor: Nr:Datum:Temp:Abs-Feuchte:Windchill:Wind:
Aussen-T/F 2551 03-12-2009 06:26:04 7.9 C 6.32 g/m*3 7.9 C 0 km/h
2552 03-12-2009 06:38:04 7.9 C 6.32 g/m*3 7.9 C 0 km/h
2553 03-12-2009 06:50:04 7.7 C 6.24 g/m*3 7.7 C 0 km/h
2554 03-12-2009 07:02:02 7.6 C 6.28 g/m*3 7.6 C 0 km/h
2555 03-12-2009 07:14:02 7.5 C 6.24 g/m*3 7.5 C 0 km/h
2556 03-12-2009 07:26:01 7.4 C 6.28 g/m*3 7.4 C 0 km/h
2557 03-12-2009 07:38:02 7.5 C 6.32 g/m*3 7.5 C 0 km/h
2558 03-12-2009 07:50:02 7.5 C 6.32 g/m*3 7.5 C 0 km/h
2559 03-12-2009 08:02:02 7.6 C 6.2 g/m*3 7.6 C 0 km/h
2560 03-12-2009 08:14:02 7.7 C 6.32 g/m*3 7.7 C 0 km/h
2561 03-12-2009 08:26:02 7.7 C 6.32 g/m*3 7.7 C 0 km/h
2562 03-12-2009 08:38:02 8 C 6.28 g/m*3 8 C 0 km/h
2563 03-12-2009 08:50:02 8.2 C 6.2 g/m*3 8.2 C 0 km/h
2564 03-12-2009 09:02:02 8.2 C 6.36 g/m*3 8.2 C 0 km/h
2565 03-12-2009 09:14:02 7.9 C 6.41 g/m*3 7.9 C 0 km/h
2566 03-12-2009 09:26:02 7.9 C 6.49 g/m*3 7.9 C 0 km/h
2567 03-12-2009 09:38:02 8.1 C 6.49 g/m*3 8.1 C 0 km/h
2568 03-12-2009 09:50:02 8.4 C 6.53 g/m*3 8.4 C 0 km/h
2569 03-12-2009 10:02:02 8.5 C 6.49 g/m*3 8.5 C 0 km/h
2570 03-12-2009 10:14:02 8.9 C 6.39 g/m*3 8.9 C 0 km/h
2571 03-12-2009 10:26:02 9.2 C 6.43 g/m*3 9.2 C 0 km/h
2572 03-12-2009 10:38:02 9.5 C 6.46 g/m*3 9.5 C 0 km/h
2573 03-12-2009 10:50:02 9.6 C 6.41 g/m*3 9.6 C 0 km/h
2574 03-12-2009 11:02:02 9.8 C 6.4 g/m*3 9.8 C 0 km/h
2575 03-12-2009 11:14:02 10.1 C 6.34 g/m*3 10.1 C 0 km/h
Sensor: Nr:Datum:Temp:Abs-Feuchte:Windchill:Wind:
Aussen-T/F 2576 03-12-2009 11:26:02 10.3 C 6.42 g/m*3 10.3 C 0 km/h
2577 03-12-2009 11:38:02 10.3 C 6.32 g/m*3 10.3 C 0 km/h
2578 03-12-2009 11:50:02 10 C 6.2 g/m*3 10 C 0 km/h
2579 03-12-2009 12:02:01 10 C 6.2 g/m*3 10 C 0 km/h
2580 03-12-2009 12:14:01 10.3 C 6.22 g/m*3 10.3 C 0 km/h
2581 03-12-2009 12:26:02 10.5 C 6.21 g/m*3 10.5 C 0 km/h
2582 03-12-2009 12:38:01 10.6 C 6.25 g/m*3 10.6 C 0 km/h
2583 03-12-2009 12:50:02 10.5 C 6.21 g/m*3 10.5 C 0 km/h
2584 03-12-2009 13:02:01 10.4 C 6.17 g/m*3 10.4 C 0 km/h
2585 03-12-2009 13:14:01 10.6 C 6.25 g/m*3 10.6 C 0 km/h
2586 03-12-2009 13:26:01 10.6 C 6.15 g/m*3 10.6 C 0 km/h
2587 03-12-2009 13:38:02 10.5 C 6.21 g/m*3 10.5 C 0 km/h
2588 03-12-2009 13:50:02 10.6 C 6.15 g/m*3 10.6 C 0 km/h
2589 03-12-2009 14:02:02 10.4 C 6.17 g/m*3 10.4 C 0 km/h
2590 03-12-2009 14:14:02 10.6 C 6.15 g/m*3 10.6 C 0 km/h
2591 03-12-2009 14:26:02 10.6 C 6.15 g/m*3 10.6 C 0 km/h
2592 03-12-2009 14:38:02 10.4 C 6.07 g/m*3 10.4 C 0 km/h
2593 03-12-2009 14:50:01 10.3 C 6.13 g/m*3 10.3 C 0 km/h
2594 03-12-2009 15:02:02 9.9 C 6.35 g/m*3 9.9 C 0 km/h
2595 03-12-2009 15:14:02 9.9 C 6.35 g/m*3 9.9 C 0 km/h
2596 03-12-2009 15:26:01 9.8 C 6.31 g/m*3 9.8 C 0 km/h
2597 03-12-2009 15:38:02 9.6 C 6.23 g/m*3 9.6 C 0 km/h
2598 03-12-2009 15:50:02 9.4 C 6.24 g/m*3 9.4 C 0 km/h
2599 03-12-2009 16:02:02 9.3 C 6.2 g/m*3 9.3 C 0 km/h
2600 03-12-2009 16:14:02 9.3 C 6.2 g/m*3 9.3 C 0 km/h
Sensor: Nr:Datum:Temp:Abs-Feuchte:Windchill:Wind:
Aussen-T/F 2601 03-12-2009 16:26:01 9.4 C 6.15 g/m*3 9.4 C 0 km/h
2602 03-12-2009 16:38:02 9.4 C 6.15 g/m*3 9.4 C 0 km/h
2603 03-12-2009 16:50:02 9.5 C 6.19 g/m*3 9.5 C 0 km/h
2604 03-12-2009 17:02:02 9.2 C 6.16 g/m*3 9.2 C 0 km/h
2605 03-12-2009 17:14:02 9.4 C 6.15 g/m*3 9.4 C 0 km/h
2606 03-12-2009 17:26:01 9.5 C 6.19 g/m*3 9.5 C 0 km/h
2607 03-12-2009 17:38:02 9.5 C 6.19 g/m*3 9.5 C 0 km/h
2608 03-12-2009 17:50:02 8.9 C 6.31 g/m*3 8.9 C 0 km/h
2609 03-12-2009 18:02:02 8.5 C 6.4 g/m*3 8.5 C 0 km/h
2610 03-12-2009 18:14:02 8.7 C 6.49 g/m*3 8.7 C 0 km/h
2611 03-12-2009 18:26:02 8.7 C 6.49 g/m*3 8.7 C 0 km/h
2612 03-12-2009 18:38:02 8.8 C 6.53 g/m*3 8.8 C 0 km/h
2613 03-12-2009 18:50:02 8.9 C 6.48 g/m*3 8.9 C 0 km/h
2614 03-12-2009 19:02:02 8.9 C 6.48 g/m*3 8.9 C 0 km/h
2615 03-12-2009 19:14:02 8.7 C 6.31 g/m*3 8.7 C 0 km/h
2616 03-12-2009 19:26:02 9.1 C 6.21 g/m*3 9.1 C 0 km/h
2617 03-12-2009 19:38:02 9.4 C 6.15 g/m*3 9.4 C 0 km/h
2618 03-12-2009 19:50:02 9.3 C 6.02 g/m*3 9.3 C 0 km/h
2619 03-12-2009 20:02:01 9.2 C 5.98 g/m*3 9.2 C 0 km/h
2620 03-12-2009 20:14:01 9.2 C 5.98 g/m*3 9.2 C 0 km/h
2621 03-12-2009 20:26:02 9.1 C 5.94 g/m*3 9.1 C 0 km/h
2622 03-12-2009 20:38:01 9.2 C 5.98 g/m*3 9.2 C 0 km/h
2623 03-12-2009 20:50:02 9 C 5.91 g/m*3 9 C 0 km/h
2624 03-12-2009 21:02:01 8.8 C 5.92 g/m*3 8.8 C 0 km/h
2625 03-12-2009 21:14:01 8.9 C 5.96 g/m*3 8.9 C 0 km/h
Sensor: Nr:Datum:Temp:Abs-Feuchte:Windchill:Wind:
Aussen-T/F 2626 03-12-2009 21:26:02 8.6 C 5.93 g/m*3 8.6 C 0 km/h
2627 03-12-2009 21:38:01 8.3 C 5.9 g/m*3 8.3 C 0 km/h
2628 03-12-2009 21:51:03 8.3 C 5.98 g/m*3 8.3 C 0 km/h
2629 03-12-2009 22:03:03 8.5 C 6.06 g/m*3 8.5 C 0 km/h
2630 03-12-2009 22:15:03 8.2 C 5.95 g/m*3 8.2 C 0 km/h
2631 03-12-2009 22:27:03 8.2 C 6.03 g/m*3 8.2 C 0 km/h
2632 03-12-2009 22:39:03 8.5 C 6.06 g/m*3 8.5 C 0 km/h
2633 03-12-2009 22:51:03 8 C 6.04 g/m*3 8 C 0 km/h
2634 03-12-2009 23:03:03 7 C 6.04 g/m*3 7 C 0 km/h
2635 03-12-2009 23:15:03 6.8 C 6.12 g/m*3 6.8 C 0 km/h
2636 03-12-2009 23:27:03 6.6 C 6.11 g/m*3 6.6 C 0 km/h
2637 03-12-2009 23:39:03 6.5 C 5.92 g/m*3 6.5 C 0 km/h
2638 03-12-2009 23:51:03 6.5 C 5.77 g/m*3 6.5 C 0 km/h
2639 04-12-2009 00:03:03 6.6 C 5.51 g/m*3 6.6 C 0 km/h
2640 04-12-2009 00:15:03 6.7 C 5.47 g/m*3 6.7 C 0 km/h
2641 04-12-2009 00:27:03 6.8 C 5.43 g/m*3 6.8 C 0 km/h
2642 04-12-2009 00:39:03 6.7 C 5.32 g/m*3 6.7 C 0 km/h
2643 04-12-2009 00:51:03 6.6 C 5.28 g/m*3 6.6 C 0 km/h
2644 04-12-2009 01:03:03 6.4 C 5.22 g/m*3 6.4 C 0 km/h
2645 04-12-2009 01:15:03 6.2 C 5.22 g/m*3 6.2 C 0 km/h
2646 04-12-2009 01:27:03 6.3 C 5.26 g/m*3 6.3 C 0 km/h
2647 04-12-2009 01:39:03 6.2 C 5.07 g/m*3 6.2 C 0 km/h
2648 04-12-2009 01:51:03 6.2 C 4.71 g/m*3 6.2 C 0 km/h
2649 04-12-2009 02:03:04 6.2 C 4.78 g/m*3 6.2 C 0 km/h
2650 04-12-2009 02:15:04 6.2 C 5 g/m*3 6.2 C 0 km/h
Sensor: Nr:Datum:Temp:Abs-Feuchte:Windchill:Wind:
Aussen-T/F 2651 04-12-2009 02:27:04 5.6 C 5.16 g/m*3 5.6 C 0 km/h
2652 04-12-2009 02:39:04 5.6 C 5.23 g/m*3 5.6 C 0 km/h
2653 04-12-2009 02:51:04 5.6 C 5.16 g/m*3 5.6 C 0 km/h
2654 04-12-2009 03:03:04 5.6 C 5.16 g/m*3 5.6 C 0 km/h
2655 04-12-2009 03:15:04 5.5 C 5.2 g/m*3 5.5 C 0 km/h
2656 04-12-2009 03:27:04 5.4 C 5.16 g/m*3 5.4 C 0 km/h
2657 04-12-2009 03:39:04 5.4 C 5.16 g/m*3 5.4 C 0 km/h
2658 04-12-2009 03:51:04 5.4 C 5.16 g/m*3 5.4 C 0 km/h
2659 04-12-2009 04:03:04 5.5 C 5.2 g/m*3 5.5 C 0 km/h
2660 04-12-2009 04:15:04 5.4 C 4.81 g/m*3 5.4 C 0 km/h
2661 04-12-2009 04:27:04 5 C 4.62 g/m*3 5 C 0 km/h
2662 04-12-2009 04:39:04 4.8 C 4.63 g/m*3 4.8 C 0 km/h
2663 04-12-2009 04:51:04 4.6 C 4.5 g/m*3 4.6 C 0 km/h
2664 04-12-2009 05:03:04 4.3 C 4.48 g/m*3 4.3 C 0 km/h
2665 04-12-2009 05:15:04 4 C 4.51 g/m*3 4 C 0 km/h
2666 04-12-2009 05:27:04 3.7 C 4.49 g/m*3 3.7 C 0 km/h
2667 04-12-2009 05:39:04 3.4 C 4.52 g/m*3 3.4 C 0 km/h
2668 04-12-2009 05:51:04 3.1 C 4.49 g/m*3 3.1 C 0 km/h
2669 04-12-2009 06:03:04 3.2 C 4.64 g/m*3 3.2 C 0 km/h
2670 04-12-2009 06:15:02 3.3 C 4.67 g/m*3 3.3 C 0 km/h
2671 04-12-2009 06:27:02 3.1 C 4.61 g/m*3 3.1 C 0 km/h
2672 04-12-2009 06:39:02 3.1 C 4.67 g/m*3 3.1 C 0 km/h
2673 04-12-2009 06:51:02 3.4 C 4.76 g/m*3 3.4 C 0 km/h
2674 04-12-2009 07:03:02 3.9 C 4.74 g/m*3 3.9 C 0 km/h
2675 04-12-2009 07:15:03 4.1 C 4.61 g/m*3 4.1 C 0 km/h
Sensor: Nr:Datum:Temp:Abs-Feuchte:Windchill:Wind:
Aussen-T/F 2676 04-12-2009 07:27:03 4.1 C 4.54 g/m*3 4.1 C 0 km/h
2677 04-12-2009 07:39:02 3.4 C 4.46 g/m*3 3.4 C 0 km/h
2678 04-12-2009 07:51:01 3.1 C 4.43 g/m*3 3.1 C 0 km/h
2679 04-12-2009 08:03:01 2.8 C 4.46 g/m*3 2.8 C 0 km/h
2680 04-12-2009 08:15:01 2.7 C 4.49 g/m*3 2.7 C 0 km/h
2681 04-12-2009 08:27:01 3 C 4.58 g/m*3 3 C 0 km/h
2682 04-12-2009 08:39:00 3.3 C 4.67 g/m*3 3.3 C 0 km/h
2683 04-12-2009 08:51:03 3.6 C 4.7 g/m*3 3.6 C 0 km/h
2684 04-12-2009 09:03:02 3.8 C 4.64 g/m*3 3.8 C 0 km/h
2685 04-12-2009 09:15:02 3.9 C 4.61 g/m*3 3.9 C 0 km/h
2686 04-12-2009 09:27:03 4.1 C 4.54 g/m*3 4.1 C 0 km/h
2687 04-12-2009 09:39:02 4.2 C 4.45 g/m*3 4.2 C 0 km/h
2688 04-12-2009 09:51:02 4.3 C 4.28 g/m*3 4.3 C 0 km/h
2689 04-12-2009 10:03:01 4 C 4.13 g/m*3 4 C 0 km/h
2690 04-12-2009 10:15:02 4 C 4.13 g/m*3 4 C 0 km/h
2691 04-12-2009 10:27:02 4.1 C 4.16 g/m*3 4.1 C 0 km/h
2692 04-12-2009 10:39:02 4.2 C 4.12 g/m*3 4.2 C 0 km/h
2693 04-12-2009 10:51:02 4.2 C 4.12 g/m*3 4.2 C 0 km/h
2694 04-12-2009 11:03:03 4.1 C 4.1 g/m*3 4.1 C 0 km/h
2695 04-12-2009 11:15:02 4.1 C 4.1 g/m*3 4.1 C 0 km/h
2696 04-12-2009 11:27:02 4.2 C 4.06 g/m*3 4.2 C 0 km/h
2697 04-12-2009 11:39:02 4.1 C 4.1 g/m*3 4.1 C 0 km/h
2698 04-12-2009 11:51:01 4.3 C 4.09 g/m*3 4.3 C 0 km/h
2699 04-12-2009 12:03:02 4.6 C 4.17 g/m*3 4.6 C 0 km/h
2700 04-12-2009 12:15:01 5.1 C 4.1 g/m*3 5.1 C 0 km/h
Sensor: Nr:Datum:Temp:Abs-Feuchte:Windchill:Wind:
Aussen-T/F 2701 04-12-2009 12:27:01 5.4 C 4.12 g/m*3 5.4 C 0 km/h
2702 04-12-2009 12:39:01 5.5 C 4.07 g/m*3 5.5 C 0 km/h
2703 04-12-2009 12:51:01 5.7 C 4.2 g/m*3 5.7 C 0 km/h
2704 04-12-2009 13:03:02 5.5 C 4 g/m*3 5.5 C 0 km/h
2705 04-12-2009 13:15:01 5 C 3.87 g/m*3 5 C 0 km/h
2706 04-12-2009 13:27:01 4.9 C 3.92 g/m*3 4.9 C 0 km/h
2707 04-12-2009 13:39:02 4.9 C 3.85 g/m*3 4.9 C 0 km/h
2708 04-12-2009 13:51:02 4.9 C 3.85 g/m*3 4.9 C 0 km/h
2709 04-12-2009 14:03:02 4.8 C 3.82 g/m*3 4.8 C 0 km/h
2710 04-12-2009 14:15:02 4.8 C 3.82 g/m*3 4.8 C 0 km/h
2711 04-12-2009 14:27:02 4.9 C 3.78 g/m*3 4.9 C 0 km/h
2712 04-12-2009 14:39:02 5.1 C 3.69 g/m*3 5.1 C 0 km/h
2713 04-12-2009 14:51:02 4.9 C 3.71 g/m*3 4.9 C 0 km/h
2714 04-12-2009 15:03:03 4.8 C 3.62 g/m*3 4.8 C 0 km/h
2715 04-12-2009 15:15:02 4.7 C 3.6 g/m*3 4.7 C 0 km/h
2716 04-12-2009 15:27:02 4.5 C 3.68 g/m*3 4.5 C 0 km/h
2717 04-12-2009 15:39:03 4.7 C 3.66 g/m*3 4.7 C 0 km/h
2718 04-12-2009 15:51:02 4.9 C 3.65 g/m*3 4.9 C 0 km/h
2719 04-12-2009 16:03:02 4.9 C 3.78 g/m*3 4.9 C 0 km/h
2720 04-12-2009 16:15:03 4.9 C 3.71 g/m*3 4.9 C 0 km/h
2721 04-12-2009 16:27:03 4.9 C 3.78 g/m*3 4.9 C 0 km/h
2722 04-12-2009 16:39:02 4.9 C 3.78 g/m*3 4.9 C 0 km/h
2723 04-12-2009 16:51:03 4.8 C 3.82 g/m*3 4.8 C 0 km/h
2724 04-12-2009 17:03:02 4.8 C 3.89 g/m*3 4.8 C 0 km/h
2725 04-12-2009 17:15:03 4.7 C 3.93 g/m*3 4.7 C 0 km/h
Sensor: Nr:Datum:Temp:Abs-Feuchte:Windchill:Wind:
Aussen-T/F 2726 04-12-2009 17:27:03 4.7 C 4 g/m*3 4.7 C 0 km/h
2727 04-12-2009 17:39:02 4.7 C 4.06 g/m*3 4.7 C 0 km/h
2728 04-12-2009 17:51:02 4.8 C 4.09 g/m*3 4.8 C 0 km/h
2729 04-12-2009 18:03:02 4.8 C 4.09 g/m*3 4.8 C 0 km/h
2730 04-12-2009 18:15:02 4.8 C 4.16 g/m*3 4.8 C 0 km/h
2731 04-12-2009 18:27:02 4.7 C 4.2 g/m*3 4.7 C 0 km/h
2732 04-12-2009 18:39:02 4.9 C 4.19 g/m*3 4.9 C 0 km/h
2733 04-12-2009 18:51:02 5 C 4.08 g/m*3 5 C 0 km/h
2734 04-12-2009 19:03:01 5 C 4.08 g/m*3 5 C 0 km/h
2735 04-12-2009 19:15:02 5 C 4.08 g/m*3 5 C 0 km/h
2736 04-12-2009 19:27:02 5 C 4.14 g/m*3 5 C 0 km/h
2737 04-12-2009 19:39:02 5 C 4.14 g/m*3 5 C 0 km/h
2738 04-12-2009 19:51:01 5.1 C 4.17 g/m*3 5.1 C 0 km/h
2739 04-12-2009 20:03:02 5.1 C 4.17 g/m*3 5.1 C 0 km/h
2740 04-12-2009 20:15:01 5 C 4.21 g/m*3 5 C 0 km/h
2741 04-12-2009 20:27:01 5 C 4.21 g/m*3 5 C 0 km/h
2742 04-12-2009 20:39:02 5 C 4.21 g/m*3 5 C 0 km/h
2743 04-12-2009 20:51:02 5 C 4.28 g/m*3 5 C 0 km/h
2744 04-12-2009 21:03:02 5 C 4.28 g/m*3 5 C 0 km/h
2745 04-12-2009 21:15:01 5.1 C 4.31 g/m*3 5.1 C 0 km/h
2746 04-12-2009 21:27:01 5.1 C 4.31 g/m*3 5.1 C 0 km/h
2747 04-12-2009 21:39:02 5.2 C 4.34 g/m*3 5.2 C 0 km/h
2748 04-12-2009 21:51:02 5.2 C 4.34 g/m*3 5.2 C 0 km/h
2749 04-12-2009 22:04:03 5.2 C 4.34 g/m*3 5.2 C 0 km/h
2750 04-12-2009 22:16:03 5.2 C 4.34 g/m*3 5.2 C 0 km/h
Sensor: Nr:Datum:Temp:Abs-Feuchte:Windchill:Wind:
Aussen-T/F 2751 04-12-2009 22:28:03 5.1 C 4.31 g/m*3 5.1 C 0 km/h
2752 04-12-2009 22:40:03 5.1 C 4.17 g/m*3 5.1 C 0 km/h
2753 04-12-2009 22:52:03 5.1 C 4.17 g/m*3 5.1 C 0 km/h
2754 04-12-2009 23:04:03 4.7 C 4.06 g/m*3 4.7 C 0 km/h
2755 04-12-2009 23:16:03 4.1 C 4.03 g/m*3 4.1 C 0 km/h
2756 04-12-2009 23:28:03 3.6 C 4.15 g/m*3 3.6 C 0 km/h
2757 04-12-2009 23:40:03 3.2 C 4.16 g/m*3 3.2 C 0 km/h
2758 04-12-2009 23:52:03 3 C 4.16 g/m*3 3 C 0 km/h
2759 05-12-2009 00:04:03 2.7 C 4.2 g/m*3 2.7 C 0 km/h
2760 05-12-2009 00:16:03 2.5 C 4.25 g/m*3 2.5 C 0 km/h
2761 05-12-2009 00:28:03 2.3 C 4.2 g/m*3 2.3 C 0 km/h
2762 05-12-2009 00:40:03 2.7 C 4.37 g/m*3 2.7 C 0 km/h
2763 05-12-2009 00:52:03 3.2 C 4.4 g/m*3 3.2 C 0 km/h
2764 05-12-2009 01:04:03 3.3 C 4.43 g/m*3 3.3 C 0 km/h
2765 05-12-2009 01:16:03 2.9 C 4.25 g/m*3 2.9 C 0 km/h
2766 05-12-2009 01:28:04 2.7 C 4.31 g/m*3 2.7 C 0 km/h
2767 05-12-2009 01:40:04 2.8 C 4.4 g/m*3 2.8 C 0 km/h
2768 05-12-2009 01:52:04 3.1 C 4.37 g/m*3 3.1 C 0 km/h
2769 05-12-2009 02:04:04 2.9 C 4.31 g/m*3 2.9 C 0 km/h
2770 05-12-2009 02:16:04 2.8 C 4.28 g/m*3 2.8 C 0 km/h
2771 05-12-2009 02:28:04 2.8 C 4.28 g/m*3 2.8 C 0 km/h
2772 05-12-2009 02:40:04 2.7 C 4.31 g/m*3 2.7 C 0 km/h
2773 05-12-2009 02:52:04 2.7 C 4.31 g/m*3 2.7 C 0 km/h
2774 05-12-2009 03:04:04 2.7 C 4.37 g/m*3 2.7 C 0 km/h
2775 05-12-2009 03:16:04 3 C 4.34 g/m*3 3 C 0 km/h
Sensor: Nr:Datum:Temp:Abs-Feuchte:Windchill:Wind:
Aussen-T/F 2776 05-12-2009 03:28:04 2.9 C 4.37 g/m*3 2.9 C 0 km/h
2777 05-12-2009 03:40:04 3.2 C 4.4 g/m*3 3.2 C 0 km/h
2778 05-12-2009 03:52:04 3.3 C 4.37 g/m*3 3.3 C 0 km/h
2779 05-12-2009 04:04:04 3.3 C 4.37 g/m*3 3.3 C 0 km/h
2780 05-12-2009 04:16:04 3.4 C 4.4 g/m*3 3.4 C 0 km/h
2781 05-12-2009 04:28:04 3.4 C 4.34 g/m*3 3.4 C 0 km/h
2782 05-12-2009 04:40:04 3.2 C 4.28 g/m*3 3.2 C 0 km/h
2783 05-12-2009 04:52:04 3.2 C 4.34 g/m*3 3.2 C 0 km/h
2784 05-12-2009 05:04:04 3.3 C 4.37 g/m*3 3.3 C 0 km/h
2785 05-12-2009 05:16:05 3.3 C 4.31 g/m*3 3.3 C 0 km/h
2786 05-12-2009 05:28:05 3.4 C 4.34 g/m*3 3.4 C 0 km/h
2787 05-12-2009 05:40:05 3.4 C 4.34 g/m*3 3.4 C 0 km/h
2788 05-12-2009 05:52:05 3.4 C 4.28 g/m*3 3.4 C 0 km/h
2789 05-12-2009 06:04:05 3.4 C 4.28 g/m*3 3.4 C 0 km/h
2790 05-12-2009 06:16:05 3.4 C 4.28 g/m*3 3.4 C 0 km/h
2791 05-12-2009 06:28:05 3.5 C 4.24 g/m*3 3.5 C 0 km/h
2792 05-12-2009 06:40:05 3.5 C 4.24 g/m*3 3.5 C 0 km/h
2793 05-12-2009 06:52:05 3.5 C 4.24 g/m*3 3.5 C 0 km/h
2794 05-12-2009 07:04:05 3.5 C 4.18 g/m*3 3.5 C 0 km/h
2795 05-12-2009 07:16:05 3.7 C 4.18 g/m*3 3.7 C 0 km/h
2796 05-12-2009 07:28:05 3.7 C 4.11 g/m*3 3.7 C 0 km/h
2797 05-12-2009 07:40:02 3.8 C 4.08 g/m*3 3.8 C 0 km/h
2798 05-12-2009 07:52:01 3.8 C 4.08 g/m*3 3.8 C 0 km/h
2799 05-12-2009 08:04:01 3.9 C 4.11 g/m*3 3.9 C 0 km/h
2800 05-12-2009 08:16:02 4 C 4.07 g/m*3 4 C 0 km/h
Sensor: Nr:Datum:Temp:Abs-Feuchte:Windchill:Wind:
Aussen-T/F 2801 05-12-2009 08:28:02 4 C 4.01 g/m*3 4 C 0 km/h
2802 05-12-2009 08:40:01 4.1 C 4.03 g/m*3 4.1 C 0 km/h
2803 05-12-2009 08:52:03 4.1 C 4.03 g/m*3 4.1 C 0 km/h
2804 05-12-2009 09:04:02 4.2 C 4.06 g/m*3 4.2 C 0 km/h
2805 05-12-2009 09:16:02 4.2 C 4.12 g/m*3 4.2 C 0 km/h
2806 05-12-2009 09:28:02 4.3 C 4.15 g/m*3 4.3 C 0 km/h
2807 05-12-2009 09:40:02 4.4 C 4.11 g/m*3 4.4 C 0 km/h
2808 05-12-2009 09:52:02 4.6 C 4.17 g/m*3 4.6 C 0 km/h
2809 05-12-2009 10:04:02 4.7 C 4.13 g/m*3 4.7 C 0 km/h
2810 05-12-2009 10:16:02 4.8 C 4.16 g/m*3 4.8 C 0 km/h
2811 05-12-2009 10:28:03 5.1 C 4.17 g/m*3 5.1 C 0 km/h
2812 05-12-2009 10:40:02 5.2 C 4.13 g/m*3 5.2 C 0 km/h
2813 05-12-2009 10:52:02 5.3 C 4.23 g/m*3 5.3 C 0 km/h
2814 05-12-2009 11:04:01 5.3 C 4.3 g/m*3 5.3 C 0 km/h
2815 05-12-2009 11:16:02 5.2 C 4.54 g/m*3 5.2 C 0 km/h
2816 05-12-2009 11:28:02 5.2 C 4.68 g/m*3 5.2 C 0 km/h
2817 05-12-2009 11:40:02 5.6 C 4.81 g/m*3 5.6 C 0 km/h
2818 05-12-2009 11:52:02 5.7 C 4.77 g/m*3 5.7 C 0 km/h
2819 05-12-2009 12:04:02 6 C 4.79 g/m*3 6 C 0 km/h
2820 05-12-2009 12:16:02 6.3 C 4.89 g/m*3 6.3 C 0 km/h
2821 05-12-2009 12:28:02 6.2 C 4.93 g/m*3 6.2 C 0 km/h
2822 05-12-2009 12:40:03 6.4 C 4.99 g/m*3 6.4 C 0 km/h
2823 05-12-2009 12:52:02 6.4 C 5.07 g/m*3 6.4 C 0 km/h
2824 05-12-2009 13:04:02 6.6 C 5.13 g/m*3 6.6 C 0 km/h
2825 05-12-2009 13:16:01 6.8 C 5.2 g/m*3 6.8 C 0 km/h
Sensor: Nr:Datum:Temp:Abs-Feuchte:Windchill:Wind:
Aussen-T/F 2826 05-12-2009 13:28:01 6.8 C 5.28 g/m*3 6.8 C 0 km/h
2827 05-12-2009 13:40:02 6.9 C 5.31 g/m*3 6.9 C 0 km/h
2828 05-12-2009 13:52:02 7 C 5.27 g/m*3 7 C 0 km/h
2829 05-12-2009 14:04:02 7.4 C 5.33 g/m*3 7.4 C 0 km/h
2830 05-12-2009 14:16:02 7.2 C 5.34 g/m*3 7.2 C 0 km/h
2831 05-12-2009 14:28:02 7.1 C 5.46 g/m*3 7.1 C 0 km/h
2832 05-12-2009 14:40:02 6.9 C 5.54 g/m*3 6.9 C 0 km/h
2833 05-12-2009 14:52:02 6.9 C 5.62 g/m*3 6.9 C 0 km/h
2834 05-12-2009 15:04:02 6.8 C 5.66 g/m*3 6.8 C 0 km/h
2835 05-12-2009 15:16:02 6.6 C 5.66 g/m*3 6.6 C 0 km/h
2836 05-12-2009 15:28:02 6.3 C 5.77 g/m*3 6.3 C 0 km/h
2837 05-12-2009 15:40:02 6.3 C 5.85 g/m*3 6.3 C 0 km/h
2838 05-12-2009 15:52:02 6.2 C 5.88 g/m*3 6.2 C 0 km/h
2839 05-12-2009 16:04:02 6.2 C 5.96 g/m*3 6.2 C 0 km/h
2840 05-12-2009 16:16:03 6.1 C 5.99 g/m*3 6.1 C 0 km/h
2841 05-12-2009 16:28:03 6.1 C 6.06 g/m*3 6.1 C 0 km/h
2842 05-12-2009 16:40:02 6.1 C 6.14 g/m*3 6.1 C 0 km/h
2843 05-12-2009 16:52:02 6.2 C 6.18 g/m*3 6.2 C 0 km/h
2844 05-12-2009 17:04:02 6.2 C 6.25 g/m*3 6.2 C 0 km/h
2845 05-12-2009 17:16:03 6.4 C 6.33 g/m*3 6.4 C 0 km/h
2846 05-12-2009 17:28:03 6.5 C 6.37 g/m*3 6.5 C 0 km/h
2847 05-12-2009 17:40:02 6.7 C 6.38 g/m*3 6.7 C 0 km/h
2848 05-12-2009 17:52:03 6.9 C 6.39 g/m*3 6.9 C 0 km/h
2849 05-12-2009 18:04:02 7.1 C 6.24 g/m*3 7.1 C 0 km/h
2850 05-12-2009 18:16:02 7.3 C 6.24 g/m*3 7.3 C 0 km/h
Sensor: Nr:Datum:Temp:Abs-Feuchte:Windchill:Wind:
Aussen-T/F 2851 05-12-2009 18:28:02 7.3 C 6.24 g/m*3 7.3 C 0 km/h
2852 05-12-2009 18:40:02 7.3 C 6.24 g/m*3 7.3 C 0 km/h
2853 05-12-2009 18:52:02 7.3 C 6.32 g/m*3 7.3 C 0 km/h
2854 05-12-2009 19:04:02 7.4 C 6.36 g/m*3 7.4 C 0 km/h
2855 05-12-2009 19:16:02 7.3 C 6.32 g/m*3 7.3 C 0 km/h
2856 05-12-2009 19:28:02 7.4 C 6.36 g/m*3 7.4 C 0 km/h
2857 05-12-2009 19:40:02 7.4 C 6.36 g/m*3 7.4 C 0 km/h
2858 05-12-2009 19:52:02 7.5 C 6.48 g/m*3 7.5 C 0 km/h
2859 05-12-2009 20:04:01 7.6 C 6.61 g/m*3 7.6 C 0 km/h
2860 05-12-2009 20:16:02 7.6 C 6.53 g/m*3 7.6 C 0 km/h
2861 05-12-2009 20:28:02 7.6 C 6.61 g/m*3 7.6 C 0 km/h
2862 05-12-2009 20:40:02 7.8 C 6.69 g/m*3 7.8 C 0 km/h
2863 05-12-2009 20:52:02 7.8 C 6.69 g/m*3 7.8 C 0 km/h
2864 05-12-2009 21:04:02 7.9 C 6.74 g/m*3 7.9 C 0 km/h
2865 05-12-2009 21:16:02 7.9 C 6.74 g/m*3 7.9 C 0 km/h
2866 05-12-2009 21:28:02 7.8 C 6.69 g/m*3 7.8 C 0 km/h
2867 05-12-2009 21:40:03 7.9 C 6.82 g/m*3 7.9 C 0 km/h
2868 05-12-2009 21:53:02 7.8 C 6.77 g/m*3 7.8 C 0 km/h
2869 05-12-2009 22:05:02 7.8 C 6.77 g/m*3 7.8 C 0 km/h
2870 05-12-2009 22:17:02 7.9 C 6.82 g/m*3 7.9 C 0 km/h
2871 05-12-2009 22:29:02 7.9 C 6.82 g/m*3 7.9 C 0 km/h
2872 05-12-2009 22:41:02 7.8 C 6.77 g/m*3 7.8 C 0 km/h
2873 05-12-2009 22:53:02 7.9 C 6.82 g/m*3 7.9 C 0 km/h
2874 05-12-2009 23:05:02 8 C 6.86 g/m*3 8 C 0 km/h
2875 05-12-2009 23:17:03 8 C 6.86 g/m*3 8 C 0 km/h
Sensor: Nr:Datum:Temp:Abs-Feuchte:Windchill:Wind:
Aussen-T/F 2876 05-12-2009 23:29:03 8.1 C 6.82 g/m*3 8.1 C 0 km/h
2877 05-12-2009 23:41:03 8.2 C 6.95 g/m*3 8.2 C 0 km/h
2878 05-12-2009 23:53:03 8.4 C 6.96 g/m*3 8.4 C 0 km/h
2879 06-12-2009 00:05:03 8.6 C 7.05 g/m*3 8.6 C 0 km/h
2880 06-12-2009 00:17:03 8.9 C 7.1 g/m*3 8.9 C 0 km/h
2881 06-12-2009 00:29:03 9 C 6.96 g/m*3 9 C 0 km/h
2882 06-12-2009 00:41:03 9.1 C 7.01 g/m*3 9.1 C 0 km/h
2883 06-12-2009 00:53:03 9.2 C 7.05 g/m*3 9.2 C 0 km/h
2884 06-12-2009 01:05:03 9.3 C 7.1 g/m*3 9.3 C 0 km/h
2885 06-12-2009 01:17:03 9.4 C 7.15 g/m*3 9.4 C 0 km/h
2886 06-12-2009 01:29:03 9.3 C 7.1 g/m*3 9.3 C 0 km/h
2887 06-12-2009 01:41:03 9.5 C 7.19 g/m*3 9.5 C 0 km/h
2888 06-12-2009 01:53:03 9.4 C 7.15 g/m*3 9.4 C 0 km/h
2889 06-12-2009 02:05:03 9.5 C 7.19 g/m*3 9.5 C 0 km/h
2890 06-12-2009 02:17:03 9.6 C 7.15 g/m*3 9.6 C 0 km/h
2891 06-12-2009 02:29:03 9.6 C 7.15 g/m*3 9.6 C 0 km/h
2892 06-12-2009 02:41:03 9.7 C 7.19 g/m*3 9.7 C 0 km/h
2893 06-12-2009 02:53:03 9.8 C 7.14 g/m*3 9.8 C 0 km/h
2894 06-12-2009 03:05:04 9.7 C 7.1 g/m*3 9.7 C 0 km/h
2895 06-12-2009 03:17:04 10 C 7.05 g/m*3 10 C 0 km/h
2896 06-12-2009 03:29:04 10 C 7.05 g/m*3 10 C 0 km/h
2897 06-12-2009 03:41:04 9.9 C 7.19 g/m*3 9.9 C 0 km/h
2898 06-12-2009 03:53:04 9.9 C 7.19 g/m*3 9.9 C 0 km/h
2899 06-12-2009 04:05:04 10 C 7.14 g/m*3 10 C 0 km/h
2900 06-12-2009 04:17:04 10 C 7.05 g/m*3 10 C 0 km/h
Sensor: Nr:Datum:Temp:Abs-Feuchte:Windchill:Wind:
Aussen-T/F 2901 06-12-2009 04:29:04 10 C 7.14 g/m*3 10 C 0 km/h
2902 06-12-2009 04:41:04 9.9 C 7.19 g/m*3 9.9 C 0 km/h
2903 06-12-2009 04:53:04 9.7 C 7.19 g/m*3 9.7 C 0 km/h
2904 06-12-2009 05:05:04 9.9 C 7.28 g/m*3 9.9 C 0 km/h
2905 06-12-2009 05:17:04 10.2 C 7.23 g/m*3 10.2 C 0 km/h
2906 06-12-2009 05:29:04 9.8 C 7.33 g/m*3 9.8 C 0 km/h
2907 06-12-2009 05:41:04 9.4 C 7.33 g/m*3 9.4 C 0 km/h
2908 06-12-2009 05:53:04 9.3 C 7.37 g/m*3 9.3 C 0 km/h
2909 06-12-2009 06:05:04 9.4 C 7.42 g/m*3 9.4 C 0 km/h
2910 06-12-2009 06:17:04 9.6 C 7.42 g/m*3 9.6 C 0 km/h
2911 06-12-2009 06:29:04 9.2 C 7.41 g/m*3 9.2 C 0 km/h
2912 06-12-2009 06:41:04 8.8 C 7.49 g/m*3 8.8 C 0 km/h
2913 06-12-2009 06:53:05 8.9 C 7.71 g/m*3 8.9 C 0 km/h
2914 06-12-2009 07:05:05 8.8 C 7.66 g/m*3 8.8 C 0 km/h
2915 06-12-2009 07:17:05 8.6 C 7.56 g/m*3 8.6 C 0 km/h
2916 06-12-2009 07:29:05 8.4 C 7.55 g/m*3 8.4 C 0 km/h
2917 06-12-2009 07:41:02 8.4 C 7.55 g/m*3 8.4 C 0 km/h
2918 06-12-2009 07:53:02 8.3 C 7.5 g/m*3 8.3 C 0 km/h
2919 06-12-2009 08:05:03 8.2 C 7.54 g/m*3 8.2 C 0 km/h
2920 06-12-2009 08:17:02 8.2 C 7.54 g/m*3 8.2 C 0 km/h
2921 06-12-2009 08:29:02 8.2 C 7.62 g/m*3 8.2 C 0 km/h
2922 06-12-2009 08:41:03 8.2 C 7.62 g/m*3 8.2 C 0 km/h
2923 06-12-2009 08:53:02 8.2 C 7.62 g/m*3 8.2 C 0 km/h
2924 06-12-2009 09:05:01 8.2 C 7.62 g/m*3 8.2 C 0 km/h
2925 06-12-2009 09:17:02 8.4 C 7.72 g/m*3 8.4 C 0 km/h
Sensor: Nr:Datum:Temp:Abs-Feuchte:Windchill:Wind:
Aussen-T/F 2926 06-12-2009 09:29:02 8.4 C 7.8 g/m*3 8.4 C 0 km/h
2927 06-12-2009 09:41:02 8.6 C 7.91 g/m*3 8.6 C 0 km/h
2928 06-12-2009 09:53:02 8.7 C 7.87 g/m*3 8.7 C 0 km/h
2929 06-12-2009 10:05:02 8.8 C 7.83 g/m*3 8.8 C 0 km/h
2930 06-12-2009 10:17:02 8.9 C 7.8 g/m*3 8.9 C 0 km/h
2931 06-12-2009 10:29:02 9.2 C 7.86 g/m*3 9.2 C 0 km/h
2932 06-12-2009 10:41:02 9.3 C 7.91 g/m*3 9.3 C 0 km/h
2933 06-12-2009 10:53:02 9.6 C 8.06 g/m*3 9.6 C 0 km/h
2934 06-12-2009 11:05:02 9.7 C 8.11 g/m*3 9.7 C 0 km/h
2935 06-12-2009 11:17:02 9.8 C 8.07 g/m*3 9.8 C 0 km/h
2936 06-12-2009 11:29:03 9.7 C 7.93 g/m*3 9.7 C 0 km/h
2937 06-12-2009 11:41:02 9.8 C 7.89 g/m*3 9.8 C 0 km/h
2938 06-12-2009 11:53:02 9.8 C 7.61 g/m*3 9.8 C 0 km/h
2939 06-12-2009 12:05:02 10 C 7.52 g/m*3 10 C 0 km/h
2940 06-12-2009 12:17:02 10.2 C 7.61 g/m*3 10.2 C 0 km/h
2941 06-12-2009 12:29:03 10.2 C 7.71 g/m*3 10.2 C 0 km/h
2942 06-12-2009 12:41:02 10.2 C 7.71 g/m*3 10.2 C 0 km/h
2943 06-12-2009 12:53:02 10.2 C 7.8 g/m*3 10.2 C 0 km/h
2944 06-12-2009 13:05:02 10.1 C 7.75 g/m*3 10.1 C 0 km/h
2945 06-12-2009 13:17:01 10.3 C 7.57 g/m*3 10.3 C 0 km/h
2946 06-12-2009 13:29:01 10.7 C 7.27 g/m*3 10.7 C 0 km/h
2947 06-12-2009 13:41:02 10.9 C 6.96 g/m*3 10.9 C 0 km/h
2948 06-12-2009 13:53:02 11.1 C 7.05 g/m*3 11.1 C 0 km/h
2949 06-12-2009 14:05:02 11.6 C 7.17 g/m*3 11.6 C 0 km/h
2950 06-12-2009 14:17:02 11.9 C 7.1 g/m*3 11.9 C 0 km/h
Sensor: Nr:Datum:Temp:Abs-Feuchte:Windchill:Wind:
Aussen-T/F 2951 06-12-2009 14:29:02 12 C 6.93 g/m*3 12 C 0 km/h
2952 06-12-2009 14:41:02 11.8 C 7.05 g/m*3 11.8 C 0 km/h
2953 06-12-2009 14:53:01 11.6 C 7.17 g/m*3 11.6 C 0 km/h
2954 06-12-2009 15:05:01 11.6 C 7.28 g/m*3 11.6 C 0 km/h
2955 06-12-2009 15:17:02 11.4 C 7.29 g/m*3 11.4 C 0 km/h
2956 06-12-2009 15:29:02 11.2 C 7.5 g/m*3 11.2 C 0 km/h
2957 06-12-2009 15:41:01 11.1 C 7.45 g/m*3 11.1 C 0 km/h
2958 06-12-2009 15:53:02 11.1 C 7.45 g/m*3 11.1 C 0 km/h
2959 06-12-2009 16:05:02 11.2 C 7.4 g/m*3 11.2 C 0 km/h
2960 06-12-2009 16:17:02 11.1 C 7.35 g/m*3 11.1 C 0 km/h
2961 06-12-2009 16:29:02 11.1 C 7.35 g/m*3 11.1 C 0 km/h
2962 06-12-2009 16:41:02 11.1 C 7.35 g/m*3 11.1 C 0 km/h
2963 06-12-2009 16:53:01 11 C 7.41 g/m*3 11 C 0 km/h
2964 06-12-2009 17:05:02 11 C 7.41 g/m*3 11 C 0 km/h
2965 06-12-2009 17:17:02 10.9 C 7.46 g/m*3 10.9 C 0 km/h
2966 06-12-2009 17:29:02 10.9 C 7.66 g/m*3 10.9 C 0 km/h
2967 06-12-2009 17:41:01 11 C 7.71 g/m*3 11 C 0 km/h
2968 06-12-2009 17:53:02 10.8 C 7.71 g/m*3 10.8 C 0 km/h
2969 06-12-2009 18:05:07 11 C 7.71 g/m*3 11 C 0 km/h
2970 06-12-2009 18:17:05 11 C 7.71 g/m*3 11 C 0 km/h
2971 06-12-2009 18:29:05 11 C 7.71 g/m*3 11 C 0 km/h
2972 06-12-2009 18:41:05 11 C 7.71 g/m*3 11 C 0 km/h
2973 06-12-2009 18:53:05 11 C 7.71 g/m*3 11 C 0 km/h
2974 06-12-2009 19:05:05 11.2 C 7.7 g/m*3 11.2 C 0 km/h
2975 06-12-2009 19:17:06 11.4 C 7.8 g/m*3 11.4 C 0 km/h
Sensor: Nr:Datum:Temp:Abs-Feuchte:Windchill:Wind:
Aussen-T/F 2976 06-12-2009 19:29:06 11.4 C 7.8 g/m*3 11.4 C 0 km/h
2977 06-12-2009 19:41:06 11.4 C 7.9 g/m*3 11.4 C 0 km/h
2978 06-12-2009 19:53:02 11 C 8.01 g/m*3 11 C 0 km/h
2979 06-12-2009 20:05:02 11 C 8.31 g/m*3 11 C 0 km/h
2980 06-12-2009 20:17:02 10.7 C 8.25 g/m*3 10.7 C 0 km/h
2981 06-12-2009 20:29:02 10.6 C 8.2 g/m*3 10.6 C 0 km/h
2982 06-12-2009 20:41:02 10.5 C 8.24 g/m*3 10.5 C 0 km/h
2983 06-12-2009 20:53:02 10.4 C 8.19 g/m*3 10.4 C 0 km/h
2984 06-12-2009 21:05:02 10.4 C 8.19 g/m*3 10.4 C 0 km/h
2985 06-12-2009 21:17:02 10 C 7.99 g/m*3 10 C 0 km/h
2986 06-12-2009 21:29:02 9.6 C 7.88 g/m*3 9.6 C 0 km/h
2987 06-12-2009 21:41:02 9.3 C 7.82 g/m*3 9.3 C 0 km/h
2988 06-12-2009 21:54:02 9.2 C 7.77 g/m*3 9.2 C 0 km/h
2989 06-12-2009 22:06:02 9 C 7.76 g/m*3 9 C 0 km/h
2990 06-12-2009 22:18:02 8.9 C 7.8 g/m*3 8.9 C 0 km/h
2991 06-12-2009 22:30:03 8.9 C 7.88 g/m*3 8.9 C 0 km/h
2992 06-12-2009 22:42:03 8.9 C 7.88 g/m*3 8.9 C 0 km/h
2993 06-12-2009 22:54:03 8.6 C 7.65 g/m*3 8.6 C 0 km/h
2994 06-12-2009 23:06:03 8.4 C 7.47 g/m*3 8.4 C 0 km/h
2995 06-12-2009 23:18:03 8 C 7.19 g/m*3 8 C 0 km/h
2996 06-12-2009 23:30:03 7.7 C 7.14 g/m*3 7.7 C 0 km/h
2997 06-12-2009 23:42:03 7.6 C 6.93 g/m*3 7.6 C 0 km/h
2998 06-12-2009 23:54:03 7.3 C 6.72 g/m*3 7.3 C 0 km/h
2999 07-12-2009 00:06:03 6.9 C 6.62 g/m*3 6.9 C 0 km/h
3000 07-12-2009 00:18:03 6.7 C 6.46 g/m*3 6.7 C 0 km/h
Sensor: Nr:Datum:Temp:Abs-Feuchte:Windchill:Wind:
Aussen-T/F 3001 07-12-2009 00:30:03 7 C 6.43 g/m*3 7 C 0 km/h
3002 07-12-2009 00:42:03 6.7 C 6.31 g/m*3 6.7 C 0 km/h
3003 07-12-2009 00:54:03 6.6 C 6.34 g/m*3 6.6 C 0 km/h
3004 07-12-2009 01:06:03 6.6 C 6.42 g/m*3 6.6 C 0 km/h
3005 07-12-2009 01:18:03 6.8 C 6.5 g/m*3 6.8 C 0 km/h
3006 07-12-2009 01:30:03 6.6 C 6.42 g/m*3 6.6 C 0 km/h
3007 07-12-2009 01:42:03 6.5 C 6.45 g/m*3 6.5 C 0 km/h
3008 07-12-2009 01:54:03 5.9 C 6.27 g/m*3 5.9 C 0 km/h
3009 07-12-2009 02:06:03 5.4 C 6.07 g/m*3 5.4 C 0 km/h
3010 07-12-2009 02:18:03 4.9 C 5.94 g/m*3 4.9 C 0 km/h
3011 07-12-2009 02:30:04 4.7 C 5.93 g/m*3 4.7 C 0 km/h
3012 07-12-2009 02:42:04 4.7 C 5.93 g/m*3 4.7 C 0 km/h
3013 07-12-2009 02:54:04 4.5 C 5.85 g/m*3 4.5 C 0 km/h
3014 07-12-2009 03:06:04 4.3 C 5.84 g/m*3 4.3 C 0 km/h
3015 07-12-2009 03:18:04 4.3 C 5.84 g/m*3 4.3 C 0 km/h
3016 07-12-2009 03:30:04 4.4 C 5.94 g/m*3 4.4 C 0 km/h
3017 07-12-2009 03:42:04 4 C 5.79 g/m*3 4 C 0 km/h
3018 07-12-2009 03:54:04 3.9 C 5.81 g/m*3 3.9 C 0 km/h
3019 07-12-2009 04:06:04 3.7 C 5.73 g/m*3 3.7 C 0 km/h
3020 07-12-2009 04:18:04 3.6 C 5.69 g/m*3 3.6 C 0 km/h
3021 07-12-2009 04:30:04 3.5 C 5.66 g/m*3 3.5 C 0 km/h
3022 07-12-2009 04:42:04 3.3 C 5.58 g/m*3 3.3 C 0 km/h
3023 07-12-2009 04:54:04 3 C 5.47 g/m*3 3 C 0 km/h
3024 07-12-2009 05:06:04 3 C 5.53 g/m*3 3 C 0 km/h
3025 07-12-2009 05:18:04 2.9 C 5.55 g/m*3 2.9 C 0 km/h
Sensor: Nr:Datum:Temp:Abs-Feuchte:Windchill:Wind:
Aussen-T/F 3026 07-12-2009 05:30:04 2.6 C 5.44 g/m*3 2.6 C 0 km/h
3027 07-12-2009 05:42:04 2.3 C 5.33 g/m*3 2.3 C 0 km/h
3028 07-12-2009 05:54:04 2.2 C 5.29 g/m*3 2.2 C 0 km/h
3029 07-12-2009 06:06:04 2.3 C 5.33 g/m*3 2.3 C 0 km/h
3030 07-12-2009 06:18:04 2.4 C 5.37 g/m*3 2.4 C 0 km/h
3031 07-12-2009 06:30:04 2.3 C 5.33 g/m*3 2.3 C 0 km/h
3032 07-12-2009 06:42:05 2.5 C 5.46 g/m*3 2.5 C 0 km/h
3033 07-12-2009 06:54:05 3 C 5.65 g/m*3 3 C 0 km/h
3034 07-12-2009 07:06:02 3 C 5.65 g/m*3 3 C 0 km/h
3035 07-12-2009 07:18:02 3 C 5.65 g/m*3 3 C 0 km/h
3036 07-12-2009 07:30:02 2.8 C 5.57 g/m*3 2.8 C 0 km/h
3037 07-12-2009 07:42:02 2.9 C 5.61 g/m*3 2.9 C 0 km/h
3038 07-12-2009 07:54:02 2.7 C 5.54 g/m*3 2.7 C 0 km/h
3039 07-12-2009 08:06:02 2.8 C 5.57 g/m*3 2.8 C 0 km/h
3040 07-12-2009 08:18:02 3.3 C 5.76 g/m*3 3.3 C 0 km/h
3041 07-12-2009 08:30:02 3.3 C 5.76 g/m*3 3.3 C 0 km/h
3042 07-12-2009 08:42:02 3.3 C 5.76 g/m*3 3.3 C 0 km/h
3043 07-12-2009 08:54:01 2.9 C 5.61 g/m*3 2.9 C 0 km/h
3044 07-12-2009 09:06:02 2.9 C 5.61 g/m*3 2.9 C 0 km/h
3045 07-12-2009 09:18:02 3 C 5.65 g/m*3 3 C 0 km/h
3046 07-12-2009 09:30:02 3.4 C 5.8 g/m*3 3.4 C 0 km/h
3047 07-12-2009 09:42:01 4.5 C 6.24 g/m*3 4.5 C 0 km/h
3048 07-12-2009 09:54:01 5.2 C 6.54 g/m*3 5.2 C 0 km/h
3049 07-12-2009 10:06:02 5.4 C 6.63 g/m*3 5.4 C 0 km/h
3050 07-12-2009 10:18:01 5.5 C 6.6 g/m*3 5.5 C 0 km/h
Sensor: Nr:Datum:Temp:Abs-Feuchte:Windchill:Wind:
Aussen-T/F 3051 07-12-2009 10:30:01 5.8 C 6.52 g/m*3 5.8 C 0 km/h
3052 07-12-2009 10:42:01 5.9 C 6.42 g/m*3 5.9 C 0 km/h
3053 07-12-2009 10:54:02 6.3 C 6.29 g/m*3 6.3 C 0 km/h
3054 07-12-2009 11:06:02 6.5 C 6.3 g/m*3 6.5 C 0 km/h
3055 07-12-2009 11:18:03 6.7 C 6.23 g/m*3 6.7 C 0 km/h
3056 07-12-2009 11:30:03 6.8 C 6.27 g/m*3 6.8 C 0 km/h
3057 07-12-2009 11:42:02 7 C 6.28 g/m*3 7 C 0 km/h
3058 07-12-2009 11:54:02 7.1 C 6.01 g/m*3 7.1 C 0 km/h
3059 07-12-2009 12:06:01 7.1 C 6.01 g/m*3 7.1 C 0 km/h
3060 07-12-2009 12:18:02 7.4 C 5.88 g/m*3 7.4 C 0 km/h
3061 07-12-2009 12:30:03 7.5 C 5.84 g/m*3 7.5 C 0 km/h
3062 07-12-2009 12:42:01 7.7 C 6.16 g/m*3 7.7 C 0 km/h
3063 07-12-2009 12:54:02 7.9 C 6.16 g/m*3 7.9 C 0 km/h
3064 07-12-2009 13:06:02 7.7 C 6 g/m*3 7.7 C 0 km/h
3065 07-12-2009 13:18:02 7.8 C 5.96 g/m*3 7.8 C 0 km/h
3066 07-12-2009 13:30:02 7.9 C 5.67 g/m*3 7.9 C 0 km/h
3067 07-12-2009 13:42:03 7.7 C 5.59 g/m*3 7.7 C 0 km/h
3068 07-12-2009 13:54:02 7.5 C 5.68 g/m*3 7.5 C 0 km/h
3069 07-12-2009 14:06:02 7.8 C 5.71 g/m*3 7.8 C 0 km/h
3070 07-12-2009 14:18:02 8 C 5.62 g/m*3 8 C 0 km/h
3071 07-12-2009 14:30:02 8 C 5.21 g/m*3 8 C 0 km/h
3072 07-12-2009 14:42:02 8 C 5.13 g/m*3 8 C 0 km/h
3073 07-12-2009 14:54:01 7.6 C 5.24 g/m*3 7.6 C 0 km/h
3074 07-12-2009 15:06:02 7.4 C 5.25 g/m*3 7.4 C 0 km/h
3075 07-12-2009 15:18:01 7.2 C 5.26 g/m*3 7.2 C 0 km/h
Sensor: Nr:Datum:Temp:Abs-Feuchte:Windchill:Wind:
Aussen-T/F 3076 07-12-2009 15:30:01 7.1 C 5.23 g/m*3 7.1 C 0 km/h
3077 07-12-2009 15:42:02 7.1 C 5.3 g/m*3 7.1 C 0 km/h
3078 07-12-2009 15:54:02 7.2 C 5.26 g/m*3 7.2 C 0 km/h
3079 07-12-2009 16:06:02 6.9 C 5.31 g/m*3 6.9 C 0 km/h
3080 07-12-2009 16:18:01 6.7 C 5.32 g/m*3 6.7 C 0 km/h
3081 07-12-2009 16:30:01 6.6 C 5.36 g/m*3 6.6 C 0 km/h
3082 07-12-2009 16:42:02 6.4 C 5.36 g/m*3 6.4 C 0 km/h
3083 07-12-2009 16:54:02 6.3 C 5.55 g/m*3 6.3 C 0 km/h
3084 07-12-2009 17:06:02 6.2 C 5.66 g/m*3 6.2 C 0 km/h
3085 07-12-2009 17:18:02 6.3 C 5.77 g/m*3 6.3 C 0 km/h
3086 07-12-2009 17:30:02 6.3 C 5.85 g/m*3 6.3 C 0 km/h
3087 07-12-2009 17:42:02 6.4 C 5.96 g/m*3 6.4 C 0 km/h
3088 07-12-2009 17:54:01 6.5 C 6 g/m*3 6.5 C 0 km/h
3089 07-12-2009 18:06:02 6.5 C 6 g/m*3 6.5 C 0 km/h
3090 07-12-2009 18:18:02 6.6 C 6.04 g/m*3 6.6 C 0 km/h
3091 07-12-2009 18:30:02 6.7 C 6.15 g/m*3 6.7 C 0 km/h
3092 07-12-2009 18:42:02 6.6 C 6.11 g/m*3 6.6 C 0 km/h
3093 07-12-2009 18:54:02 6.3 C 6 g/m*3 6.3 C 0 km/h
3094 07-12-2009 19:06:02 6.3 C 6.07 g/m*3 6.3 C 0 km/h
3095 07-12-2009 19:18:02 6.4 C 6.18 g/m*3 6.4 C 0 km/h
3096 07-12-2009 19:30:03 6.4 C 6.18 g/m*3 6.4 C 0 km/h
3097 07-12-2009 19:42:02 6.4 C 6.18 g/m*3 6.4 C 0 km/h
3098 07-12-2009 19:54:02 6.2 C 6.1 g/m*3 6.2 C 0 km/h
3099 07-12-2009 20:06:02 6.2 C 6.18 g/m*3 6.2 C 0 km/h
3100 07-12-2009 20:18:02 6.3 C 6.29 g/m*3 6.3 C 0 km/h
Sensor: Nr:Datum:Temp:Abs-Feuchte:Windchill:Wind:
Aussen-T/F 3101 07-12-2009 20:30:02 6.4 C 6.41 g/m*3 6.4 C 0 km/h
3102 07-12-2009 20:42:03 6.3 C 6.44 g/m*3 6.3 C 0 km/h
3103 07-12-2009 20:54:01 6.3 C 6.51 g/m*3 6.3 C 0 km/h
3104 07-12-2009 21:06:02 6.3 C 6.59 g/m*3 6.3 C 0 km/h
3105 07-12-2009 21:18:01 6.4 C 6.71 g/m*3 6.4 C 0 km/h
3106 07-12-2009 21:30:01 6.4 C 6.71 g/m*3 6.4 C 0 km/h
3107 07-12-2009 21:42:02 6.3 C 6.74 g/m*3 6.3 C 0 km/h
3108 07-12-2009 21:55:03 6.4 C 6.85 g/m*3 6.4 C 0 km/h
3109 07-12-2009 22:07:03 6.4 C 6.85 g/m*3 6.4 C 0 km/h
3110 07-12-2009 22:19:03 6.2 C 6.77 g/m*3 6.2 C 0 km/h
3111 07-12-2009 22:31:03 5.9 C 6.71 g/m*3 5.9 C 0 km/h
3112 07-12-2009 22:43:03 5.8 C 6.66 g/m*3 5.8 C 0 km/h
3113 07-12-2009 22:55:03 6 C 6.75 g/m*3 6 C 0 km/h
3114 07-12-2009 23:07:03 6.1 C 6.87 g/m*3 6.1 C 0 km/h
3115 07-12-2009 23:19:03 6.2 C 6.91 g/m*3 6.2 C 0 km/h
3116 07-12-2009 23:31:03 6.5 C 7.05 g/m*3 6.5 C 0 km/h
3117 07-12-2009 23:43:03 6.4 C 7.08 g/m*3 6.4 C 0 km/h
3118 07-12-2009 23:55:03 6.5 C 7.12 g/m*3 6.5 C 0 km/h
3119 08-12-2009 00:07:03 6.5 C 7.12 g/m*3 6.5 C 0 km/h
3120 08-12-2009 00:19:04 6.4 C 7.08 g/m*3 6.4 C 0 km/h
3121 08-12-2009 00:31:04 6.5 C 7.12 g/m*3 6.5 C 0 km/h
3122 08-12-2009 00:43:04 6.4 C 7.08 g/m*3 6.4 C 0 km/h
3123 08-12-2009 00:55:04 6.4 C 7.08 g/m*3 6.4 C 0 km/h
3124 08-12-2009 01:07:04 6.5 C 7.12 g/m*3 6.5 C 0 km/h
3125 08-12-2009 01:19:04 6.9 C 7.31 g/m*3 6.9 C 0 km/h
Sensor: Nr:Datum:Temp:Abs-Feuchte:Windchill:Wind:
Aussen-T/F 3126 08-12-2009 01:31:04 7 C 7.36 g/m*3 7 C 0 km/h
3127 08-12-2009 01:43:04 7.2 C 7.46 g/m*3 7.2 C 0 km/h
3128 08-12-2009 01:55:04 7.3 C 7.51 g/m*3 7.3 C 0 km/h
3129 08-12-2009 02:07:04 7.3 C 7.51 g/m*3 7.3 C 0 km/h
3130 08-12-2009 02:19:04 7.1 C 7.41 g/m*3 7.1 C 0 km/h
3131 08-12-2009 02:31:04 7.2 C 7.46 g/m*3 7.2 C 0 km/h
3132 08-12-2009 02:43:04 7.1 C 7.41 g/m*3 7.1 C 0 km/h
3133 08-12-2009 02:55:04 7.3 C 7.51 g/m*3 7.3 C 0 km/h
3134 08-12-2009 03:07:04 7.5 C 7.6 g/m*3 7.5 C 0 km/h
3135 08-12-2009 03:19:04 7.7 C 7.7 g/m*3 7.7 C 0 km/h
3136 08-12-2009 03:31:04 7.6 C 7.65 g/m*3 7.6 C 0 km/h
3137 08-12-2009 03:43:04 7.7 C 7.7 g/m*3 7.7 C 0 km/h
3138 08-12-2009 03:55:04 8 C 7.85 g/m*3 8 C 0 km/h
3139 08-12-2009 04:07:04 8.1 C 7.9 g/m*3 8.1 C 0 km/h
3140 08-12-2009 04:19:04 7.9 C 7.8 g/m*3 7.9 C 0 km/h
3141 08-12-2009 04:31:05 7.9 C 7.8 g/m*3 7.9 C 0 km/h
3142 08-12-2009 04:43:05 7.9 C 7.8 g/m*3 7.9 C 0 km/h
3143 08-12-2009 04:55:05 7.8 C 7.75 g/m*3 7.8 C 0 km/h
3144 08-12-2009 05:07:05 7.9 C 7.8 g/m*3 7.9 C 0 km/h
3145 08-12-2009 05:19:05 8.2 C 7.87 g/m*3 8.2 C 0 km/h
3146 08-12-2009 05:31:05 8.5 C 7.85 g/m*3 8.5 C 0 km/h
3147 08-12-2009 05:43:05 8.5 C 7.51 g/m*3 8.5 C 0 km/h
3148 08-12-2009 05:55:05 8.3 C 7 g/m*3 8.3 C 0 km/h
3149 08-12-2009 06:07:05 8 C 6.28 g/m*3 8 C 0 km/h
3150 08-12-2009 06:19:05 7.8 C 6.12 g/m*3 7.8 C 0 km/h
Sensor: Nr:Datum:Temp:Abs-Feuchte:Windchill:Wind:
Aussen-T/F 3151 08-12-2009 06:31:05 7.6 C 6.04 g/m*3 7.6 C 0 km/h
3152 08-12-2009 06:43:05 7.4 C 5.88 g/m*3 7.4 C 0 km/h
3153 08-12-2009 06:55:02 7.3 C 6 g/m*3 7.3 C 0 km/h
3154 08-12-2009 07:07:02 7.2 C 5.97 g/m*3 7.2 C 0 km/h
3155 08-12-2009 07:19:03 7.1 C 5.85 g/m*3 7.1 C 0 km/h
3156 08-12-2009 07:31:02 6.8 C 5.97 g/m*3 6.8 C 0 km/h
3157 08-12-2009 07:43:02 6.4 C 5.96 g/m*3 6.4 C 0 km/h
3158 08-12-2009 07:55:03 6.2 C 6.03 g/m*3 6.2 C 0 km/h
3159 08-12-2009 08:07:02 6 C 5.88 g/m*3 6 C 0 km/h
3160 08-12-2009 08:19:02 5.9 C 6.06 g/m*3 5.9 C 0 km/h
3161 08-12-2009 08:31:02 6 C 6.02 g/m*3 6 C 0 km/h
3162 08-12-2009 08:43:02 6 C 6.1 g/m*3 6 C 0 km/h
3163 08-12-2009 08:55:02 6.2 C 6.18 g/m*3 6.2 C 0 km/h
3164 08-12-2009 09:07:02 6.3 C 6.14 g/m*3 6.3 C 0 km/h
3165 08-12-2009 09:19:02 6.2 C 6.1 g/m*3 6.2 C 0 km/h
3166 08-12-2009 09:31:02 6.2 C 5.96 g/m*3 6.2 C 0 km/h
3167 08-12-2009 09:43:02 6.4 C 5.81 g/m*3 6.4 C 0 km/h
3168 08-12-2009 09:55:02 6.6 C 5.89 g/m*3 6.6 C 0 km/h
3169 08-12-2009 10:07:02 6.8 C 5.89 g/m*3 6.8 C 0 km/h
3170 08-12-2009 10:19:01 6.8 C 5.74 g/m*3 6.8 C 0 km/h
3171 08-12-2009 10:31:02 6.9 C 5.77 g/m*3 6.9 C 0 km/h
3172 08-12-2009 10:43:02 7.1 C 5.85 g/m*3 7.1 C 0 km/h
3173 08-12-2009 10:55:02 7.3 C 5.85 g/m*3 7.3 C 0 km/h
3174 08-12-2009 11:07:02 7.4 C 5.88 g/m*3 7.4 C 0 km/h
3175 08-12-2009 11:19:02 7.4 C 5.81 g/m*3 7.4 C 0 km/h
Sensor: Nr:Datum:Temp:Abs-Feuchte:Windchill:Wind:
Aussen-T/F 3176 08-12-2009 11:31:02 7.4 C 5.81 g/m*3 7.4 C 0 km/h
3177 08-12-2009 11:43:02 7.5 C 5.92 g/m*3 7.5 C 0 km/h
3178 08-12-2009 11:55:02 7.4 C 5.73 g/m*3 7.4 C 0 km/h
3179 08-12-2009 12:07:02 7.4 C 5.73 g/m*3 7.4 C 0 km/h
3180 08-12-2009 12:19:02 7.4 C 5.81 g/m*3 7.4 C 0 km/h
3181 08-12-2009 12:31:02 7.6 C 5.72 g/m*3 7.6 C 0 km/h
3182 08-12-2009 12:43:02 7.9 C 5.67 g/m*3 7.9 C 0 km/h
3183 08-12-2009 12:55:02 8 C 5.46 g/m*3 8 C 0 km/h
3184 08-12-2009 13:07:02 8 C 5.37 g/m*3 8 C 0 km/h
3185 08-12-2009 13:19:03 7.9 C 5.5 g/m*3 7.9 C 0 km/h
3186 08-12-2009 13:31:02 7.8 C 5.55 g/m*3 7.8 C 0 km/h
3187 08-12-2009 13:43:02 7.6 C 5.48 g/m*3 7.6 C 0 km/h
3188 08-12-2009 13:55:03 7.5 C 5.52 g/m*3 7.5 C 0 km/h
3189 08-12-2009 14:07:02 7.5 C 5.6 g/m*3 7.5 C 0 km/h
3190 08-12-2009 14:19:02 7.5 C 5.52 g/m*3 7.5 C 0 km/h
3191 08-12-2009 14:31:02 7.8 C 5.63 g/m*3 7.8 C 0 km/h
3192 08-12-2009 14:43:02 7.8 C 5.55 g/m*3 7.8 C 0 km/h
3193 08-12-2009 14:55:02 7.8 C 5.55 g/m*3 7.8 C 0 km/h
3194 08-12-2009 15:07:02 7.8 C 5.63 g/m*3 7.8 C 0 km/h
3195 08-12-2009 15:19:02 7.7 C 5.59 g/m*3 7.7 C 0 km/h
3196 08-12-2009 15:31:02 7.5 C 5.68 g/m*3 7.5 C 0 km/h
3197 08-12-2009 15:43:02 7.3 C 5.61 g/m*3 7.3 C 0 km/h
3198 08-12-2009 15:55:02 7.4 C 5.57 g/m*3 7.4 C 0 km/h
3199 08-12-2009 16:07:01 7.3 C 5.61 g/m*3 7.3 C 0 km/h
3200 08-12-2009 16:19:01 6.9 C 5.7 g/m*3 6.9 C 0 km/h
Sensor: Nr:Datum:Temp:Abs-Feuchte:Windchill:Wind:
Aussen-T/F 3201 08-12-2009 16:31:02 6.9 C 5.62 g/m*3 6.9 C 0 km/h
3202 08-12-2009 16:43:02 6.9 C 5.62 g/m*3 6.9 C 0 km/h
3203 08-12-2009 16:55:02 6.8 C 5.66 g/m*3 6.8 C 0 km/h
3204 08-12-2009 17:07:02 6.5 C 5.7 g/m*3 6.5 C 0 km/h
3205 08-12-2009 17:19:02 6.5 C 5.7 g/m*3 6.5 C 0 km/h
3206 08-12-2009 17:31:02 6.5 C 5.7 g/m*3 6.5 C 0 km/h
3207 08-12-2009 17:43:02 6.4 C 5.66 g/m*3 6.4 C 0 km/h
3208 08-12-2009 17:55:01 6.3 C 5.7 g/m*3 6.3 C 0 km/h
3209 08-12-2009 18:07:02 6 C 5.66 g/m*3 6 C 0 km/h
3210 08-12-2009 18:19:01 5.9 C 5.77 g/m*3 5.9 C 0 km/h
3211 08-12-2009 18:31:02 5.8 C 5.8 g/m*3 5.8 C 0 km/h
3212 08-12-2009 18:43:03 5.7 C 5.76 g/m*3 5.7 C 0 km/h
3213 08-12-2009 18:55:02 5.8 C 5.87 g/m*3 5.8 C 0 km/h
3214 08-12-2009 19:07:02 5.7 C 5.84 g/m*3 5.7 C 0 km/h
3215 08-12-2009 19:19:01 6 C 5.88 g/m*3 6 C 0 km/h
3216 08-12-2009 19:31:02 6 C 5.81 g/m*3 6 C 0 km/h
3217 08-12-2009 19:43:02 6.1 C 5.84 g/m*3 6.1 C 0 km/h
3218 08-12-2009 19:55:02 6.2 C 5.88 g/m*3 6.2 C 0 km/h
3219 08-12-2009 20:07:02 6.2 C 5.88 g/m*3 6.2 C 0 km/h
3220 08-12-2009 20:19:02 6.3 C 5.92 g/m*3 6.3 C 0 km/h
3221 08-12-2009 20:31:02 6.3 C 6 g/m*3 6.3 C 0 km/h
3222 08-12-2009 20:43:02 6.3 C 6 g/m*3 6.3 C 0 km/h
3223 08-12-2009 20:55:02 6.3 C 6.07 g/m*3 6.3 C 0 km/h
3224 08-12-2009 21:07:01 6.3 C 6.07 g/m*3 6.3 C 0 km/h
3225 08-12-2009 21:19:02 6.4 C 6.11 g/m*3 6.4 C 0 km/h
Sensor: Nr:Datum:Temp:Abs-Feuchte:Windchill:Wind:
Aussen-T/F 3226 08-12-2009 21:31:01 6.4 C 6.11 g/m*3 6.4 C 0 km/h
3227 08-12-2009 21:43:01 6.5 C 6.15 g/m*3 6.5 C 0 km/h
3228 08-12-2009 21:55:02 6.5 C 6.15 g/m*3 6.5 C 0 km/h
3229 08-12-2009 22:07:02 6.4 C 6.11 g/m*3 6.4 C 0 km/h
3230 08-12-2009 22:19:02 6.4 C 6.11 g/m*3 6.4 C 0 km/h
3231 08-12-2009 22:31:02 6.4 C 6.11 g/m*3 6.4 C 0 km/h
3232 08-12-2009 22:43:02 6.3 C 6.14 g/m*3 6.3 C 0 km/h
3233 08-12-2009 22:55:02 6.3 C 6.22 g/m*3 6.3 C 0 km/h
3234 08-12-2009 23:07:02 6.4 C 6.26 g/m*3 6.4 C 0 km/h
3235 08-12-2009 23:19:02 6.5 C 6.22 g/m*3 6.5 C 0 km/h
3236 08-12-2009 23:31:02 6.5 C 6.22 g/m*3 6.5 C 0 km/h
3237 08-12-2009 23:43:02 6.4 C 6.26 g/m*3 6.4 C 0 km/h
3238 08-12-2009 23:55:02 6.3 C 6.37 g/m*3 6.3 C 0 km/h
3239 09-12-2009 0